<?xml version="1.0" encoding="UTF-8" standalone="no" ?>
<gpx xmlns="http://www.topografix.com/GPX/1/1" creator="www.cicloide.com" version="1.1" xmlns:xsi="http://www.w3.org/2001/XMLSchema-instance" xsi:schemaLocation="http://www.topografix.com/GPX/1/1 http://www.topografix.com/GPX/1/1/gpx.xsd">
  <trk>
    <name>www.cicloide.com 16731</name>
    <desc>www.cicloide.com 16731</desc>
    <trkseg>
      <trkpt lat="41.606575275" lon="2.540783031">
        <ele>116.94</ele>
        <time>2014-01-19T08:10:51Z</time>
      </trkpt>
      <trkpt lat="41.606610395" lon="2.540796945">
        <ele>116.94</ele>
        <time>2014-01-19T08:10:52Z</time>
      </trkpt>
      <trkpt lat="41.606809214" lon="2.540879926">
        <ele>117.90</ele>
        <time>2014-01-19T08:10:59Z</time>
      </trkpt>
      <trkpt lat="41.607001830" lon="2.540950921">
        <ele>118.38</ele>
        <time>2014-01-19T08:11:06Z</time>
      </trkpt>
      <trkpt lat="41.607327467" lon="2.541017138">
        <ele>119.34</ele>
        <time>2014-01-19T08:11:17Z</time>
      </trkpt>
      <trkpt lat="41.607576326" lon="2.541007247">
        <ele>119.82</ele>
        <time>2014-01-19T08:11:25Z</time>
      </trkpt>
      <trkpt lat="41.607905064" lon="2.541037087">
        <ele>120.30</ele>
        <time>2014-01-19T08:11:35Z</time>
      </trkpt>
      <trkpt lat="41.608191641" lon="2.541139010">
        <ele>120.78</ele>
        <time>2014-01-19T08:11:42Z</time>
      </trkpt>
      <trkpt lat="41.608430023" lon="2.541297009">
        <ele>122.71</ele>
        <time>2014-01-19T08:11:50Z</time>
      </trkpt>
      <trkpt lat="41.608660106" lon="2.541470934">
        <ele>123.19</ele>
        <time>2014-01-19T08:11:58Z</time>
      </trkpt>
      <trkpt lat="41.608930925" lon="2.541514436">
        <ele>124.63</ele>
        <time>2014-01-19T08:12:07Z</time>
      </trkpt>
      <trkpt lat="41.609224208" lon="2.541472359">
        <ele>125.59</ele>
        <time>2014-01-19T08:12:18Z</time>
      </trkpt>
      <trkpt lat="41.609429984" lon="2.541426594">
        <ele>126.07</ele>
        <time>2014-01-19T08:12:26Z</time>
      </trkpt>
      <trkpt lat="41.609725949" lon="2.541366244">
        <ele>127.51</ele>
        <time>2014-01-19T08:12:37Z</time>
      </trkpt>
      <trkpt lat="41.609975813" lon="2.541415613">
        <ele>128.95</ele>
        <time>2014-01-19T08:12:46Z</time>
      </trkpt>
      <trkpt lat="41.610221403" lon="2.541371692">
        <ele>130.88</ele>
        <time>2014-01-19T08:12:55Z</time>
      </trkpt>
      <trkpt lat="41.610439332" lon="2.541307738">
        <ele>131.36</ele>
        <time>2014-01-19T08:13:03Z</time>
      </trkpt>
      <trkpt lat="41.610742003" lon="2.541185865">
        <ele>133.28</ele>
        <time>2014-01-19T08:13:15Z</time>
      </trkpt>
      <trkpt lat="41.610988682" lon="2.541081427">
        <ele>134.72</ele>
        <time>2014-01-19T08:13:25Z</time>
      </trkpt>
      <trkpt lat="41.611266794" lon="2.540969947">
        <ele>136.16</ele>
        <time>2014-01-19T08:13:36Z</time>
      </trkpt>
      <trkpt lat="41.611549599" lon="2.540851595">
        <ele>137.61</ele>
        <time>2014-01-19T08:13:48Z</time>
      </trkpt>
      <trkpt lat="41.611794016" lon="2.540821588">
        <ele>138.57</ele>
        <time>2014-01-19T08:13:57Z</time>
      </trkpt>
      <trkpt lat="41.612063913" lon="2.540837262">
        <ele>139.53</ele>
        <time>2014-01-19T08:14:07Z</time>
      </trkpt>
      <trkpt lat="41.612374127" lon="2.540860396">
        <ele>140.97</ele>
        <time>2014-01-19T08:14:18Z</time>
      </trkpt>
      <trkpt lat="41.612620890" lon="2.540859642">
        <ele>142.41</ele>
        <time>2014-01-19T08:14:27Z</time>
      </trkpt>
      <trkpt lat="41.612937475" lon="2.540872382">
        <ele>144.34</ele>
        <time>2014-01-19T08:14:38Z</time>
      </trkpt>
      <trkpt lat="41.613213826" lon="2.540889230">
        <ele>146.26</ele>
        <time>2014-01-19T08:14:49Z</time>
      </trkpt>
      <trkpt lat="41.613488920" lon="2.540926781">
        <ele>148.18</ele>
        <time>2014-01-19T08:15:00Z</time>
      </trkpt>
      <trkpt lat="41.613753788" lon="2.540971708">
        <ele>150.58</ele>
        <time>2014-01-19T08:15:10Z</time>
      </trkpt>
      <trkpt lat="41.613995187" lon="2.541048402">
        <ele>151.54</ele>
        <time>2014-01-19T08:15:19Z</time>
      </trkpt>
      <trkpt lat="41.614253769" lon="2.541131048">
        <ele>153.47</ele>
        <time>2014-01-19T08:15:29Z</time>
      </trkpt>
      <trkpt lat="41.614477733" lon="2.541183015">
        <ele>154.43</ele>
        <time>2014-01-19T08:15:38Z</time>
      </trkpt>
      <trkpt lat="41.614706308" lon="2.541234564">
        <ele>155.87</ele>
        <time>2014-01-19T08:15:47Z</time>
      </trkpt>
      <trkpt lat="41.614873024" lon="2.541259123">
        <ele>156.83</ele>
        <time>2014-01-19T08:15:54Z</time>
      </trkpt>
      <trkpt lat="41.615089193" lon="2.541312432">
        <ele>158.75</ele>
        <time>2014-01-19T08:16:03Z</time>
      </trkpt>
      <trkpt lat="41.615385158" lon="2.541420810">
        <ele>160.20</ele>
        <time>2014-01-19T08:16:14Z</time>
      </trkpt>
      <trkpt lat="41.615615996" lon="2.541549975">
        <ele>161.64</ele>
        <time>2014-01-19T08:16:23Z</time>
      </trkpt>
      <trkpt lat="41.615822358" lon="2.541692970">
        <ele>163.56</ele>
        <time>2014-01-19T08:16:32Z</time>
      </trkpt>
      <trkpt lat="41.616092256" lon="2.541870415">
        <ele>165.48</ele>
        <time>2014-01-19T08:16:44Z</time>
      </trkpt>
      <trkpt lat="41.616329547" lon="2.542036209">
        <ele>167.41</ele>
        <time>2014-01-19T08:16:55Z</time>
      </trkpt>
      <trkpt lat="41.616480086" lon="2.542113155">
        <ele>168.85</ele>
        <time>2014-01-19T08:17:02Z</time>
      </trkpt>
      <trkpt lat="41.616685694" lon="2.542131176">
        <ele>169.81</ele>
        <time>2014-01-19T08:17:10Z</time>
      </trkpt>
      <trkpt lat="41.616897673" lon="2.542023469">
        <ele>170.29</ele>
        <time>2014-01-19T08:17:18Z</time>
      </trkpt>
      <trkpt lat="41.617103532" lon="2.541806126">
        <ele>170.29</ele>
        <time>2014-01-19T08:17:28Z</time>
      </trkpt>
      <trkpt lat="41.617279971" lon="2.541602865">
        <ele>171.25</ele>
        <time>2014-01-19T08:17:37Z</time>
      </trkpt>
      <trkpt lat="41.617461104" lon="2.541325508">
        <ele>172.21</ele>
        <time>2014-01-19T08:17:47Z</time>
      </trkpt>
      <trkpt lat="41.617568476" lon="2.541098694">
        <ele>173.66</ele>
        <time>2014-01-19T08:17:55Z</time>
      </trkpt>
      <trkpt lat="41.617681883" lon="2.540891493">
        <ele>176.06</ele>
        <time>2014-01-19T08:18:03Z</time>
      </trkpt>
      <trkpt lat="41.617762936" lon="2.540727040">
        <ele>177.50</ele>
        <time>2014-01-19T08:18:10Z</time>
      </trkpt>
      <trkpt lat="41.617772911" lon="2.540706337">
        <ele>177.98</ele>
        <time>2014-01-19T08:18:11Z</time>
      </trkpt>
      <trkpt lat="41.617833428" lon="2.540565018">
        <ele>178.94</ele>
        <time>2014-01-19T08:18:17Z</time>
      </trkpt>
      <trkpt lat="41.617927725" lon="2.540371144">
        <ele>180.87</ele>
        <time>2014-01-19T08:18:25Z</time>
      </trkpt>
      <trkpt lat="41.617980698" lon="2.540254803">
        <ele>182.31</ele>
        <time>2014-01-19T08:18:30Z</time>
      </trkpt>
      <trkpt lat="41.618077509" lon="2.540259497">
        <ele>183.75</ele>
        <time>2014-01-19T08:18:36Z</time>
      </trkpt>
      <trkpt lat="41.618095614" lon="2.540340886">
        <ele>184.71</ele>
        <time>2014-01-19T08:18:39Z</time>
      </trkpt>
      <trkpt lat="41.618074157" lon="2.540604999">
        <ele>187.11</ele>
        <time>2014-01-19T08:18:49Z</time>
      </trkpt>
      <trkpt lat="41.617938453" lon="2.540828293">
        <ele>189.04</ele>
        <time>2014-01-19T08:18:59Z</time>
      </trkpt>
      <trkpt lat="41.617936693" lon="2.541000039">
        <ele>189.52</ele>
        <time>2014-01-19T08:19:05Z</time>
      </trkpt>
      <trkpt lat="41.618062338" lon="2.541307906">
        <ele>191.92</ele>
        <time>2014-01-19T08:19:16Z</time>
      </trkpt>
      <trkpt lat="41.618177254" lon="2.541607140">
        <ele>193.36</ele>
        <time>2014-01-19T08:19:27Z</time>
      </trkpt>
      <trkpt lat="41.618272724" lon="2.541848203">
        <ele>194.80</ele>
        <time>2014-01-19T08:19:36Z</time>
      </trkpt>
      <trkpt lat="41.618390573" lon="2.542107372">
        <ele>196.25</ele>
        <time>2014-01-19T08:19:46Z</time>
      </trkpt>
      <trkpt lat="41.618545136" lon="2.542336952">
        <ele>198.17</ele>
        <time>2014-01-19T08:19:56Z</time>
      </trkpt>
      <trkpt lat="41.618735908" lon="2.542542812">
        <ele>200.09</ele>
        <time>2014-01-19T08:20:07Z</time>
      </trkpt>
      <trkpt lat="41.618935565" lon="2.542720592">
        <ele>202.01</ele>
        <time>2014-01-19T08:20:18Z</time>
      </trkpt>
      <trkpt lat="41.619161122" lon="2.542761915">
        <ele>203.46</ele>
        <time>2014-01-19T08:20:28Z</time>
      </trkpt>
      <trkpt lat="41.619323982" lon="2.542755041">
        <ele>203.94</ele>
        <time>2014-01-19T08:20:36Z</time>
      </trkpt>
      <trkpt lat="41.619436719" lon="2.542713886">
        <ele>204.42</ele>
        <time>2014-01-19T08:20:42Z</time>
      </trkpt>
      <trkpt lat="41.619515425" lon="2.542725118">
        <ele>204.90</ele>
        <time>2014-01-19T08:20:45Z</time>
      </trkpt>
      <trkpt lat="41.619648278" lon="2.542798460">
        <ele>203.46</ele>
        <time>2014-01-19T08:20:48Z</time>
      </trkpt>
      <trkpt lat="41.619697899" lon="2.542856211">
        <ele>202.49</ele>
        <time>2014-01-19T08:20:49Z</time>
      </trkpt>
      <trkpt lat="41.619788088" lon="2.542981772">
        <ele>201.05</ele>
        <time>2014-01-19T08:20:51Z</time>
      </trkpt>
      <trkpt lat="41.619971233" lon="2.542989651">
        <ele>198.17</ele>
        <time>2014-01-19T08:20:55Z</time>
      </trkpt>
      <trkpt lat="41.620006269" lon="2.542932738">
        <ele>197.21</ele>
        <time>2014-01-19T08:20:56Z</time>
      </trkpt>
      <trkpt lat="41.620185893" lon="2.542636102">
        <ele>192.88</ele>
        <time>2014-01-19T08:21:01Z</time>
      </trkpt>
      <trkpt lat="41.620258816" lon="2.542429069">
        <ele>190.48</ele>
        <time>2014-01-19T08:21:04Z</time>
      </trkpt>
      <trkpt lat="41.620458054" lon="2.542159675">
        <ele>190.00</ele>
        <time>2014-01-19T08:21:10Z</time>
      </trkpt>
      <trkpt lat="41.620539777" lon="2.542046771">
        <ele>190.96</ele>
        <time>2014-01-19T08:21:15Z</time>
      </trkpt>
      <trkpt lat="41.620677408" lon="2.541954067">
        <ele>193.84</ele>
        <time>2014-01-19T08:21:24Z</time>
      </trkpt>
      <trkpt lat="41.620827863" lon="2.541932022">
        <ele>195.77</ele>
        <time>2014-01-19T08:21:33Z</time>
      </trkpt>
      <trkpt lat="41.620984772" lon="2.541943589">
        <ele>197.21</ele>
        <time>2014-01-19T08:21:42Z</time>
      </trkpt>
      <trkpt lat="41.621161714" lon="2.541963454">
        <ele>199.13</ele>
        <time>2014-01-19T08:21:53Z</time>
      </trkpt>
      <trkpt lat="41.621267159" lon="2.541998407">
        <ele>200.57</ele>
        <time>2014-01-19T08:22:00Z</time>
      </trkpt>
      <trkpt lat="41.621378973" lon="2.542100499">
        <ele>202.49</ele>
        <time>2014-01-19T08:22:10Z</time>
      </trkpt>
      <trkpt lat="41.621477712" lon="2.542227401">
        <ele>203.46</ele>
        <time>2014-01-19T08:22:19Z</time>
      </trkpt>
      <trkpt lat="41.621573266" lon="2.542383136">
        <ele>204.90</ele>
        <time>2014-01-19T08:22:29Z</time>
      </trkpt>
      <trkpt lat="41.621592879" lon="2.542451365">
        <ele>205.86</ele>
        <time>2014-01-19T08:22:33Z</time>
      </trkpt>
      <trkpt lat="41.621559939" lon="2.542593690">
        <ele>206.82</ele>
        <time>2014-01-19T08:22:41Z</time>
      </trkpt>
      <trkpt lat="41.621506378" lon="2.542715814">
        <ele>208.74</ele>
        <time>2014-01-19T08:22:49Z</time>
      </trkpt>
      <trkpt lat="41.621522471" lon="2.542758394">
        <ele>209.22</ele>
        <time>2014-01-19T08:22:52Z</time>
      </trkpt>
      <trkpt lat="41.621583073" lon="2.542771218">
        <ele>210.19</ele>
        <time>2014-01-19T08:22:58Z</time>
      </trkpt>
      <trkpt lat="41.621672843" lon="2.542596875">
        <ele>211.63</ele>
        <time>2014-01-19T08:23:08Z</time>
      </trkpt>
      <trkpt lat="41.621732773" lon="2.542479109">
        <ele>212.11</ele>
        <time>2014-01-19T08:23:15Z</time>
      </trkpt>
      <trkpt lat="41.621850036" lon="2.542339634">
        <ele>214.03</ele>
        <time>2014-01-19T08:23:26Z</time>
      </trkpt>
      <trkpt lat="41.621958750" lon="2.542235699">
        <ele>214.99</ele>
        <time>2014-01-19T08:23:35Z</time>
      </trkpt>
      <trkpt lat="41.622070648" lon="2.542165794">
        <ele>216.91</ele>
        <time>2014-01-19T08:23:44Z</time>
      </trkpt>
      <trkpt lat="41.622226300" lon="2.542112736">
        <ele>218.36</ele>
        <time>2014-01-19T08:23:55Z</time>
      </trkpt>
      <trkpt lat="41.622357058" lon="2.542082142">
        <ele>220.28</ele>
        <time>2014-01-19T08:24:04Z</time>
      </trkpt>
      <trkpt lat="41.622495275" lon="2.542068228">
        <ele>221.72</ele>
        <time>2014-01-19T08:24:14Z</time>
      </trkpt>
      <trkpt lat="41.622592505" lon="2.542062864">
        <ele>223.16</ele>
        <time>2014-01-19T08:24:22Z</time>
      </trkpt>
      <trkpt lat="41.622695770" lon="2.542015255">
        <ele>224.61</ele>
        <time>2014-01-19T08:24:31Z</time>
      </trkpt>
      <trkpt lat="41.622766346" lon="2.541999497">
        <ele>225.57</ele>
        <time>2014-01-19T08:24:36Z</time>
      </trkpt>
      <trkpt lat="41.622835664" lon="2.541983571">
        <ele>227.01</ele>
        <time>2014-01-19T08:24:41Z</time>
      </trkpt>
      <trkpt lat="41.622973966" lon="2.541940907">
        <ele>229.41</ele>
        <time>2014-01-19T08:24:52Z</time>
      </trkpt>
      <trkpt lat="41.623062227" lon="2.541894304">
        <ele>230.37</ele>
        <time>2014-01-19T08:24:59Z</time>
      </trkpt>
      <trkpt lat="41.623201199" lon="2.541840911">
        <ele>231.81</ele>
        <time>2014-01-19T08:25:08Z</time>
      </trkpt>
      <trkpt lat="41.623228105" lon="2.541834625">
        <ele>232.30</ele>
        <time>2014-01-19T08:25:10Z</time>
      </trkpt>
      <trkpt lat="41.623358360" lon="2.541801935">
        <ele>234.22</ele>
        <time>2014-01-19T08:25:21Z</time>
      </trkpt>
      <trkpt lat="41.623458272" lon="2.541689701">
        <ele>237.58</ele>
        <time>2014-01-19T08:25:30Z</time>
      </trkpt>
      <trkpt lat="41.623478975" lon="2.541670675">
        <ele>238.06</ele>
        <time>2014-01-19T08:25:32Z</time>
      </trkpt>
      <trkpt lat="41.623520047" lon="2.541613175">
        <ele>239.02</ele>
        <time>2014-01-19T08:25:37Z</time>
      </trkpt>
      <trkpt lat="41.623641249" lon="2.541490464">
        <ele>239.02</ele>
        <time>2014-01-19T08:25:46Z</time>
      </trkpt>
      <trkpt lat="41.623761445" lon="2.541456685">
        <ele>240.95</ele>
        <time>2014-01-19T08:25:56Z</time>
      </trkpt>
      <trkpt lat="41.623870410" lon="2.541419134">
        <ele>243.35</ele>
        <time>2014-01-19T08:26:05Z</time>
      </trkpt>
      <trkpt lat="41.623976441" lon="2.541378146">
        <ele>246.72</ele>
        <time>2014-01-19T08:26:13Z</time>
      </trkpt>
      <trkpt lat="41.624091357" lon="2.541334728">
        <ele>246.72</ele>
        <time>2014-01-19T08:26:20Z</time>
      </trkpt>
      <trkpt lat="41.624214655" lon="2.541275049">
        <ele>247.20</ele>
        <time>2014-01-19T08:26:28Z</time>
      </trkpt>
      <trkpt lat="41.624281794" lon="2.541224925">
        <ele>248.16</ele>
        <time>2014-01-19T08:26:33Z</time>
      </trkpt>
      <trkpt lat="41.624360165" lon="2.541133562">
        <ele>249.12</ele>
        <time>2014-01-19T08:26:41Z</time>
      </trkpt>
      <trkpt lat="41.624460412" lon="2.541034572">
        <ele>251.04</ele>
        <time>2014-01-19T08:26:50Z</time>
      </trkpt>
      <trkpt lat="41.624469213" lon="2.541022418">
        <ele>251.04</ele>
        <time>2014-01-19T08:26:51Z</time>
      </trkpt>
      <trkpt lat="41.624532832" lon="2.540947987">
        <ele>251.52</ele>
        <time>2014-01-19T08:26:57Z</time>
      </trkpt>
      <trkpt lat="41.624617238" lon="2.540859725">
        <ele>252.48</ele>
        <time>2014-01-19T08:27:05Z</time>
      </trkpt>
      <trkpt lat="41.624629140" lon="2.540849583">
        <ele>252.48</ele>
        <time>2014-01-19T08:27:06Z</time>
      </trkpt>
      <trkpt lat="41.624676498" lon="2.540803483">
        <ele>253.44</ele>
        <time>2014-01-19T08:27:10Z</time>
      </trkpt>
      <trkpt lat="41.624757216" lon="2.540712623">
        <ele>254.41</ele>
        <time>2014-01-19T08:27:18Z</time>
      </trkpt>
      <trkpt lat="41.624820667" lon="2.540636599">
        <ele>254.89</ele>
        <time>2014-01-19T08:27:24Z</time>
      </trkpt>
      <trkpt lat="41.624856793" lon="2.540583961">
        <ele>255.37</ele>
        <time>2014-01-19T08:27:28Z</time>
      </trkpt>
      <trkpt lat="41.624976067" lon="2.540521516">
        <ele>257.77</ele>
        <time>2014-01-19T08:27:38Z</time>
      </trkpt>
      <trkpt lat="41.625049744" lon="2.540478097">
        <ele>260.17</ele>
        <time>2014-01-19T08:27:45Z</time>
      </trkpt>
      <trkpt lat="41.625126606" lon="2.540382795">
        <ele>261.14</ele>
        <time>2014-01-19T08:27:51Z</time>
      </trkpt>
      <trkpt lat="41.625271948" lon="2.540234855">
        <ele>262.10</ele>
        <time>2014-01-19T08:28:01Z</time>
      </trkpt>
      <trkpt lat="41.625390049" lon="2.540124884">
        <ele>263.54</ele>
        <time>2014-01-19T08:28:10Z</time>
      </trkpt>
      <trkpt lat="41.625499098" lon="2.540026983">
        <ele>264.50</ele>
        <time>2014-01-19T08:28:19Z</time>
      </trkpt>
      <trkpt lat="41.625629017" lon="2.539909804">
        <ele>265.94</ele>
        <time>2014-01-19T08:28:30Z</time>
      </trkpt>
      <trkpt lat="41.625739742" lon="2.539840235">
        <ele>267.86</ele>
        <time>2014-01-19T08:28:39Z</time>
      </trkpt>
      <trkpt lat="41.625850383" lon="2.539750967">
        <ele>269.79</ele>
        <time>2014-01-19T08:28:48Z</time>
      </trkpt>
      <trkpt lat="41.625981560" lon="2.539684583">
        <ele>271.71</ele>
        <time>2014-01-19T08:28:57Z</time>
      </trkpt>
      <trkpt lat="41.626095386" lon="2.539600847">
        <ele>273.63</ele>
        <time>2014-01-19T08:29:06Z</time>
      </trkpt>
      <trkpt lat="41.626222540" lon="2.539512837">
        <ele>277.00</ele>
        <time>2014-01-19T08:29:16Z</time>
      </trkpt>
      <trkpt lat="41.626328906" lon="2.539456176">
        <ele>277.96</ele>
        <time>2014-01-19T08:29:24Z</time>
      </trkpt>
      <trkpt lat="41.626408367" lon="2.539385600">
        <ele>278.92</ele>
        <time>2014-01-19T08:29:31Z</time>
      </trkpt>
      <trkpt lat="41.626503501" lon="2.539280575">
        <ele>280.36</ele>
        <time>2014-01-19T08:29:40Z</time>
      </trkpt>
      <trkpt lat="41.626597881" lon="2.539186949">
        <ele>281.32</ele>
        <time>2014-01-19T08:29:48Z</time>
      </trkpt>
      <trkpt lat="41.626705254" lon="2.539122576">
        <ele>282.77</ele>
        <time>2014-01-19T08:29:57Z</time>
      </trkpt>
      <trkpt lat="41.626803741" lon="2.539117966">
        <ele>283.73</ele>
        <time>2014-01-19T08:30:05Z</time>
      </trkpt>
      <trkpt lat="41.626936846" lon="2.539133472">
        <ele>284.69</ele>
        <time>2014-01-19T08:30:14Z</time>
      </trkpt>
      <trkpt lat="41.627042625" lon="2.539133556">
        <ele>286.13</ele>
        <time>2014-01-19T08:30:22Z</time>
      </trkpt>
      <trkpt lat="41.627183693" lon="2.539140513">
        <ele>288.05</ele>
        <time>2014-01-19T08:30:32Z</time>
      </trkpt>
      <trkpt lat="41.627306739" lon="2.539169263">
        <ele>289.01</ele>
        <time>2014-01-19T08:30:40Z</time>
      </trkpt>
      <trkpt lat="41.627435234" lon="2.539229278">
        <ele>290.94</ele>
        <time>2014-01-19T08:30:49Z</time>
      </trkpt>
      <trkpt lat="41.627554424" lon="2.539287280">
        <ele>291.90</ele>
        <time>2014-01-19T08:30:57Z</time>
      </trkpt>
      <trkpt lat="41.627660874" lon="2.539365819">
        <ele>293.34</ele>
        <time>2014-01-19T08:31:05Z</time>
      </trkpt>
      <trkpt lat="41.627756512" lon="2.539471431">
        <ele>294.30</ele>
        <time>2014-01-19T08:31:14Z</time>
      </trkpt>
      <trkpt lat="41.627854580" lon="2.539574193">
        <ele>295.74</ele>
        <time>2014-01-19T08:31:23Z</time>
      </trkpt>
      <trkpt lat="41.627923228" lon="2.539644601">
        <ele>296.70</ele>
        <time>2014-01-19T08:31:29Z</time>
      </trkpt>
      <trkpt lat="41.628015932" lon="2.539720960">
        <ele>298.63</ele>
        <time>2014-01-19T08:31:38Z</time>
      </trkpt>
      <trkpt lat="41.628106624" lon="2.539775526">
        <ele>300.55</ele>
        <time>2014-01-19T08:31:46Z</time>
      </trkpt>
      <trkpt lat="41.628228162" lon="2.539759265">
        <ele>302.95</ele>
        <time>2014-01-19T08:31:55Z</time>
      </trkpt>
      <trkpt lat="41.628364535" lon="2.539816765">
        <ele>303.43</ele>
        <time>2014-01-19T08:32:03Z</time>
      </trkpt>
      <trkpt lat="41.628481379" lon="2.539938890">
        <ele>304.39</ele>
        <time>2014-01-19T08:32:12Z</time>
      </trkpt>
      <trkpt lat="41.628586404" lon="2.540068390">
        <ele>305.84</ele>
        <time>2014-01-19T08:32:21Z</time>
      </trkpt>
      <trkpt lat="41.628665948" lon="2.540177606">
        <ele>307.28</ele>
        <time>2014-01-19T08:32:29Z</time>
      </trkpt>
      <trkpt lat="41.628730992" lon="2.540295623">
        <ele>308.24</ele>
        <time>2014-01-19T08:32:37Z</time>
      </trkpt>
      <trkpt lat="41.628804920" lon="2.540429482">
        <ele>309.68</ele>
        <time>2014-01-19T08:32:46Z</time>
      </trkpt>
      <trkpt lat="41.628884800" lon="2.540541548">
        <ele>312.57</ele>
        <time>2014-01-19T08:32:55Z</time>
      </trkpt>
      <trkpt lat="41.628960908" lon="2.540664259">
        <ele>314.97</ele>
        <time>2014-01-19T08:33:05Z</time>
      </trkpt>
      <trkpt lat="41.629019916" lon="2.540778086">
        <ele>318.33</ele>
        <time>2014-01-19T08:33:14Z</time>
      </trkpt>
      <trkpt lat="41.629107926" lon="2.540833322">
        <ele>320.74</ele>
        <time>2014-01-19T08:33:22Z</time>
      </trkpt>
      <trkpt lat="41.629223177" lon="2.540812703">
        <ele>322.18</ele>
        <time>2014-01-19T08:33:31Z</time>
      </trkpt>
      <trkpt lat="41.629321832" lon="2.540750677">
        <ele>324.10</ele>
        <time>2014-01-19T08:33:41Z</time>
      </trkpt>
      <trkpt lat="41.629414536" lon="2.540722346">
        <ele>326.02</ele>
        <time>2014-01-19T08:33:50Z</time>
      </trkpt>
      <trkpt lat="41.629461810" lon="2.540701391">
        <ele>326.99</ele>
        <time>2014-01-19T08:33:54Z</time>
      </trkpt>
      <trkpt lat="41.629560633" lon="2.540630480">
        <ele>329.39</ele>
        <time>2014-01-19T08:34:03Z</time>
      </trkpt>
      <trkpt lat="41.629642105" lon="2.540565018">
        <ele>331.31</ele>
        <time>2014-01-19T08:34:11Z</time>
      </trkpt>
      <trkpt lat="41.629750064" lon="2.540475667">
        <ele>334.68</ele>
        <time>2014-01-19T08:34:22Z</time>
      </trkpt>
      <trkpt lat="41.629875792" lon="2.540467452">
        <ele>337.56</ele>
        <time>2014-01-19T08:34:32Z</time>
      </trkpt>
      <trkpt lat="41.629965395" lon="2.540485893">
        <ele>338.52</ele>
        <time>2014-01-19T08:34:41Z</time>
      </trkpt>
      <trkpt lat="41.630031528" lon="2.540439541">
        <ele>339.00</ele>
        <time>2014-01-19T08:34:50Z</time>
      </trkpt>
      <trkpt lat="41.630047957" lon="2.540426716">
        <ele>339.00</ele>
        <time>2014-01-19T08:34:52Z</time>
      </trkpt>
      <trkpt lat="41.630094141" lon="2.540384639">
        <ele>339.00</ele>
        <time>2014-01-19T08:34:56Z</time>
      </trkpt>
      <trkpt lat="41.630211823" lon="2.540245416">
        <ele>339.00</ele>
        <time>2014-01-19T08:35:06Z</time>
      </trkpt>
      <trkpt lat="41.630225988" lon="2.540257486">
        <ele>339.00</ele>
        <time>2014-01-19T08:35:17Z</time>
      </trkpt>
      <trkpt lat="41.630235125" lon="2.540244242">
        <ele>339.00</ele>
        <time>2014-01-19T08:35:25Z</time>
      </trkpt>
      <trkpt lat="41.630278208" lon="2.540156735">
        <ele>339.00</ele>
        <time>2014-01-19T08:35:31Z</time>
      </trkpt>
      <trkpt lat="41.630350292" lon="2.539994042">
        <ele>339.00</ele>
        <time>2014-01-19T08:35:39Z</time>
      </trkpt>
      <trkpt lat="41.630443918" lon="2.539792374">
        <ele>337.56</ele>
        <time>2014-01-19T08:35:48Z</time>
      </trkpt>
      <trkpt lat="41.630540310" lon="2.539572936">
        <ele>337.08</ele>
        <time>2014-01-19T08:35:56Z</time>
      </trkpt>
      <trkpt lat="41.630695459" lon="2.539381577">
        <ele>336.60</ele>
        <time>2014-01-19T08:36:05Z</time>
      </trkpt>
      <trkpt lat="41.630809536" lon="2.539236821">
        <ele>335.16</ele>
        <time>2014-01-19T08:36:11Z</time>
      </trkpt>
      <trkpt lat="41.630838370" lon="2.539194493">
        <ele>335.16</ele>
        <time>2014-01-19T08:36:12Z</time>
      </trkpt>
      <trkpt lat="41.631055461" lon="2.539123833">
        <ele>331.31</ele>
        <time>2014-01-19T08:36:17Z</time>
      </trkpt>
      <trkpt lat="41.631288897" lon="2.539255345">
        <ele>328.91</ele>
        <time>2014-01-19T08:36:22Z</time>
      </trkpt>
      <trkpt lat="41.631452764" lon="2.539298093">
        <ele>327.47</ele>
        <time>2014-01-19T08:36:25Z</time>
      </trkpt>
      <trkpt lat="41.631571032" lon="2.539294908">
        <ele>325.54</ele>
        <time>2014-01-19T08:36:27Z</time>
      </trkpt>
      <trkpt lat="41.631672453" lon="2.539252831">
        <ele>325.06</ele>
        <time>2014-01-19T08:36:29Z</time>
      </trkpt>
      <trkpt lat="41.631810000" lon="2.539057449">
        <ele>321.70</ele>
        <time>2014-01-19T08:36:33Z</time>
      </trkpt>
      <trkpt lat="41.631841684" lon="2.539032219">
        <ele>321.22</ele>
        <time>2014-01-19T08:36:34Z</time>
      </trkpt>
      <trkpt lat="41.631942937" lon="2.539109416">
        <ele>320.74</ele>
        <time>2014-01-19T08:36:39Z</time>
      </trkpt>
      <trkpt lat="41.632061290" lon="2.539403873">
        <ele>319.30</ele>
        <time>2014-01-19T08:36:45Z</time>
      </trkpt>
      <trkpt lat="41.632222222" lon="2.539368920">
        <ele>319.30</ele>
        <time>2014-01-19T08:36:49Z</time>
      </trkpt>
      <trkpt lat="41.632341162" lon="2.539306810">
        <ele>318.81</ele>
        <time>2014-01-19T08:36:52Z</time>
      </trkpt>
      <trkpt lat="41.632493712" lon="2.539201114">
        <ele>318.33</ele>
        <time>2014-01-19T08:36:58Z</time>
      </trkpt>
      <trkpt lat="41.632632097" lon="2.539180076">
        <ele>319.78</ele>
        <time>2014-01-19T08:37:05Z</time>
      </trkpt>
      <trkpt lat="41.632661183" lon="2.539273283">
        <ele>320.26</ele>
        <time>2014-01-19T08:37:09Z</time>
      </trkpt>
      <trkpt lat="41.632660931" lon="2.539445782">
        <ele>321.70</ele>
        <time>2014-01-19T08:37:17Z</time>
      </trkpt>
      <trkpt lat="41.632668559" lon="2.539580815">
        <ele>323.14</ele>
        <time>2014-01-19T08:37:23Z</time>
      </trkpt>
      <trkpt lat="41.632700326" lon="2.539694306">
        <ele>325.06</ele>
        <time>2014-01-19T08:37:30Z</time>
      </trkpt>
      <trkpt lat="41.632728741" lon="2.539862195">
        <ele>326.02</ele>
        <time>2014-01-19T08:37:38Z</time>
      </trkpt>
      <trkpt lat="41.632773668" lon="2.540072581">
        <ele>328.43</ele>
        <time>2014-01-19T08:37:50Z</time>
      </trkpt>
      <trkpt lat="41.632806692" lon="2.540226054">
        <ele>331.79</ele>
        <time>2014-01-19T08:38:00Z</time>
      </trkpt>
      <trkpt lat="41.632854218" lon="2.540305598">
        <ele>333.23</ele>
        <time>2014-01-19T08:38:07Z</time>
      </trkpt>
      <trkpt lat="41.632966703" lon="2.540280536">
        <ele>336.60</ele>
        <time>2014-01-19T08:38:18Z</time>
      </trkpt>
      <trkpt lat="41.632977432" lon="2.540281542">
        <ele>336.60</ele>
        <time>2014-01-19T08:38:19Z</time>
      </trkpt>
      <trkpt lat="41.633105340" lon="2.540259078">
        <ele>337.56</ele>
        <time>2014-01-19T08:38:28Z</time>
      </trkpt>
      <trkpt lat="41.633257555" lon="2.540245080">
        <ele>335.16</ele>
        <time>2014-01-19T08:38:35Z</time>
      </trkpt>
      <trkpt lat="41.633406166" lon="2.540299647">
        <ele>333.71</ele>
        <time>2014-01-19T08:38:40Z</time>
      </trkpt>
      <trkpt lat="41.633637590" lon="2.540348346">
        <ele>329.87</ele>
        <time>2014-01-19T08:38:46Z</time>
      </trkpt>
      <trkpt lat="41.633650582" lon="2.540357901">
        <ele>329.87</ele>
        <time>2014-01-19T08:38:47Z</time>
      </trkpt>
      <trkpt lat="41.633668855" lon="2.540370390">
        <ele>329.39</ele>
        <time>2014-01-19T08:38:55Z</time>
      </trkpt>
      <trkpt lat="41.633698778" lon="2.540388830">
        <ele>329.39</ele>
        <time>2014-01-19T08:39:13Z</time>
      </trkpt>
      <trkpt lat="41.633697605" lon="2.540403079">
        <ele>329.39</ele>
        <time>2014-01-19T08:39:26Z</time>
      </trkpt>
      <trkpt lat="41.633734066" lon="2.540570215">
        <ele>326.99</ele>
        <time>2014-01-19T08:39:33Z</time>
      </trkpt>
      <trkpt lat="41.633757536" lon="2.540662835">
        <ele>325.54</ele>
        <time>2014-01-19T08:39:35Z</time>
      </trkpt>
      <trkpt lat="41.633759296" lon="2.540958297">
        <ele>322.18</ele>
        <time>2014-01-19T08:39:40Z</time>
      </trkpt>
      <trkpt lat="41.633710262" lon="2.541294998">
        <ele>319.30</ele>
        <time>2014-01-19T08:39:45Z</time>
      </trkpt>
      <trkpt lat="41.633721745" lon="2.541472443">
        <ele>317.37</ele>
        <time>2014-01-19T08:39:47Z</time>
      </trkpt>
      <trkpt lat="41.633801708" lon="2.541790117">
        <ele>313.05</ele>
        <time>2014-01-19T08:39:52Z</time>
      </trkpt>
      <trkpt lat="41.633813862" lon="2.541822638">
        <ele>312.57</ele>
        <time>2014-01-19T08:39:53Z</time>
      </trkpt>
      <trkpt lat="41.633907823" lon="2.541835630">
        <ele>311.60</ele>
        <time>2014-01-19T08:39:58Z</time>
      </trkpt>
      <trkpt lat="41.633939088" lon="2.541783579">
        <ele>313.05</ele>
        <time>2014-01-19T08:40:02Z</time>
      </trkpt>
      <trkpt lat="41.634000695" lon="2.541597249">
        <ele>314.97</ele>
        <time>2014-01-19T08:40:13Z</time>
      </trkpt>
      <trkpt lat="41.634093063" lon="2.541495241">
        <ele>317.37</ele>
        <time>2014-01-19T08:40:22Z</time>
      </trkpt>
      <trkpt lat="41.634176044" lon="2.541415194">
        <ele>318.33</ele>
        <time>2014-01-19T08:40:30Z</time>
      </trkpt>
      <trkpt lat="41.634264557" lon="2.541327268">
        <ele>320.26</ele>
        <time>2014-01-19T08:40:39Z</time>
      </trkpt>
      <trkpt lat="41.634343347" lon="2.541206820">
        <ele>321.70</ele>
        <time>2014-01-19T08:40:48Z</time>
      </trkpt>
      <trkpt lat="41.634367906" lon="2.541164911">
        <ele>322.66</ele>
        <time>2014-01-19T08:40:51Z</time>
      </trkpt>
      <trkpt lat="41.634430854" lon="2.541051084">
        <ele>325.06</ele>
        <time>2014-01-19T08:41:00Z</time>
      </trkpt>
      <trkpt lat="41.634480307" lon="2.540912531">
        <ele>328.43</ele>
        <time>2014-01-19T08:41:10Z</time>
      </trkpt>
      <trkpt lat="41.634530263" lon="2.540874226">
        <ele>329.39</ele>
        <time>2014-01-19T08:41:16Z</time>
      </trkpt>
      <trkpt lat="41.634588517" lon="2.540846901">
        <ele>329.39</ele>
        <time>2014-01-19T08:41:20Z</time>
      </trkpt>
      <trkpt lat="41.634724137" lon="2.540791413">
        <ele>329.39</ele>
        <time>2014-01-19T08:41:26Z</time>
      </trkpt>
      <trkpt lat="41.634838801" lon="2.540733243">
        <ele>329.39</ele>
        <time>2014-01-19T08:41:33Z</time>
      </trkpt>
      <trkpt lat="41.634981880" lon="2.540734919">
        <ele>329.39</ele>
        <time>2014-01-19T08:41:39Z</time>
      </trkpt>
      <trkpt lat="41.635019766" lon="2.540728549">
        <ele>328.43</ele>
        <time>2014-01-19T08:41:40Z</time>
      </trkpt>
      <trkpt lat="41.635096628" lon="2.540552696">
        <ele>326.99</ele>
        <time>2014-01-19T08:41:45Z</time>
      </trkpt>
      <trkpt lat="41.635077853" lon="2.540384807">
        <ele>326.02</ele>
        <time>2014-01-19T08:41:48Z</time>
      </trkpt>
      <trkpt lat="41.635073830" lon="2.540133936">
        <ele>324.10</ele>
        <time>2014-01-19T08:41:52Z</time>
      </trkpt>
      <trkpt lat="41.635080200" lon="2.540007956">
        <ele>322.66</ele>
        <time>2014-01-19T08:41:54Z</time>
      </trkpt>
      <trkpt lat="41.635081541" lon="2.539887676">
        <ele>322.18</ele>
        <time>2014-01-19T08:41:56Z</time>
      </trkpt>
      <trkpt lat="41.635015240" lon="2.539621718">
        <ele>318.81</ele>
        <time>2014-01-19T08:42:00Z</time>
      </trkpt>
      <trkpt lat="41.635019599" lon="2.539382750">
        <ele>316.89</ele>
        <time>2014-01-19T08:42:04Z</time>
      </trkpt>
      <trkpt lat="41.635095706" lon="2.539327765">
        <ele>317.37</ele>
        <time>2014-01-19T08:42:09Z</time>
      </trkpt>
      <trkpt lat="41.635210874" lon="2.539323323">
        <ele>319.30</ele>
        <time>2014-01-19T08:42:18Z</time>
      </trkpt>
      <trkpt lat="41.635221938" lon="2.539319802">
        <ele>319.78</ele>
        <time>2014-01-19T08:42:19Z</time>
      </trkpt>
      <trkpt lat="41.635343559" lon="2.539194996">
        <ele>322.66</ele>
        <time>2014-01-19T08:42:29Z</time>
      </trkpt>
      <trkpt lat="41.635437604" lon="2.539119559">
        <ele>325.06</ele>
        <time>2014-01-19T08:42:38Z</time>
      </trkpt>
      <trkpt lat="41.635449339" lon="2.539119475">
        <ele>325.06</ele>
        <time>2014-01-19T08:42:39Z</time>
      </trkpt>
      <trkpt lat="41.635574564" lon="2.539163228">
        <ele>327.47</ele>
        <time>2014-01-19T08:42:49Z</time>
      </trkpt>
      <trkpt lat="41.635706077" lon="2.539123582">
        <ele>328.91</ele>
        <time>2014-01-19T08:42:58Z</time>
      </trkpt>
      <trkpt lat="41.635759134" lon="2.539042780">
        <ele>330.35</ele>
        <time>2014-01-19T08:43:05Z</time>
      </trkpt>
      <trkpt lat="41.635783609" lon="2.538917136">
        <ele>331.31</ele>
        <time>2014-01-19T08:43:13Z</time>
      </trkpt>
      <trkpt lat="41.635814203" lon="2.538796269">
        <ele>332.75</ele>
        <time>2014-01-19T08:43:20Z</time>
      </trkpt>
      <trkpt lat="41.635835828" lon="2.538737511">
        <ele>333.23</ele>
        <time>2014-01-19T08:43:24Z</time>
      </trkpt>
      <trkpt lat="41.635949906" lon="2.538557720">
        <ele>333.23</ele>
        <time>2014-01-19T08:43:36Z</time>
      </trkpt>
      <trkpt lat="41.636059039" lon="2.538448000">
        <ele>333.71</ele>
        <time>2014-01-19T08:43:45Z</time>
      </trkpt>
      <trkpt lat="41.636139672" lon="2.538323864">
        <ele>333.71</ele>
        <time>2014-01-19T08:43:53Z</time>
      </trkpt>
      <trkpt lat="41.636155933" lon="2.538139127">
        <ele>333.71</ele>
        <time>2014-01-19T08:44:01Z</time>
      </trkpt>
      <trkpt lat="41.636178062" lon="2.537960257">
        <ele>333.71</ele>
        <time>2014-01-19T08:44:10Z</time>
      </trkpt>
      <trkpt lat="41.636279734" lon="2.537879456">
        <ele>334.20</ele>
        <time>2014-01-19T08:44:19Z</time>
      </trkpt>
      <trkpt lat="41.636320889" lon="2.537861183">
        <ele>334.68</ele>
        <time>2014-01-19T08:44:22Z</time>
      </trkpt>
      <trkpt lat="41.636369420" lon="2.537840312">
        <ele>335.16</ele>
        <time>2014-01-19T08:44:26Z</time>
      </trkpt>
      <trkpt lat="41.636436057" lon="2.537774934">
        <ele>335.16</ele>
        <time>2014-01-19T08:44:31Z</time>
      </trkpt>
      <trkpt lat="41.636489617" lon="2.537608637">
        <ele>335.64</ele>
        <time>2014-01-19T08:44:40Z</time>
      </trkpt>
      <trkpt lat="41.636451898" lon="2.537466731">
        <ele>337.08</ele>
        <time>2014-01-19T08:44:49Z</time>
      </trkpt>
      <trkpt lat="41.636420718" lon="2.537358185">
        <ele>339.00</ele>
        <time>2014-01-19T08:44:56Z</time>
      </trkpt>
      <trkpt lat="41.636418957" lon="2.537339913">
        <ele>339.00</ele>
        <time>2014-01-19T08:44:57Z</time>
      </trkpt>
      <trkpt lat="41.636463968" lon="2.537263051">
        <ele>339.96</ele>
        <time>2014-01-19T08:45:03Z</time>
      </trkpt>
      <trkpt lat="41.636554158" lon="2.537264979">
        <ele>341.89</ele>
        <time>2014-01-19T08:45:10Z</time>
      </trkpt>
      <trkpt lat="41.636674019" lon="2.537255339">
        <ele>343.81</ele>
        <time>2014-01-19T08:45:19Z</time>
      </trkpt>
      <trkpt lat="41.636763873" lon="2.537290376">
        <ele>344.77</ele>
        <time>2014-01-19T08:45:26Z</time>
      </trkpt>
      <trkpt lat="41.636890104" lon="2.537395736">
        <ele>346.21</ele>
        <time>2014-01-19T08:45:35Z</time>
      </trkpt>
      <trkpt lat="41.636993118" lon="2.537481986">
        <ele>348.13</ele>
        <time>2014-01-19T08:45:44Z</time>
      </trkpt>
      <trkpt lat="41.637078026" lon="2.537513586">
        <ele>349.58</ele>
        <time>2014-01-19T08:45:51Z</time>
      </trkpt>
      <trkpt lat="41.637189003" lon="2.537550466">
        <ele>352.46</ele>
        <time>2014-01-19T08:46:00Z</time>
      </trkpt>
      <trkpt lat="41.637272990" lon="2.537570331">
        <ele>353.90</ele>
        <time>2014-01-19T08:46:07Z</time>
      </trkpt>
      <trkpt lat="41.637308361" lon="2.537573014">
        <ele>354.38</ele>
        <time>2014-01-19T08:46:10Z</time>
      </trkpt>
      <trkpt lat="41.637388827" lon="2.537472431">
        <ele>355.83</ele>
        <time>2014-01-19T08:46:20Z</time>
      </trkpt>
      <trkpt lat="41.637399975" lon="2.537378470">
        <ele>356.31</ele>
        <time>2014-01-19T08:46:26Z</time>
      </trkpt>
      <trkpt lat="41.637467366" lon="2.537219213">
        <ele>358.71</ele>
        <time>2014-01-19T08:46:37Z</time>
      </trkpt>
      <trkpt lat="41.637493350" lon="2.537089378">
        <ele>359.67</ele>
        <time>2014-01-19T08:46:46Z</time>
      </trkpt>
      <trkpt lat="41.637505084" lon="2.536950154">
        <ele>359.67</ele>
        <time>2014-01-19T08:46:54Z</time>
      </trkpt>
      <trkpt lat="41.637510700" lon="2.536887290">
        <ele>359.67</ele>
        <time>2014-01-19T08:46:57Z</time>
      </trkpt>
      <trkpt lat="41.637544815" lon="2.536725855">
        <ele>360.15</ele>
        <time>2014-01-19T08:47:06Z</time>
      </trkpt>
      <trkpt lat="41.637536181" lon="2.536570873">
        <ele>360.15</ele>
        <time>2014-01-19T08:47:15Z</time>
      </trkpt>
      <trkpt lat="41.637534421" lon="2.536556121">
        <ele>360.15</ele>
        <time>2014-01-19T08:47:16Z</time>
      </trkpt>
      <trkpt lat="41.637487063" lon="2.536431650">
        <ele>360.63</ele>
        <time>2014-01-19T08:47:25Z</time>
      </trkpt>
      <trkpt lat="41.637442136" lon="2.536318410">
        <ele>362.07</ele>
        <time>2014-01-19T08:47:33Z</time>
      </trkpt>
      <trkpt lat="41.637418751" lon="2.536203075">
        <ele>363.04</ele>
        <time>2014-01-19T08:47:41Z</time>
      </trkpt>
      <trkpt lat="41.637413722" lon="2.536153203">
        <ele>363.04</ele>
        <time>2014-01-19T08:47:44Z</time>
      </trkpt>
      <trkpt lat="41.637411794" lon="2.536060080">
        <ele>363.04</ele>
        <time>2014-01-19T08:47:48Z</time>
      </trkpt>
      <trkpt lat="41.637467869" lon="2.535900656">
        <ele>363.04</ele>
        <time>2014-01-19T08:47:57Z</time>
      </trkpt>
      <trkpt lat="41.637582030" lon="2.535757410">
        <ele>364.00</ele>
        <time>2014-01-19T08:48:07Z</time>
      </trkpt>
      <trkpt lat="41.637718823" lon="2.535646685">
        <ele>365.44</ele>
        <time>2014-01-19T08:48:18Z</time>
      </trkpt>
      <trkpt lat="41.637836924" lon="2.535535373">
        <ele>366.40</ele>
        <time>2014-01-19T08:48:27Z</time>
      </trkpt>
      <trkpt lat="41.637903392" lon="2.535395144">
        <ele>366.88</ele>
        <time>2014-01-19T08:48:35Z</time>
      </trkpt>
      <trkpt lat="41.637938177" lon="2.535298752">
        <ele>367.36</ele>
        <time>2014-01-19T08:48:40Z</time>
      </trkpt>
      <trkpt lat="41.638008082" lon="2.535138322">
        <ele>367.36</ele>
        <time>2014-01-19T08:48:49Z</time>
      </trkpt>
      <trkpt lat="41.638061475" lon="2.534970684">
        <ele>368.32</ele>
        <time>2014-01-19T08:48:58Z</time>
      </trkpt>
      <trkpt lat="41.638075054" lon="2.534854176">
        <ele>369.28</ele>
        <time>2014-01-19T08:49:04Z</time>
      </trkpt>
      <trkpt lat="41.638115287" lon="2.534795418">
        <ele>369.28</ele>
        <time>2014-01-19T08:49:11Z</time>
      </trkpt>
      <trkpt lat="41.638119646" lon="2.534786869">
        <ele>369.28</ele>
        <time>2014-01-19T08:49:19Z</time>
      </trkpt>
      <trkpt lat="41.638123501" lon="2.534771111">
        <ele>369.28</ele>
        <time>2014-01-19T08:49:24Z</time>
      </trkpt>
      <trkpt lat="41.638236908" lon="2.534653764">
        <ele>369.28</ele>
        <time>2014-01-19T08:49:33Z</time>
      </trkpt>
      <trkpt lat="41.638408989" lon="2.534626272">
        <ele>369.28</ele>
        <time>2014-01-19T08:49:41Z</time>
      </trkpt>
      <trkpt lat="41.638581572" lon="2.534695171">
        <ele>369.28</ele>
        <time>2014-01-19T08:49:49Z</time>
      </trkpt>
      <trkpt lat="41.638770417" lon="2.534795586">
        <ele>367.84</ele>
        <time>2014-01-19T08:49:57Z</time>
      </trkpt>
      <trkpt lat="41.639017012" lon="2.534936151">
        <ele>367.84</ele>
        <time>2014-01-19T08:50:08Z</time>
      </trkpt>
      <trkpt lat="41.639153302" lon="2.534945874">
        <ele>367.84</ele>
        <time>2014-01-19T08:50:15Z</time>
      </trkpt>
      <trkpt lat="41.639279533" lon="2.534792317">
        <ele>369.28</ele>
        <time>2014-01-19T08:50:23Z</time>
      </trkpt>
      <trkpt lat="41.639406519" lon="2.534546644">
        <ele>369.76</ele>
        <time>2014-01-19T08:50:33Z</time>
      </trkpt>
      <trkpt lat="41.639521351" lon="2.534362158">
        <ele>371.69</ele>
        <time>2014-01-19T08:50:42Z</time>
      </trkpt>
      <trkpt lat="41.639649762" lon="2.534308346">
        <ele>372.17</ele>
        <time>2014-01-19T08:50:49Z</time>
      </trkpt>
      <trkpt lat="41.639693264" lon="2.534316477">
        <ele>372.17</ele>
        <time>2014-01-19T08:50:51Z</time>
      </trkpt>
      <trkpt lat="41.639819160" lon="2.534424603">
        <ele>370.73</ele>
        <time>2014-01-19T08:50:56Z</time>
      </trkpt>
      <trkpt lat="41.640037425" lon="2.534495514">
        <ele>370.24</ele>
        <time>2014-01-19T08:51:02Z</time>
      </trkpt>
      <trkpt lat="41.640239429" lon="2.534521330">
        <ele>370.24</ele>
        <time>2014-01-19T08:51:10Z</time>
      </trkpt>
      <trkpt lat="41.640406313" lon="2.534570448">
        <ele>372.17</ele>
        <time>2014-01-19T08:51:18Z</time>
      </trkpt>
      <trkpt lat="41.640564898" lon="2.534644712">
        <ele>373.13</ele>
        <time>2014-01-19T08:51:25Z</time>
      </trkpt>
      <trkpt lat="41.640720550" lon="2.534652256">
        <ele>373.61</ele>
        <time>2014-01-19T08:51:33Z</time>
      </trkpt>
      <trkpt lat="41.640876286" lon="2.534637084">
        <ele>374.57</ele>
        <time>2014-01-19T08:51:40Z</time>
      </trkpt>
      <trkpt lat="41.641099245" lon="2.534616465">
        <ele>376.49</ele>
        <time>2014-01-19T08:51:50Z</time>
      </trkpt>
      <trkpt lat="41.641244754" lon="2.534616716">
        <ele>377.94</ele>
        <time>2014-01-19T08:51:57Z</time>
      </trkpt>
      <trkpt lat="41.641390935" lon="2.534585033">
        <ele>378.90</ele>
        <time>2014-01-19T08:52:03Z</time>
      </trkpt>
      <trkpt lat="41.641477939" lon="2.534536334">
        <ele>381.30</ele>
        <time>2014-01-19T08:52:07Z</time>
      </trkpt>
      <trkpt lat="41.641545246" lon="2.534426699">
        <ele>381.30</ele>
        <time>2014-01-19T08:52:12Z</time>
      </trkpt>
      <trkpt lat="41.641596124" lon="2.534253612">
        <ele>382.26</ele>
        <time>2014-01-19T08:52:21Z</time>
      </trkpt>
      <trkpt lat="41.641615402" lon="2.534211032">
        <ele>382.26</ele>
        <time>2014-01-19T08:52:24Z</time>
      </trkpt>
      <trkpt lat="41.641673992" lon="2.534106091">
        <ele>383.22</ele>
        <time>2014-01-19T08:52:31Z</time>
      </trkpt>
      <trkpt lat="41.641800558" lon="2.534026211">
        <ele>384.66</ele>
        <time>2014-01-19T08:52:40Z</time>
      </trkpt>
      <trkpt lat="41.641900806" lon="2.533978015">
        <ele>385.63</ele>
        <time>2014-01-19T08:52:47Z</time>
      </trkpt>
      <trkpt lat="41.641999461" lon="2.533907943">
        <ele>386.59</ele>
        <time>2014-01-19T08:52:55Z</time>
      </trkpt>
      <trkpt lat="41.642093590" lon="2.533739299">
        <ele>387.55</ele>
        <time>2014-01-19T08:53:05Z</time>
      </trkpt>
      <trkpt lat="41.642143294" lon="2.533516927">
        <ele>386.11</ele>
        <time>2014-01-19T08:53:12Z</time>
      </trkpt>
      <trkpt lat="41.642142037" lon="2.533204869">
        <ele>383.70</ele>
        <time>2014-01-19T08:53:19Z</time>
      </trkpt>
      <trkpt lat="41.642128458" lon="2.533075117">
        <ele>382.26</ele>
        <time>2014-01-19T08:53:21Z</time>
      </trkpt>
      <trkpt lat="41.642128626" lon="2.532950562">
        <ele>380.82</ele>
        <time>2014-01-19T08:53:23Z</time>
      </trkpt>
      <trkpt lat="41.642245302" lon="2.532710420">
        <ele>378.42</ele>
        <time>2014-01-19T08:53:28Z</time>
      </trkpt>
      <trkpt lat="41.642408246" lon="2.532433398">
        <ele>375.53</ele>
        <time>2014-01-19T08:53:34Z</time>
      </trkpt>
      <trkpt lat="41.642409587" lon="2.532368187">
        <ele>375.53</ele>
        <time>2014-01-19T08:53:35Z</time>
      </trkpt>
      <trkpt lat="41.642442193" lon="2.531994857">
        <ele>374.09</ele>
        <time>2014-01-19T08:53:42Z</time>
      </trkpt>
      <trkpt lat="41.642522324" lon="2.531865608">
        <ele>371.69</ele>
        <time>2014-01-19T08:53:48Z</time>
      </trkpt>
      <trkpt lat="41.642563898" lon="2.531846246">
        <ele>371.21</ele>
        <time>2014-01-19T08:53:55Z</time>
      </trkpt>
      <trkpt lat="41.642550068" lon="2.531846916">
        <ele>370.73</ele>
        <time>2014-01-19T08:54:05Z</time>
      </trkpt>
      <trkpt lat="41.642552080" lon="2.531844905">
        <ele>370.73</ele>
        <time>2014-01-19T08:54:18Z</time>
      </trkpt>
      <trkpt lat="41.642562054" lon="2.531841636">
        <ele>370.73</ele>
        <time>2014-01-19T08:54:34Z</time>
      </trkpt>
      <trkpt lat="41.642551661" lon="2.531850185">
        <ele>370.73</ele>
        <time>2014-01-19T08:54:41Z</time>
      </trkpt>
      <trkpt lat="41.642541183" lon="2.531854712">
        <ele>370.73</ele>
        <time>2014-01-19T08:54:49Z</time>
      </trkpt>
      <trkpt lat="41.642536909" lon="2.531852868">
        <ele>370.73</ele>
        <time>2014-01-19T08:55:05Z</time>
      </trkpt>
      <trkpt lat="41.642539088" lon="2.531867536">
        <ele>370.73</ele>
        <time>2014-01-19T08:55:13Z</time>
      </trkpt>
      <trkpt lat="41.642553002" lon="2.531856891">
        <ele>370.73</ele>
        <time>2014-01-19T08:55:28Z</time>
      </trkpt>
      <trkpt lat="41.642571861" lon="2.531841720">
        <ele>370.73</ele>
        <time>2014-01-19T08:55:36Z</time>
      </trkpt>
      <trkpt lat="41.642571526" lon="2.531858148">
        <ele>370.73</ele>
        <time>2014-01-19T08:55:52Z</time>
      </trkpt>
      <trkpt lat="41.642589882" lon="2.531835936">
        <ele>370.73</ele>
        <time>2014-01-19T08:56:01Z</time>
      </trkpt>
      <trkpt lat="41.642587954" lon="2.531825040">
        <ele>370.24</ele>
        <time>2014-01-19T08:56:10Z</time>
      </trkpt>
      <trkpt lat="41.642595833" lon="2.531820178">
        <ele>370.24</ele>
        <time>2014-01-19T08:56:22Z</time>
      </trkpt>
      <trkpt lat="41.642603880" lon="2.531817412">
        <ele>370.24</ele>
        <time>2014-01-19T08:56:23Z</time>
      </trkpt>
      <trkpt lat="41.642759448" lon="2.531791093">
        <ele>367.84</ele>
        <time>2014-01-19T08:56:32Z</time>
      </trkpt>
      <trkpt lat="41.642876376" lon="2.531672154">
        <ele>366.88</ele>
        <time>2014-01-19T08:56:38Z</time>
      </trkpt>
      <trkpt lat="41.642996069" lon="2.531598058">
        <ele>364.96</ele>
        <time>2014-01-19T08:56:44Z</time>
      </trkpt>
      <trkpt lat="41.643165300" lon="2.531594118">
        <ele>361.11</ele>
        <time>2014-01-19T08:56:50Z</time>
      </trkpt>
      <trkpt lat="41.643217519" lon="2.531597471">
        <ele>360.63</ele>
        <time>2014-01-19T08:56:51Z</time>
      </trkpt>
      <trkpt lat="41.643359760" lon="2.531614822">
        <ele>359.19</ele>
        <time>2014-01-19T08:56:54Z</time>
      </trkpt>
      <trkpt lat="41.643472832" lon="2.531648433">
        <ele>357.75</ele>
        <time>2014-01-19T08:56:57Z</time>
      </trkpt>
      <trkpt lat="41.643693695" lon="2.531655893">
        <ele>356.31</ele>
        <time>2014-01-19T08:57:02Z</time>
      </trkpt>
      <trkpt lat="41.643999551" lon="2.531713896">
        <ele>352.94</ele>
        <time>2014-01-19T08:57:08Z</time>
      </trkpt>
      <trkpt lat="41.644094601" lon="2.531716578">
        <ele>351.50</ele>
        <time>2014-01-19T08:57:10Z</time>
      </trkpt>
      <trkpt lat="41.644292331" lon="2.531654719">
        <ele>348.62</ele>
        <time>2014-01-19T08:57:15Z</time>
      </trkpt>
      <trkpt lat="41.644276824" lon="2.531579450">
        <ele>347.17</ele>
        <time>2014-01-19T08:57:20Z</time>
      </trkpt>
      <trkpt lat="41.644109521" lon="2.531539217">
        <ele>345.73</ele>
        <time>2014-01-19T08:57:25Z</time>
      </trkpt>
      <trkpt lat="41.643690175" lon="2.531339560">
        <ele>344.29</ele>
        <time>2014-01-19T08:57:36Z</time>
      </trkpt>
      <trkpt lat="41.643517759" lon="2.531231601">
        <ele>343.33</ele>
        <time>2014-01-19T08:57:42Z</time>
      </trkpt>
      <trkpt lat="41.643449614" lon="2.531054575">
        <ele>342.85</ele>
        <time>2014-01-19T08:57:47Z</time>
      </trkpt>
      <trkpt lat="41.643359844" lon="2.530742265">
        <ele>341.41</ele>
        <time>2014-01-19T08:57:54Z</time>
      </trkpt>
      <trkpt lat="41.643374680" lon="2.530551745">
        <ele>341.41</ele>
        <time>2014-01-19T08:58:00Z</time>
      </trkpt>
      <trkpt lat="41.643364789" lon="2.530452335">
        <ele>342.85</ele>
        <time>2014-01-19T08:58:04Z</time>
      </trkpt>
      <trkpt lat="41.643281808" lon="2.530324847">
        <ele>346.21</ele>
        <time>2014-01-19T08:58:12Z</time>
      </trkpt>
      <trkpt lat="41.643269319" lon="2.530306993">
        <ele>346.21</ele>
        <time>2014-01-19T08:58:13Z</time>
      </trkpt>
      <trkpt lat="41.643188099" lon="2.530170452">
        <ele>349.10</ele>
        <time>2014-01-19T08:58:22Z</time>
      </trkpt>
      <trkpt lat="41.643148536" lon="2.530008849">
        <ele>350.54</ele>
        <time>2014-01-19T08:58:31Z</time>
      </trkpt>
      <trkpt lat="41.643080810" lon="2.529906338">
        <ele>352.46</ele>
        <time>2014-01-19T08:58:38Z</time>
      </trkpt>
      <trkpt lat="41.642978048" lon="2.529803576">
        <ele>354.86</ele>
        <time>2014-01-19T08:58:47Z</time>
      </trkpt>
      <trkpt lat="41.642921806" lon="2.529708022">
        <ele>356.79</ele>
        <time>2014-01-19T08:58:55Z</time>
      </trkpt>
      <trkpt lat="41.642831281" lon="2.529594280">
        <ele>358.71</ele>
        <time>2014-01-19T08:59:04Z</time>
      </trkpt>
      <trkpt lat="41.642751066" lon="2.529460086">
        <ele>360.63</ele>
        <time>2014-01-19T08:59:14Z</time>
      </trkpt>
      <trkpt lat="41.642693566" lon="2.529344835">
        <ele>363.52</ele>
        <time>2014-01-19T08:59:23Z</time>
      </trkpt>
      <trkpt lat="41.642644867" lon="2.529217513">
        <ele>366.40</ele>
        <time>2014-01-19T08:59:32Z</time>
      </trkpt>
      <trkpt lat="41.642613687" lon="2.529098742">
        <ele>367.84</ele>
        <time>2014-01-19T08:59:41Z</time>
      </trkpt>
      <trkpt lat="41.642613771" lon="2.529085918">
        <ele>367.84</ele>
        <time>2014-01-19T08:59:42Z</time>
      </trkpt>
      <trkpt lat="41.642609663" lon="2.528954405">
        <ele>367.84</ele>
        <time>2014-01-19T08:59:49Z</time>
      </trkpt>
      <trkpt lat="41.642608909" lon="2.528778469">
        <ele>368.32</ele>
        <time>2014-01-19T08:59:59Z</time>
      </trkpt>
      <trkpt lat="41.642642185" lon="2.528612089">
        <ele>368.80</ele>
        <time>2014-01-19T09:00:09Z</time>
      </trkpt>
      <trkpt lat="41.642648975" lon="2.528597504">
        <ele>368.80</ele>
        <time>2014-01-19T09:00:10Z</time>
      </trkpt>
      <trkpt lat="41.642708821" lon="2.528407822">
        <ele>366.40</ele>
        <time>2014-01-19T09:00:18Z</time>
      </trkpt>
      <trkpt lat="41.642720724" lon="2.528339844">
        <ele>365.44</ele>
        <time>2014-01-19T09:00:20Z</time>
      </trkpt>
      <trkpt lat="41.642797837" lon="2.528177654">
        <ele>363.04</ele>
        <time>2014-01-19T09:00:24Z</time>
      </trkpt>
      <trkpt lat="41.642924236" lon="2.527980261">
        <ele>361.59</ele>
        <time>2014-01-19T09:00:29Z</time>
      </trkpt>
      <trkpt lat="41.642934797" lon="2.527875655">
        <ele>360.15</ele>
        <time>2014-01-19T09:00:34Z</time>
      </trkpt>
      <trkpt lat="41.642928092" lon="2.527843384">
        <ele>360.15</ele>
        <time>2014-01-19T09:00:36Z</time>
      </trkpt>
      <trkpt lat="41.642926583" lon="2.527731570">
        <ele>359.19</ele>
        <time>2014-01-19T09:00:43Z</time>
      </trkpt>
      <trkpt lat="41.642932031" lon="2.527705083">
        <ele>358.23</ele>
        <time>2014-01-19T09:00:58Z</time>
      </trkpt>
      <trkpt lat="41.642934127" lon="2.527696533">
        <ele>358.23</ele>
        <time>2014-01-19T09:00:59Z</time>
      </trkpt>
      <trkpt lat="41.642969834" lon="2.527596705">
        <ele>358.23</ele>
        <time>2014-01-19T09:01:04Z</time>
      </trkpt>
      <trkpt lat="41.643021550" lon="2.527370980">
        <ele>356.31</ele>
        <time>2014-01-19T09:01:12Z</time>
      </trkpt>
      <trkpt lat="41.643045606" lon="2.527272996">
        <ele>354.38</ele>
        <time>2014-01-19T09:01:16Z</time>
      </trkpt>
      <trkpt lat="41.643023394" lon="2.527136957">
        <ele>351.98</ele>
        <time>2014-01-19T09:01:20Z</time>
      </trkpt>
      <trkpt lat="41.643091288" lon="2.527004523">
        <ele>348.62</ele>
        <time>2014-01-19T09:01:25Z</time>
      </trkpt>
      <trkpt lat="41.643183572" lon="2.526913161">
        <ele>344.77</ele>
        <time>2014-01-19T09:01:30Z</time>
      </trkpt>
      <trkpt lat="41.643198492" lon="2.526887931">
        <ele>343.81</ele>
        <time>2014-01-19T09:01:31Z</time>
      </trkpt>
      <trkpt lat="41.643211400" lon="2.526840825">
        <ele>341.89</ele>
        <time>2014-01-19T09:01:35Z</time>
      </trkpt>
      <trkpt lat="41.643216178" lon="2.526833113">
        <ele>341.89</ele>
        <time>2014-01-19T09:01:47Z</time>
      </trkpt>
      <trkpt lat="41.643220117" lon="2.526804112">
        <ele>341.89</ele>
        <time>2014-01-19T09:01:59Z</time>
      </trkpt>
      <trkpt lat="41.643217854" lon="2.526764047">
        <ele>341.41</ele>
        <time>2014-01-19T09:02:07Z</time>
      </trkpt>
      <trkpt lat="41.643230008" lon="2.526746445">
        <ele>340.92</ele>
        <time>2014-01-19T09:02:13Z</time>
      </trkpt>
      <trkpt lat="41.643277450" lon="2.526639491">
        <ele>339.00</ele>
        <time>2014-01-19T09:02:19Z</time>
      </trkpt>
      <trkpt lat="41.643271582" lon="2.526536226">
        <ele>337.08</ele>
        <time>2014-01-19T09:02:25Z</time>
      </trkpt>
      <trkpt lat="41.643281892" lon="2.526508734">
        <ele>337.56</ele>
        <time>2014-01-19T09:02:41Z</time>
      </trkpt>
      <trkpt lat="41.643280886" lon="2.526477553">
        <ele>337.08</ele>
        <time>2014-01-19T09:02:43Z</time>
      </trkpt>
      <trkpt lat="41.643335536" lon="2.526325757">
        <ele>333.71</ele>
        <time>2014-01-19T09:02:49Z</time>
      </trkpt>
      <trkpt lat="41.643427989" lon="2.526216289">
        <ele>331.31</ele>
        <time>2014-01-19T09:02:53Z</time>
      </trkpt>
      <trkpt lat="41.643494290" lon="2.526065583">
        <ele>329.87</ele>
        <time>2014-01-19T09:02:59Z</time>
      </trkpt>
      <trkpt lat="41.643554220" lon="2.525955025">
        <ele>327.95</ele>
        <time>2014-01-19T09:03:04Z</time>
      </trkpt>
      <trkpt lat="41.643610379" lon="2.525888389">
        <ele>326.99</ele>
        <time>2014-01-19T09:03:07Z</time>
      </trkpt>
      <trkpt lat="41.643666538" lon="2.525808761">
        <ele>325.54</ele>
        <time>2014-01-19T09:03:12Z</time>
      </trkpt>
      <trkpt lat="41.643662850" lon="2.525795685">
        <ele>325.54</ele>
        <time>2014-01-19T09:03:25Z</time>
      </trkpt>
      <trkpt lat="41.643657569" lon="2.525789315">
        <ele>325.54</ele>
        <time>2014-01-19T09:03:35Z</time>
      </trkpt>
      <trkpt lat="41.643647427" lon="2.525787722">
        <ele>325.54</ele>
        <time>2014-01-19T09:03:45Z</time>
      </trkpt>
      <trkpt lat="41.643671651" lon="2.525736760">
        <ele>325.54</ele>
        <time>2014-01-19T09:03:52Z</time>
      </trkpt>
      <trkpt lat="41.643717500" lon="2.525663503">
        <ele>323.62</ele>
        <time>2014-01-19T09:03:55Z</time>
      </trkpt>
      <trkpt lat="41.643770557" lon="2.525575996">
        <ele>322.18</ele>
        <time>2014-01-19T09:03:59Z</time>
      </trkpt>
      <trkpt lat="41.643894274" lon="2.525485220">
        <ele>318.33</ele>
        <time>2014-01-19T09:04:05Z</time>
      </trkpt>
      <trkpt lat="41.643915396" lon="2.525470384">
        <ele>317.85</ele>
        <time>2014-01-19T09:04:06Z</time>
      </trkpt>
      <trkpt lat="41.643937776" lon="2.525409196">
        <ele>317.37</ele>
        <time>2014-01-19T09:04:11Z</time>
      </trkpt>
      <trkpt lat="41.643942218" lon="2.525394024">
        <ele>316.89</ele>
        <time>2014-01-19T09:04:12Z</time>
      </trkpt>
      <trkpt lat="41.643958228" lon="2.525263183">
        <ele>313.05</ele>
        <time>2014-01-19T09:04:18Z</time>
      </trkpt>
      <trkpt lat="41.643936183" lon="2.525224794">
        <ele>313.05</ele>
        <time>2014-01-19T09:04:24Z</time>
      </trkpt>
      <trkpt lat="41.643926963" lon="2.525209455">
        <ele>313.05</ele>
        <time>2014-01-19T09:04:26Z</time>
      </trkpt>
      <trkpt lat="41.643850688" lon="2.525068639">
        <ele>308.72</ele>
        <time>2014-01-19T09:04:32Z</time>
      </trkpt>
      <trkpt lat="41.643863177" lon="2.525018515">
        <ele>307.76</ele>
        <time>2014-01-19T09:04:34Z</time>
      </trkpt>
      <trkpt lat="41.643962838" lon="2.524935953">
        <ele>305.36</ele>
        <time>2014-01-19T09:04:39Z</time>
      </trkpt>
      <trkpt lat="41.644045819" lon="2.524874766">
        <ele>304.39</ele>
        <time>2014-01-19T09:04:46Z</time>
      </trkpt>
      <trkpt lat="41.644048920" lon="2.524836712">
        <ele>304.39</ele>
        <time>2014-01-19T09:04:53Z</time>
      </trkpt>
      <trkpt lat="41.644058978" lon="2.524821708">
        <ele>304.39</ele>
        <time>2014-01-19T09:05:06Z</time>
      </trkpt>
      <trkpt lat="41.644122262" lon="2.524758676">
        <ele>303.43</ele>
        <time>2014-01-19T09:05:15Z</time>
      </trkpt>
      <trkpt lat="41.644155622" lon="2.524723724">
        <ele>303.43</ele>
        <time>2014-01-19T09:05:17Z</time>
      </trkpt>
      <trkpt lat="41.644220162" lon="2.524563126">
        <ele>303.43</ele>
        <time>2014-01-19T09:05:26Z</time>
      </trkpt>
      <trkpt lat="41.644238351" lon="2.524522558">
        <ele>304.88</ele>
        <time>2014-01-19T09:05:28Z</time>
      </trkpt>
      <trkpt lat="41.644318482" lon="2.524329942">
        <ele>305.84</ele>
        <time>2014-01-19T09:05:38Z</time>
      </trkpt>
      <trkpt lat="41.644369276" lon="2.524200106">
        <ele>306.32</ele>
        <time>2014-01-19T09:05:44Z</time>
      </trkpt>
      <trkpt lat="41.644462902" lon="2.523960719">
        <ele>307.28</ele>
        <time>2014-01-19T09:05:55Z</time>
      </trkpt>
      <trkpt lat="41.644477235" lon="2.523808587">
        <ele>307.76</ele>
        <time>2014-01-19T09:06:02Z</time>
      </trkpt>
      <trkpt lat="41.644449826" lon="2.523570709">
        <ele>308.24</ele>
        <time>2014-01-19T09:06:12Z</time>
      </trkpt>
      <trkpt lat="41.644378077" lon="2.523323694">
        <ele>306.80</ele>
        <time>2014-01-19T09:06:18Z</time>
      </trkpt>
      <trkpt lat="41.644343879" lon="2.523196876">
        <ele>305.36</ele>
        <time>2014-01-19T09:06:20Z</time>
      </trkpt>
      <trkpt lat="41.644342370" lon="2.523023874">
        <ele>305.36</ele>
        <time>2014-01-19T09:06:23Z</time>
      </trkpt>
      <trkpt lat="41.644359134" lon="2.522903174">
        <ele>304.39</ele>
        <time>2014-01-19T09:06:26Z</time>
      </trkpt>
      <trkpt lat="41.644448318" lon="2.522676025">
        <ele>301.51</ele>
        <time>2014-01-19T09:06:31Z</time>
      </trkpt>
      <trkpt lat="41.644466087" lon="2.522600168">
        <ele>300.55</ele>
        <time>2014-01-19T09:06:32Z</time>
      </trkpt>
      <trkpt lat="41.644560635" lon="2.522200603">
        <ele>300.55</ele>
        <time>2014-01-19T09:06:38Z</time>
      </trkpt>
      <trkpt lat="41.644591145" lon="2.522114437">
        <ele>301.51</ele>
        <time>2014-01-19T09:06:42Z</time>
      </trkpt>
      <trkpt lat="41.644619392" lon="2.521911847">
        <ele>302.95</ele>
        <time>2014-01-19T09:06:50Z</time>
      </trkpt>
      <trkpt lat="41.644617045" lon="2.521639519">
        <ele>302.47</ele>
        <time>2014-01-19T09:06:58Z</time>
      </trkpt>
      <trkpt lat="41.644620147" lon="2.521427624">
        <ele>302.47</ele>
        <time>2014-01-19T09:07:05Z</time>
      </trkpt>
      <trkpt lat="41.644670019" lon="2.521227716">
        <ele>303.43</ele>
        <time>2014-01-19T09:07:12Z</time>
      </trkpt>
      <trkpt lat="41.644764567" lon="2.521037111">
        <ele>301.03</ele>
        <time>2014-01-19T09:07:17Z</time>
      </trkpt>
      <trkpt lat="41.644825671" lon="2.520945497">
        <ele>300.55</ele>
        <time>2014-01-19T09:07:19Z</time>
      </trkpt>
      <trkpt lat="41.645060364" lon="2.520667888">
        <ele>299.11</ele>
        <time>2014-01-19T09:07:26Z</time>
      </trkpt>
      <trkpt lat="41.645150805" lon="2.520445936">
        <ele>299.11</ele>
        <time>2014-01-19T09:07:33Z</time>
      </trkpt>
      <trkpt lat="41.645170167" lon="2.520335462">
        <ele>300.55</ele>
        <time>2014-01-19T09:07:36Z</time>
      </trkpt>
      <trkpt lat="41.645152230" lon="2.520032624">
        <ele>299.11</ele>
        <time>2014-01-19T09:07:42Z</time>
      </trkpt>
      <trkpt lat="41.645054329" lon="2.519766331">
        <ele>297.18</ele>
        <time>2014-01-19T09:07:47Z</time>
      </trkpt>
      <trkpt lat="41.645128844" lon="2.519655941">
        <ele>296.70</ele>
        <time>2014-01-19T09:07:51Z</time>
      </trkpt>
      <trkpt lat="41.645190032" lon="2.519652169">
        <ele>296.22</ele>
        <time>2014-01-19T09:07:53Z</time>
      </trkpt>
      <trkpt lat="41.645484824" lon="2.519694833">
        <ele>294.78</ele>
        <time>2014-01-19T09:08:02Z</time>
      </trkpt>
      <trkpt lat="41.645699317" lon="2.519721571">
        <ele>292.86</ele>
        <time>2014-01-19T09:08:09Z</time>
      </trkpt>
      <trkpt lat="41.645819765" lon="2.519710675">
        <ele>290.94</ele>
        <time>2014-01-19T09:08:15Z</time>
      </trkpt>
      <trkpt lat="41.645998970" lon="2.519706819">
        <ele>289.49</ele>
        <time>2014-01-19T09:08:23Z</time>
      </trkpt>
      <trkpt lat="41.646020595" lon="2.519570613">
        <ele>288.53</ele>
        <time>2014-01-19T09:08:28Z</time>
      </trkpt>
      <trkpt lat="41.645937782" lon="2.519308763">
        <ele>286.61</ele>
        <time>2014-01-19T09:08:34Z</time>
      </trkpt>
      <trkpt lat="41.645892939" lon="2.518916573">
        <ele>284.69</ele>
        <time>2014-01-19T09:08:42Z</time>
      </trkpt>
      <trkpt lat="41.645873074" lon="2.518823199">
        <ele>283.73</ele>
        <time>2014-01-19T09:08:44Z</time>
      </trkpt>
      <trkpt lat="41.645836864" lon="2.518724460">
        <ele>283.25</ele>
        <time>2014-01-19T09:08:46Z</time>
      </trkpt>
      <trkpt lat="41.645793865" lon="2.518433189">
        <ele>278.44</ele>
        <time>2014-01-19T09:08:52Z</time>
      </trkpt>
      <trkpt lat="41.645735275" lon="2.518331936">
        <ele>276.04</ele>
        <time>2014-01-19T09:08:57Z</time>
      </trkpt>
      <trkpt lat="41.645712979" lon="2.518407373">
        <ele>275.07</ele>
        <time>2014-01-19T09:09:00Z</time>
      </trkpt>
      <trkpt lat="41.645687331" lon="2.518746002">
        <ele>273.63</ele>
        <time>2014-01-19T09:09:07Z</time>
      </trkpt>
      <trkpt lat="41.645683559" lon="2.519002739">
        <ele>273.63</ele>
        <time>2014-01-19T09:09:15Z</time>
      </trkpt>
      <trkpt lat="41.645664867" lon="2.519094521">
        <ele>273.63</ele>
        <time>2014-01-19T09:09:18Z</time>
      </trkpt>
      <trkpt lat="41.645562021" lon="2.519136263">
        <ele>273.63</ele>
        <time>2014-01-19T09:09:24Z</time>
      </trkpt>
      <trkpt lat="41.645417936" lon="2.519068789">
        <ele>274.11</ele>
        <time>2014-01-19T09:09:32Z</time>
      </trkpt>
      <trkpt lat="41.645304362" lon="2.518848680">
        <ele>274.11</ele>
        <time>2014-01-19T09:09:39Z</time>
      </trkpt>
      <trkpt lat="41.645200342" lon="2.518669559">
        <ele>274.11</ele>
        <time>2014-01-19T09:09:45Z</time>
      </trkpt>
      <trkpt lat="41.645073189" lon="2.518715995">
        <ele>273.63</ele>
        <time>2014-01-19T09:09:50Z</time>
      </trkpt>
      <trkpt lat="41.645059023" lon="2.518759664">
        <ele>273.63</ele>
        <time>2014-01-19T09:09:51Z</time>
      </trkpt>
      <trkpt lat="41.644932289" lon="2.519053953">
        <ele>272.19</ele>
        <time>2014-01-19T09:09:58Z</time>
      </trkpt>
      <trkpt lat="41.644796167" lon="2.519077087">
        <ele>271.23</ele>
        <time>2014-01-19T09:10:02Z</time>
      </trkpt>
      <trkpt lat="41.644517217" lon="2.519001063">
        <ele>269.79</ele>
        <time>2014-01-19T09:10:10Z</time>
      </trkpt>
      <trkpt lat="41.644493077" lon="2.519012462">
        <ele>269.31</ele>
        <time>2014-01-19T09:10:11Z</time>
      </trkpt>
      <trkpt lat="41.644441696" lon="2.519192003">
        <ele>268.83</ele>
        <time>2014-01-19T09:10:17Z</time>
      </trkpt>
      <trkpt lat="41.644473296" lon="2.519483525">
        <ele>268.83</ele>
        <time>2014-01-19T09:10:26Z</time>
      </trkpt>
      <trkpt lat="41.644553846" lon="2.519764152">
        <ele>267.38</ele>
        <time>2014-01-19T09:10:31Z</time>
      </trkpt>
      <trkpt lat="41.644579243" lon="2.519929694">
        <ele>266.42</ele>
        <time>2014-01-19T09:10:34Z</time>
      </trkpt>
      <trkpt lat="41.644484528" lon="2.520041593">
        <ele>265.46</ele>
        <time>2014-01-19T09:10:39Z</time>
      </trkpt>
      <trkpt lat="41.644330301" lon="2.520077970">
        <ele>264.50</ele>
        <time>2014-01-19T09:10:45Z</time>
      </trkpt>
      <trkpt lat="41.644194681" lon="2.519957941">
        <ele>262.58</ele>
        <time>2014-01-19T09:10:51Z</time>
      </trkpt>
      <trkpt lat="41.644164507" lon="2.519926258">
        <ele>261.62</ele>
        <time>2014-01-19T09:10:52Z</time>
      </trkpt>
      <trkpt lat="41.644104660" lon="2.519848054">
        <ele>261.14</ele>
        <time>2014-01-19T09:10:54Z</time>
      </trkpt>
      <trkpt lat="41.643935178" lon="2.519622246">
        <ele>257.77</ele>
        <time>2014-01-19T09:10:59Z</time>
      </trkpt>
      <trkpt lat="41.643908356" lon="2.519579247">
        <ele>257.77</ele>
        <time>2014-01-19T09:11:00Z</time>
      </trkpt>
      <trkpt lat="41.643731497" lon="2.519449914">
        <ele>256.33</ele>
        <time>2014-01-19T09:11:05Z</time>
      </trkpt>
      <trkpt lat="41.643694868" lon="2.519464834">
        <ele>256.33</ele>
        <time>2014-01-19T09:11:06Z</time>
      </trkpt>
      <trkpt lat="41.643620689" lon="2.519524848">
        <ele>255.37</ele>
        <time>2014-01-19T09:11:08Z</time>
      </trkpt>
      <trkpt lat="41.643485237" lon="2.519734647">
        <ele>252.96</ele>
        <time>2014-01-19T09:11:12Z</time>
      </trkpt>
      <trkpt lat="41.643277953" lon="2.519933550">
        <ele>251.52</ele>
        <time>2014-01-19T09:11:18Z</time>
      </trkpt>
      <trkpt lat="41.643216849" lon="2.519740766">
        <ele>249.60</ele>
        <time>2014-01-19T09:11:21Z</time>
      </trkpt>
      <trkpt lat="41.643198911" lon="2.519363245">
        <ele>246.23</ele>
        <time>2014-01-19T09:11:25Z</time>
      </trkpt>
      <trkpt lat="41.643164126" lon="2.518965189">
        <ele>242.87</ele>
        <time>2014-01-19T09:11:30Z</time>
      </trkpt>
      <trkpt lat="41.643142669" lon="2.518736027">
        <ele>240.47</ele>
        <time>2014-01-19T09:11:33Z</time>
      </trkpt>
      <trkpt lat="41.643093802" lon="2.518513488">
        <ele>238.06</ele>
        <time>2014-01-19T09:11:36Z</time>
      </trkpt>
      <trkpt lat="41.643019706" lon="2.518336797">
        <ele>236.62</ele>
        <time>2014-01-19T09:11:39Z</time>
      </trkpt>
      <trkpt lat="41.643011576" lon="2.518156251">
        <ele>233.74</ele>
        <time>2014-01-19T09:11:42Z</time>
      </trkpt>
      <trkpt lat="41.643088857" lon="2.518074444">
        <ele>233.26</ele>
        <time>2014-01-19T09:11:45Z</time>
      </trkpt>
      <trkpt lat="41.643290442" lon="2.517995989">
        <ele>232.78</ele>
        <time>2014-01-19T09:11:52Z</time>
      </trkpt>
      <trkpt lat="41.643295555" lon="2.517986266">
        <ele>232.30</ele>
        <time>2014-01-19T09:11:57Z</time>
      </trkpt>
      <trkpt lat="41.643297315" lon="2.517964305">
        <ele>232.30</ele>
        <time>2014-01-19T09:12:10Z</time>
      </trkpt>
      <trkpt lat="41.643302176" lon="2.517967574">
        <ele>232.30</ele>
        <time>2014-01-19T09:12:23Z</time>
      </trkpt>
      <trkpt lat="41.643301003" lon="2.517974615">
        <ele>232.30</ele>
        <time>2014-01-19T09:12:36Z</time>
      </trkpt>
      <trkpt lat="41.643309804" lon="2.517981488">
        <ele>232.30</ele>
        <time>2014-01-19T09:12:49Z</time>
      </trkpt>
      <trkpt lat="41.643393204" lon="2.517926000">
        <ele>232.78</ele>
        <time>2014-01-19T09:12:55Z</time>
      </trkpt>
      <trkpt lat="41.643417427" lon="2.517908314">
        <ele>232.78</ele>
        <time>2014-01-19T09:12:56Z</time>
      </trkpt>
      <trkpt lat="41.643621694" lon="2.517779149">
        <ele>232.30</ele>
        <time>2014-01-19T09:13:04Z</time>
      </trkpt>
      <trkpt lat="41.643825961" lon="2.517558621">
        <ele>231.81</ele>
        <time>2014-01-19T09:13:11Z</time>
      </trkpt>
      <trkpt lat="41.644167189" lon="2.517300123">
        <ele>230.37</ele>
        <time>2014-01-19T09:13:20Z</time>
      </trkpt>
      <trkpt lat="41.644210775" lon="2.517275145">
        <ele>230.37</ele>
        <time>2014-01-19T09:13:21Z</time>
      </trkpt>
      <trkpt lat="41.644631043" lon="2.517040955">
        <ele>228.93</ele>
        <time>2014-01-19T09:13:30Z</time>
      </trkpt>
      <trkpt lat="41.645054748" lon="2.516807603">
        <ele>227.97</ele>
        <time>2014-01-19T09:13:39Z</time>
      </trkpt>
      <trkpt lat="41.645525392" lon="2.516522115">
        <ele>227.49</ele>
        <time>2014-01-19T09:13:49Z</time>
      </trkpt>
      <trkpt lat="41.645569397" lon="2.516478026">
        <ele>227.49</ele>
        <time>2014-01-19T09:13:50Z</time>
      </trkpt>
      <trkpt lat="41.645898387" lon="2.515985841">
        <ele>226.05</ele>
        <time>2014-01-19T09:13:59Z</time>
      </trkpt>
      <trkpt lat="41.645958150" lon="2.515877547">
        <ele>226.05</ele>
        <time>2014-01-19T09:14:01Z</time>
      </trkpt>
      <trkpt lat="41.646204075" lon="2.515516203">
        <ele>225.57</ele>
        <time>2014-01-19T09:14:09Z</time>
      </trkpt>
      <trkpt lat="41.646279428" lon="2.515421488">
        <ele>224.61</ele>
        <time>2014-01-19T09:14:14Z</time>
      </trkpt>
      <trkpt lat="41.646376072" lon="2.515250748">
        <ele>224.61</ele>
        <time>2014-01-19T09:14:22Z</time>
      </trkpt>
      <trkpt lat="41.646416640" lon="2.515186962">
        <ele>224.12</ele>
        <time>2014-01-19T09:14:30Z</time>
      </trkpt>
      <trkpt lat="41.646398200" lon="2.515189057">
        <ele>224.12</ele>
        <time>2014-01-19T09:14:40Z</time>
      </trkpt>
      <trkpt lat="41.646434494" lon="2.515137928">
        <ele>224.12</ele>
        <time>2014-01-19T09:14:47Z</time>
      </trkpt>
      <trkpt lat="41.646547649" lon="2.514978755">
        <ele>224.12</ele>
        <time>2014-01-19T09:14:54Z</time>
      </trkpt>
      <trkpt lat="41.646712102" lon="2.514724113">
        <ele>224.12</ele>
        <time>2014-01-19T09:15:02Z</time>
      </trkpt>
      <trkpt lat="41.646829700" lon="2.514559325">
        <ele>224.12</ele>
        <time>2014-01-19T09:15:07Z</time>
      </trkpt>
      <trkpt lat="41.646930786" lon="2.514613723">
        <ele>224.12</ele>
        <time>2014-01-19T09:15:12Z</time>
      </trkpt>
      <trkpt lat="41.646936486" lon="2.514647419">
        <ele>224.12</ele>
        <time>2014-01-19T09:15:13Z</time>
      </trkpt>
      <trkpt lat="41.646989795" lon="2.514826540">
        <ele>223.64</ele>
        <time>2014-01-19T09:15:19Z</time>
      </trkpt>
      <trkpt lat="41.647079313" lon="2.515009601">
        <ele>223.16</ele>
        <time>2014-01-19T09:15:26Z</time>
      </trkpt>
      <trkpt lat="41.647087779" lon="2.515023850">
        <ele>223.16</ele>
        <time>2014-01-19T09:15:27Z</time>
      </trkpt>
      <trkpt lat="41.647082247" lon="2.515064838">
        <ele>223.16</ele>
        <time>2014-01-19T09:15:31Z</time>
      </trkpt>
      <trkpt lat="41.647067495" lon="2.514992334">
        <ele>223.16</ele>
        <time>2014-01-19T09:15:36Z</time>
      </trkpt>
      <trkpt lat="41.647006307" lon="2.514812375">
        <ele>223.16</ele>
        <time>2014-01-19T09:15:44Z</time>
      </trkpt>
      <trkpt lat="41.646971690" lon="2.514640462">
        <ele>224.61</ele>
        <time>2014-01-19T09:15:50Z</time>
      </trkpt>
      <trkpt lat="41.646962302" lon="2.514342401">
        <ele>225.09</ele>
        <time>2014-01-19T09:15:58Z</time>
      </trkpt>
      <trkpt lat="41.646944365" lon="2.514226480">
        <ele>225.09</ele>
        <time>2014-01-19T09:16:03Z</time>
      </trkpt>
      <trkpt lat="41.646959704" lon="2.514132183">
        <ele>225.09</ele>
        <time>2014-01-19T09:16:06Z</time>
      </trkpt>
      <trkpt lat="41.646996165" lon="2.513753405">
        <ele>225.09</ele>
        <time>2014-01-19T09:16:15Z</time>
      </trkpt>
      <trkpt lat="41.647017455" lon="2.513361300">
        <ele>225.09</ele>
        <time>2014-01-19T09:16:23Z</time>
      </trkpt>
      <trkpt lat="41.647138238" lon="2.513121074">
        <ele>225.57</ele>
        <time>2014-01-19T09:16:29Z</time>
      </trkpt>
      <trkpt lat="41.647322053" lon="2.512952095">
        <ele>228.45</ele>
        <time>2014-01-19T09:16:36Z</time>
      </trkpt>
      <trkpt lat="41.647478711" lon="2.512724526">
        <ele>230.85</ele>
        <time>2014-01-19T09:16:43Z</time>
      </trkpt>
      <trkpt lat="41.647479382" lon="2.512649257">
        <ele>230.85</ele>
        <time>2014-01-19T09:16:46Z</time>
      </trkpt>
      <trkpt lat="41.647500672" lon="2.512555380">
        <ele>231.33</ele>
        <time>2014-01-19T09:16:50Z</time>
      </trkpt>
      <trkpt lat="41.647553645" lon="2.512286991">
        <ele>231.33</ele>
        <time>2014-01-19T09:16:58Z</time>
      </trkpt>
      <trkpt lat="41.647616593" lon="2.511888934">
        <ele>231.33</ele>
        <time>2014-01-19T09:17:06Z</time>
      </trkpt>
      <trkpt lat="41.647674345" lon="2.511580983">
        <ele>229.89</ele>
        <time>2014-01-19T09:17:12Z</time>
      </trkpt>
      <trkpt lat="41.647733940" lon="2.511273703">
        <ele>229.41</ele>
        <time>2014-01-19T09:17:19Z</time>
      </trkpt>
      <trkpt lat="41.647771994" lon="2.511058707">
        <ele>228.45</ele>
        <time>2014-01-19T09:17:23Z</time>
      </trkpt>
      <trkpt lat="41.647885988" lon="2.510761820">
        <ele>225.57</ele>
        <time>2014-01-19T09:17:28Z</time>
      </trkpt>
      <trkpt lat="41.648035940" lon="2.510470297">
        <ele>220.76</ele>
        <time>2014-01-19T09:17:33Z</time>
      </trkpt>
      <trkpt lat="41.648062175" lon="2.510432663">
        <ele>220.28</ele>
        <time>2014-01-19T09:17:34Z</time>
      </trkpt>
      <trkpt lat="41.648190754" lon="2.510489240">
        <ele>219.80</ele>
        <time>2014-01-19T09:17:39Z</time>
      </trkpt>
      <trkpt lat="41.648450677" lon="2.510700800">
        <ele>220.28</ele>
        <time>2014-01-19T09:17:49Z</time>
      </trkpt>
      <trkpt lat="41.648582608" lon="2.510776656">
        <ele>220.28</ele>
        <time>2014-01-19T09:17:53Z</time>
      </trkpt>
      <trkpt lat="41.648660224" lon="2.510806076">
        <ele>220.28</ele>
        <time>2014-01-19T09:17:55Z</time>
      </trkpt>
      <trkpt lat="41.648850996" lon="2.510772716">
        <ele>218.36</ele>
        <time>2014-01-19T09:17:59Z</time>
      </trkpt>
      <trkpt lat="41.648947220" lon="2.510677498">
        <ele>217.88</ele>
        <time>2014-01-19T09:18:02Z</time>
      </trkpt>
      <trkpt lat="41.649153834" lon="2.510495359">
        <ele>217.88</ele>
        <time>2014-01-19T09:18:10Z</time>
      </trkpt>
      <trkpt lat="41.649238659" lon="2.510493934">
        <ele>219.32</ele>
        <time>2014-01-19T09:18:13Z</time>
      </trkpt>
      <trkpt lat="41.649442926" lon="2.510591416">
        <ele>220.76</ele>
        <time>2014-01-19T09:18:21Z</time>
      </trkpt>
      <trkpt lat="41.649624562" lon="2.510680599">
        <ele>222.20</ele>
        <time>2014-01-19T09:18:29Z</time>
      </trkpt>
      <trkpt lat="41.649772838" lon="2.510730052">
        <ele>223.16</ele>
        <time>2014-01-19T09:18:35Z</time>
      </trkpt>
      <trkpt lat="41.649973333" lon="2.510803813">
        <ele>225.09</ele>
        <time>2014-01-19T09:18:44Z</time>
      </trkpt>
      <trkpt lat="41.650177851" lon="2.510881597">
        <ele>226.53</ele>
        <time>2014-01-19T09:18:53Z</time>
      </trkpt>
      <trkpt lat="41.650363092" lon="2.510939349">
        <ele>227.49</ele>
        <time>2014-01-19T09:19:01Z</time>
      </trkpt>
      <trkpt lat="41.650502231" lon="2.511081925">
        <ele>228.45</ele>
        <time>2014-01-19T09:19:08Z</time>
      </trkpt>
      <trkpt lat="41.650657799" lon="2.511218634">
        <ele>229.89</ele>
        <time>2014-01-19T09:19:16Z</time>
      </trkpt>
      <trkpt lat="41.650808422" lon="2.511276133">
        <ele>230.85</ele>
        <time>2014-01-19T09:19:23Z</time>
      </trkpt>
      <trkpt lat="41.651030040" lon="2.511206228">
        <ele>231.81</ele>
        <time>2014-01-19T09:19:32Z</time>
      </trkpt>
      <trkpt lat="41.651197259" lon="2.511057701">
        <ele>232.30</ele>
        <time>2014-01-19T09:19:40Z</time>
      </trkpt>
      <trkpt lat="41.651348803" lon="2.510955107">
        <ele>233.74</ele>
        <time>2014-01-19T09:19:47Z</time>
      </trkpt>
      <trkpt lat="41.651479980" lon="2.511014953">
        <ele>234.70</ele>
        <time>2014-01-19T09:19:53Z</time>
      </trkpt>
      <trkpt lat="41.651658515" lon="2.511085529">
        <ele>235.66</ele>
        <time>2014-01-19T09:20:01Z</time>
      </trkpt>
      <trkpt lat="41.651911732" lon="2.511100365">
        <ele>236.62</ele>
        <time>2014-01-19T09:20:11Z</time>
      </trkpt>
      <trkpt lat="41.652101750" lon="2.511169348">
        <ele>237.58</ele>
        <time>2014-01-19T09:20:19Z</time>
      </trkpt>
      <trkpt lat="41.652291097" lon="2.511252916">
        <ele>238.54</ele>
        <time>2014-01-19T09:20:27Z</time>
      </trkpt>
      <trkpt lat="41.652469631" lon="2.511304464">
        <ele>239.99</ele>
        <time>2014-01-19T09:20:35Z</time>
      </trkpt>
      <trkpt lat="41.652516151" lon="2.511320222">
        <ele>239.99</ele>
        <time>2014-01-19T09:20:37Z</time>
      </trkpt>
      <trkpt lat="41.652670462" lon="2.511406975">
        <ele>239.99</ele>
        <time>2014-01-19T09:20:45Z</time>
      </trkpt>
      <trkpt lat="41.652799208" lon="2.511481742">
        <ele>239.51</ele>
        <time>2014-01-19T09:20:51Z</time>
      </trkpt>
      <trkpt lat="41.652892750" lon="2.511527758">
        <ele>239.99</ele>
        <time>2014-01-19T09:20:57Z</time>
      </trkpt>
      <trkpt lat="41.653071871" lon="2.511600345">
        <ele>239.99</ele>
        <time>2014-01-19T09:21:05Z</time>
      </trkpt>
      <trkpt lat="41.653273707" lon="2.511568830">
        <ele>239.99</ele>
        <time>2014-01-19T09:21:13Z</time>
      </trkpt>
      <trkpt lat="41.653477723" lon="2.511507474">
        <ele>239.99</ele>
        <time>2014-01-19T09:21:22Z</time>
      </trkpt>
      <trkpt lat="41.653593980" lon="2.511481155">
        <ele>240.47</ele>
        <time>2014-01-19T09:21:27Z</time>
      </trkpt>
      <trkpt lat="41.653677212" lon="2.511462044">
        <ele>240.47</ele>
        <time>2014-01-19T09:21:31Z</time>
      </trkpt>
      <trkpt lat="41.653919030" lon="2.511326593">
        <ele>240.95</ele>
        <time>2014-01-19T09:21:41Z</time>
      </trkpt>
      <trkpt lat="41.654080717" lon="2.511213856">
        <ele>241.91</ele>
        <time>2014-01-19T09:21:48Z</time>
      </trkpt>
      <trkpt lat="41.654239135" lon="2.511124253">
        <ele>242.39</ele>
        <time>2014-01-19T09:21:55Z</time>
      </trkpt>
      <trkpt lat="41.654405013" lon="2.511064826">
        <ele>242.87</ele>
        <time>2014-01-19T09:22:02Z</time>
      </trkpt>
      <trkpt lat="41.654545829" lon="2.511084523">
        <ele>243.83</ele>
        <time>2014-01-19T09:22:08Z</time>
      </trkpt>
      <trkpt lat="41.654689746" lon="2.511177898">
        <ele>245.27</ele>
        <time>2014-01-19T09:22:15Z</time>
      </trkpt>
      <trkpt lat="41.654846739" lon="2.511263896">
        <ele>248.16</ele>
        <time>2014-01-19T09:22:23Z</time>
      </trkpt>
      <trkpt lat="41.655021167" lon="2.511348721">
        <ele>250.56</ele>
        <time>2014-01-19T09:22:31Z</time>
      </trkpt>
      <trkpt lat="41.655082941" lon="2.511379315">
        <ele>251.04</ele>
        <time>2014-01-19T09:22:34Z</time>
      </trkpt>
      <trkpt lat="41.655226858" lon="2.511511916">
        <ele>252.96</ele>
        <time>2014-01-19T09:22:43Z</time>
      </trkpt>
      <trkpt lat="41.655337500" lon="2.511612499">
        <ele>254.89</ele>
        <time>2014-01-19T09:22:50Z</time>
      </trkpt>
      <trkpt lat="41.655482004" lon="2.511690535">
        <ele>257.29</ele>
        <time>2014-01-19T09:22:59Z</time>
      </trkpt>
      <trkpt lat="41.655592645" lon="2.511751471">
        <ele>258.73</ele>
        <time>2014-01-19T09:23:06Z</time>
      </trkpt>
      <trkpt lat="41.655696580" lon="2.511799248">
        <ele>260.65</ele>
        <time>2014-01-19T09:23:13Z</time>
      </trkpt>
      <trkpt lat="41.655725582" lon="2.511829674">
        <ele>261.14</ele>
        <time>2014-01-19T09:23:15Z</time>
      </trkpt>
      <trkpt lat="41.655851394" lon="2.511960181">
        <ele>263.54</ele>
        <time>2014-01-19T09:23:24Z</time>
      </trkpt>
      <trkpt lat="41.655957509" lon="2.512124298">
        <ele>264.98</ele>
        <time>2014-01-19T09:23:34Z</time>
      </trkpt>
      <trkpt lat="41.655965220" lon="2.512141984">
        <ele>264.98</ele>
        <time>2014-01-19T09:23:35Z</time>
      </trkpt>
      <trkpt lat="41.656060523" lon="2.512286572">
        <ele>266.90</ele>
        <time>2014-01-19T09:23:44Z</time>
      </trkpt>
      <trkpt lat="41.656150293" lon="2.512447253">
        <ele>267.38</ele>
        <time>2014-01-19T09:23:52Z</time>
      </trkpt>
      <trkpt lat="41.656258922" lon="2.512514811">
        <ele>268.35</ele>
        <time>2014-01-19T09:23:59Z</time>
      </trkpt>
      <trkpt lat="41.656377275" lon="2.512588153">
        <ele>269.31</ele>
        <time>2014-01-19T09:24:07Z</time>
      </trkpt>
      <trkpt lat="41.656484060" lon="2.512681192">
        <ele>271.23</ele>
        <time>2014-01-19T09:24:15Z</time>
      </trkpt>
      <trkpt lat="41.656586822" lon="2.512805831">
        <ele>273.15</ele>
        <time>2014-01-19T09:24:24Z</time>
      </trkpt>
      <trkpt lat="41.656620685" lon="2.512960309">
        <ele>275.07</ele>
        <time>2014-01-19T09:24:32Z</time>
      </trkpt>
      <trkpt lat="41.656586152" lon="2.513156865">
        <ele>277.48</ele>
        <time>2014-01-19T09:24:42Z</time>
      </trkpt>
      <trkpt lat="41.656586990" lon="2.513283935">
        <ele>279.40</ele>
        <time>2014-01-19T09:24:49Z</time>
      </trkpt>
      <trkpt lat="41.656693021" lon="2.513342608">
        <ele>280.84</ele>
        <time>2014-01-19T09:24:57Z</time>
      </trkpt>
      <trkpt lat="41.656780025" lon="2.513282510">
        <ele>282.28</ele>
        <time>2014-01-19T09:25:04Z</time>
      </trkpt>
      <trkpt lat="41.656830400" lon="2.513173042">
        <ele>283.73</ele>
        <time>2014-01-19T09:25:11Z</time>
      </trkpt>
      <trkpt lat="41.656837190" lon="2.513156697">
        <ele>283.73</ele>
        <time>2014-01-19T09:25:12Z</time>
      </trkpt>
      <trkpt lat="41.656878093" lon="2.512964836">
        <ele>286.61</ele>
        <time>2014-01-19T09:25:22Z</time>
      </trkpt>
      <trkpt lat="41.656891504" lon="2.512918232">
        <ele>287.09</ele>
        <time>2014-01-19T09:25:25Z</time>
      </trkpt>
      <trkpt lat="41.656891840" lon="2.512767023">
        <ele>288.53</ele>
        <time>2014-01-19T09:25:33Z</time>
      </trkpt>
      <trkpt lat="41.656895695" lon="2.512629895">
        <ele>289.01</ele>
        <time>2014-01-19T09:25:40Z</time>
      </trkpt>
      <trkpt lat="41.656891504" lon="2.512466028">
        <ele>291.42</ele>
        <time>2014-01-19T09:25:49Z</time>
      </trkpt>
      <trkpt lat="41.656878261" lon="2.512287494">
        <ele>294.30</ele>
        <time>2014-01-19T09:25:58Z</time>
      </trkpt>
      <trkpt lat="41.656877674" lon="2.512208201">
        <ele>295.26</ele>
        <time>2014-01-19T09:26:02Z</time>
      </trkpt>
      <trkpt lat="41.656910783" lon="2.512179870">
        <ele>296.70</ele>
        <time>2014-01-19T09:26:06Z</time>
      </trkpt>
      <trkpt lat="41.657037182" lon="2.512401069">
        <ele>299.11</ele>
        <time>2014-01-19T09:26:19Z</time>
      </trkpt>
      <trkpt lat="41.657048246" lon="2.512435937">
        <ele>299.11</ele>
        <time>2014-01-19T09:26:21Z</time>
      </trkpt>
      <trkpt lat="41.657073476" lon="2.512558062">
        <ele>300.55</ele>
        <time>2014-01-19T09:26:28Z</time>
      </trkpt>
      <trkpt lat="41.657100633" lon="2.512627129">
        <ele>301.03</ele>
        <time>2014-01-19T09:26:32Z</time>
      </trkpt>
      <trkpt lat="41.657148242" lon="2.512811447">
        <ele>302.47</ele>
        <time>2014-01-19T09:26:42Z</time>
      </trkpt>
      <trkpt lat="41.657146482" lon="2.512849081">
        <ele>302.47</ele>
        <time>2014-01-19T09:26:44Z</time>
      </trkpt>
      <trkpt lat="41.657194091" lon="2.512993083">
        <ele>303.43</ele>
        <time>2014-01-19T09:26:52Z</time>
      </trkpt>
      <trkpt lat="41.657235162" lon="2.513143789">
        <ele>303.91</ele>
        <time>2014-01-19T09:26:59Z</time>
      </trkpt>
      <trkpt lat="41.657293081" lon="2.513298519">
        <ele>304.88</ele>
        <time>2014-01-19T09:27:07Z</time>
      </trkpt>
      <trkpt lat="41.657362148" lon="2.513466912">
        <ele>305.84</ele>
        <time>2014-01-19T09:27:16Z</time>
      </trkpt>
      <trkpt lat="41.657431299" lon="2.513599765">
        <ele>306.80</ele>
        <time>2014-01-19T09:27:24Z</time>
      </trkpt>
      <trkpt lat="41.657516375" lon="2.513725158">
        <ele>307.76</ele>
        <time>2014-01-19T09:27:32Z</time>
      </trkpt>
      <trkpt lat="41.657598267" lon="2.513838062">
        <ele>308.24</ele>
        <time>2014-01-19T09:27:40Z</time>
      </trkpt>
      <trkpt lat="41.657690216" lon="2.513950966">
        <ele>310.64</ele>
        <time>2014-01-19T09:27:49Z</time>
      </trkpt>
      <trkpt lat="41.657794738" lon="2.514030930">
        <ele>311.60</ele>
        <time>2014-01-19T09:27:58Z</time>
      </trkpt>
      <trkpt lat="41.657920132" lon="2.514016848">
        <ele>313.05</ele>
        <time>2014-01-19T09:28:07Z</time>
      </trkpt>
      <trkpt lat="41.658027420" lon="2.513975274">
        <ele>314.49</ele>
        <time>2014-01-19T09:28:15Z</time>
      </trkpt>
      <trkpt lat="41.658132948" lon="2.513928754">
        <ele>315.93</ele>
        <time>2014-01-19T09:28:23Z</time>
      </trkpt>
      <trkpt lat="41.658258258" lon="2.513904950">
        <ele>317.37</ele>
        <time>2014-01-19T09:28:32Z</time>
      </trkpt>
      <trkpt lat="41.658363367" lon="2.513894221">
        <ele>318.81</ele>
        <time>2014-01-19T09:28:40Z</time>
      </trkpt>
      <trkpt lat="41.658488173" lon="2.513895059">
        <ele>320.74</ele>
        <time>2014-01-19T09:28:49Z</time>
      </trkpt>
      <trkpt lat="41.658591606" lon="2.513923055">
        <ele>322.66</ele>
        <time>2014-01-19T09:28:57Z</time>
      </trkpt>
      <trkpt lat="41.658698140" lon="2.513956415">
        <ele>324.58</ele>
        <time>2014-01-19T09:29:05Z</time>
      </trkpt>
      <trkpt lat="41.658842141" lon="2.514015004">
        <ele>326.99</ele>
        <time>2014-01-19T09:29:16Z</time>
      </trkpt>
      <trkpt lat="41.658940125" lon="2.514050041">
        <ele>328.43</ele>
        <time>2014-01-19T09:29:23Z</time>
      </trkpt>
      <trkpt lat="41.659053197" lon="2.514094968">
        <ele>330.35</ele>
        <time>2014-01-19T09:29:32Z</time>
      </trkpt>
      <trkpt lat="41.659164593" lon="2.514154898">
        <ele>332.27</ele>
        <time>2014-01-19T09:29:40Z</time>
      </trkpt>
      <trkpt lat="41.659318233" lon="2.514249697">
        <ele>334.20</ele>
        <time>2014-01-19T09:29:51Z</time>
      </trkpt>
      <trkpt lat="41.659401968" lon="2.514357489">
        <ele>335.16</ele>
        <time>2014-01-19T09:29:59Z</time>
      </trkpt>
      <trkpt lat="41.659472963" lon="2.514464526">
        <ele>337.56</ele>
        <time>2014-01-19T09:30:07Z</time>
      </trkpt>
      <trkpt lat="41.659599614" lon="2.514577430">
        <ele>339.00</ele>
        <time>2014-01-19T09:30:18Z</time>
      </trkpt>
      <trkpt lat="41.659610510" lon="2.514581537">
        <ele>339.48</ele>
        <time>2014-01-19T09:30:19Z</time>
      </trkpt>
      <trkpt lat="41.659659460" lon="2.514631996">
        <ele>339.48</ele>
        <time>2014-01-19T09:30:25Z</time>
      </trkpt>
      <trkpt lat="41.659654180" lon="2.514763005">
        <ele>339.48</ele>
        <time>2014-01-19T09:30:34Z</time>
      </trkpt>
      <trkpt lat="41.659618640" lon="2.514887896">
        <ele>340.44</ele>
        <time>2014-01-19T09:30:42Z</time>
      </trkpt>
      <trkpt lat="41.659605397" lon="2.514953274">
        <ele>340.44</ele>
        <time>2014-01-19T09:30:46Z</time>
      </trkpt>
      <trkpt lat="41.659564410" lon="2.515071208">
        <ele>340.44</ele>
        <time>2014-01-19T09:30:54Z</time>
      </trkpt>
      <trkpt lat="41.659560051" lon="2.515084200">
        <ele>340.44</ele>
        <time>2014-01-19T09:30:55Z</time>
      </trkpt>
      <trkpt lat="41.659528284" lon="2.515235409">
        <ele>340.92</ele>
        <time>2014-01-19T09:31:04Z</time>
      </trkpt>
      <trkpt lat="41.659515878" lon="2.515361222">
        <ele>340.92</ele>
        <time>2014-01-19T09:31:11Z</time>
      </trkpt>
      <trkpt lat="41.659497271" lon="2.515447471">
        <ele>341.41</ele>
        <time>2014-01-19T09:31:15Z</time>
      </trkpt>
      <trkpt lat="41.659474891" lon="2.515575044">
        <ele>341.41</ele>
        <time>2014-01-19T09:31:22Z</time>
      </trkpt>
      <trkpt lat="41.659450835" lon="2.515637405">
        <ele>341.41</ele>
        <time>2014-01-19T09:31:27Z</time>
      </trkpt>
      <trkpt lat="41.659386043" lon="2.515805630">
        <ele>341.41</ele>
        <time>2014-01-19T09:31:35Z</time>
      </trkpt>
      <trkpt lat="41.659352934" lon="2.515893389">
        <ele>340.44</ele>
        <time>2014-01-19T09:31:39Z</time>
      </trkpt>
      <trkpt lat="41.659241287" lon="2.516142080">
        <ele>339.48</ele>
        <time>2014-01-19T09:31:47Z</time>
      </trkpt>
      <trkpt lat="41.659105668" lon="2.516403008">
        <ele>339.00</ele>
        <time>2014-01-19T09:31:55Z</time>
      </trkpt>
      <trkpt lat="41.659019921" lon="2.516598810">
        <ele>339.00</ele>
        <time>2014-01-19T09:32:02Z</time>
      </trkpt>
      <trkpt lat="41.659016904" lon="2.516767789">
        <ele>339.00</ele>
        <time>2014-01-19T09:32:09Z</time>
      </trkpt>
      <trkpt lat="41.659041630" lon="2.516836939">
        <ele>339.00</ele>
        <time>2014-01-19T09:32:12Z</time>
      </trkpt>
      <trkpt lat="41.659117235" lon="2.517051432">
        <ele>340.44</ele>
        <time>2014-01-19T09:32:22Z</time>
      </trkpt>
      <trkpt lat="41.659138944" lon="2.517206498">
        <ele>341.41</ele>
        <time>2014-01-19T09:32:29Z</time>
      </trkpt>
      <trkpt lat="41.659109859" lon="2.517379668">
        <ele>343.33</ele>
        <time>2014-01-19T09:32:37Z</time>
      </trkpt>
      <trkpt lat="41.659089156" lon="2.517538756">
        <ele>344.29</ele>
        <time>2014-01-19T09:32:44Z</time>
      </trkpt>
      <trkpt lat="41.659063088" lon="2.517698515">
        <ele>345.73</ele>
        <time>2014-01-19T09:32:52Z</time>
      </trkpt>
      <trkpt lat="41.659032075" lon="2.517858107">
        <ele>347.17</ele>
        <time>2014-01-19T09:33:00Z</time>
      </trkpt>
      <trkpt lat="41.659018748" lon="2.518011076">
        <ele>348.13</ele>
        <time>2014-01-19T09:33:07Z</time>
      </trkpt>
      <trkpt lat="41.659001229" lon="2.518204279">
        <ele>349.58</ele>
        <time>2014-01-19T09:33:15Z</time>
      </trkpt>
      <trkpt lat="41.658985723" lon="2.518395890">
        <ele>351.50</ele>
        <time>2014-01-19T09:33:23Z</time>
      </trkpt>
      <trkpt lat="41.658931492" lon="2.518587835">
        <ele>352.46</ele>
        <time>2014-01-19T09:33:31Z</time>
      </trkpt>
      <trkpt lat="41.658871142" lon="2.518769723">
        <ele>353.42</ele>
        <time>2014-01-19T09:33:39Z</time>
      </trkpt>
      <trkpt lat="41.658798807" lon="2.518967200">
        <ele>355.34</ele>
        <time>2014-01-19T09:33:47Z</time>
      </trkpt>
      <trkpt lat="41.658734853" lon="2.519161912">
        <ele>356.79</ele>
        <time>2014-01-19T09:33:55Z</time>
      </trkpt>
      <trkpt lat="41.658692943" lon="2.519340027">
        <ele>357.75</ele>
        <time>2014-01-19T09:34:02Z</time>
      </trkpt>
      <trkpt lat="41.658638293" lon="2.519565249">
        <ele>359.19</ele>
        <time>2014-01-19T09:34:11Z</time>
      </trkpt>
      <trkpt lat="41.658577776" lon="2.519745879">
        <ele>361.11</ele>
        <time>2014-01-19T09:34:19Z</time>
      </trkpt>
      <trkpt lat="41.658494041" lon="2.519904632">
        <ele>362.07</ele>
        <time>2014-01-19T09:34:27Z</time>
      </trkpt>
      <trkpt lat="41.658450371" lon="2.519970598">
        <ele>362.55</ele>
        <time>2014-01-19T09:34:31Z</time>
      </trkpt>
      <trkpt lat="41.658369653" lon="2.520142762">
        <ele>362.55</ele>
        <time>2014-01-19T09:34:39Z</time>
      </trkpt>
      <trkpt lat="41.658332437" lon="2.520370918">
        <ele>362.55</ele>
        <time>2014-01-19T09:34:46Z</time>
      </trkpt>
      <trkpt lat="41.658338975" lon="2.520725388">
        <ele>361.59</ele>
        <time>2014-01-19T09:34:55Z</time>
      </trkpt>
      <trkpt lat="41.658328498" lon="2.520779871">
        <ele>361.59</ele>
        <time>2014-01-19T09:34:56Z</time>
      </trkpt>
      <trkpt lat="41.658293965" lon="2.520902582">
        <ele>360.63</ele>
        <time>2014-01-19T09:34:58Z</time>
      </trkpt>
      <trkpt lat="41.658224311" lon="2.521454614">
        <ele>356.79</ele>
        <time>2014-01-19T09:35:04Z</time>
      </trkpt>
      <trkpt lat="41.658202686" lon="2.521828950">
        <ele>353.42</ele>
        <time>2014-01-19T09:35:07Z</time>
      </trkpt>
      <trkpt lat="41.658199249" lon="2.522102032">
        <ele>352.46</ele>
        <time>2014-01-19T09:35:09Z</time>
      </trkpt>
      <trkpt lat="41.658339646" lon="2.522842322">
        <ele>349.58</ele>
        <time>2014-01-19T09:35:15Z</time>
      </trkpt>
      <trkpt lat="41.658424387" lon="2.523146082">
        <ele>347.65</ele>
        <time>2014-01-19T09:35:18Z</time>
      </trkpt>
      <trkpt lat="41.658461770" lon="2.523340123">
        <ele>346.69</ele>
        <time>2014-01-19T09:35:20Z</time>
      </trkpt>
      <trkpt lat="41.658475852" lon="2.523533158">
        <ele>344.77</ele>
        <time>2014-01-19T09:35:22Z</time>
      </trkpt>
      <trkpt lat="41.658530586" lon="2.523806408">
        <ele>342.85</ele>
        <time>2014-01-19T09:35:25Z</time>
      </trkpt>
      <trkpt lat="41.658670480" lon="2.524016207">
        <ele>340.92</ele>
        <time>2014-01-19T09:35:28Z</time>
      </trkpt>
      <trkpt lat="41.658921350" lon="2.524284596">
        <ele>338.04</ele>
        <time>2014-01-19T09:35:32Z</time>
      </trkpt>
      <trkpt lat="41.659068871" lon="2.524526833">
        <ele>336.60</ele>
        <time>2014-01-19T09:35:35Z</time>
      </trkpt>
      <trkpt lat="41.659208849" lon="2.524858924">
        <ele>333.71</ele>
        <time>2014-01-19T09:35:39Z</time>
      </trkpt>
      <trkpt lat="41.659302224" lon="2.525114404">
        <ele>330.83</ele>
        <time>2014-01-19T09:35:44Z</time>
      </trkpt>
      <trkpt lat="41.659365256" lon="2.525210042">
        <ele>329.87</ele>
        <time>2014-01-19T09:35:49Z</time>
      </trkpt>
      <trkpt lat="41.659364334" lon="2.525376590">
        <ele>331.31</ele>
        <time>2014-01-19T09:35:56Z</time>
      </trkpt>
      <trkpt lat="41.659362741" lon="2.525517071">
        <ele>333.71</ele>
        <time>2014-01-19T09:36:04Z</time>
      </trkpt>
      <trkpt lat="41.659380008" lon="2.525669873">
        <ele>335.64</ele>
        <time>2014-01-19T09:36:12Z</time>
      </trkpt>
      <trkpt lat="41.659379421" lon="2.525760062">
        <ele>337.08</ele>
        <time>2014-01-19T09:36:17Z</time>
      </trkpt>
      <trkpt lat="41.659338433" lon="2.525894843">
        <ele>338.52</ele>
        <time>2014-01-19T09:36:25Z</time>
      </trkpt>
      <trkpt lat="41.659296524" lon="2.525943710">
        <ele>339.00</ele>
        <time>2014-01-19T09:36:29Z</time>
      </trkpt>
      <trkpt lat="41.659218824" lon="2.526111012">
        <ele>339.96</ele>
        <time>2014-01-19T09:36:40Z</time>
      </trkpt>
      <trkpt lat="41.659203569" lon="2.526260378">
        <ele>340.92</ele>
        <time>2014-01-19T09:36:49Z</time>
      </trkpt>
      <trkpt lat="41.659193175" lon="2.526418042">
        <ele>341.41</ele>
        <time>2014-01-19T09:36:57Z</time>
      </trkpt>
      <trkpt lat="41.659213711" lon="2.526600851">
        <ele>341.89</ele>
        <time>2014-01-19T09:37:06Z</time>
      </trkpt>
      <trkpt lat="41.659220165" lon="2.526623985">
        <ele>341.89</ele>
        <time>2014-01-19T09:37:07Z</time>
      </trkpt>
      <trkpt lat="41.659295686" lon="2.526815176">
        <ele>343.33</ele>
        <time>2014-01-19T09:37:17Z</time>
      </trkpt>
      <trkpt lat="41.659287136" lon="2.526861277">
        <ele>343.81</ele>
        <time>2014-01-19T09:37:20Z</time>
      </trkpt>
      <trkpt lat="41.659207508" lon="2.527003266">
        <ele>344.77</ele>
        <time>2014-01-19T09:37:29Z</time>
      </trkpt>
      <trkpt lat="41.659152020" lon="2.527145675">
        <ele>345.73</ele>
        <time>2014-01-19T09:37:37Z</time>
      </trkpt>
      <trkpt lat="41.659096783" lon="2.527254388">
        <ele>346.69</ele>
        <time>2014-01-19T09:37:44Z</time>
      </trkpt>
      <trkpt lat="41.659009276" lon="2.527409788">
        <ele>348.62</ele>
        <time>2014-01-19T09:37:53Z</time>
      </trkpt>
      <trkpt lat="41.658925038" lon="2.527511964">
        <ele>350.06</ele>
        <time>2014-01-19T09:38:01Z</time>
      </trkpt>
      <trkpt lat="41.658847757" lon="2.527635262">
        <ele>351.98</ele>
        <time>2014-01-19T09:38:10Z</time>
      </trkpt>
      <trkpt lat="41.658819342" lon="2.527796865">
        <ele>354.38</ele>
        <time>2014-01-19T09:38:19Z</time>
      </trkpt>
      <trkpt lat="41.658802411" lon="2.527943548">
        <ele>355.83</ele>
        <time>2014-01-19T09:38:27Z</time>
      </trkpt>
      <trkpt lat="41.658792269" lon="2.528082268">
        <ele>357.27</ele>
        <time>2014-01-19T09:38:35Z</time>
      </trkpt>
      <trkpt lat="41.658788916" lon="2.528226186">
        <ele>359.19</ele>
        <time>2014-01-19T09:38:43Z</time>
      </trkpt>
      <trkpt lat="41.658767877" lon="2.528347220">
        <ele>360.15</ele>
        <time>2014-01-19T09:38:50Z</time>
      </trkpt>
      <trkpt lat="41.658736529" lon="2.528475631">
        <ele>361.11</ele>
        <time>2014-01-19T09:38:58Z</time>
      </trkpt>
      <trkpt lat="41.658726471" lon="2.528627847">
        <ele>363.04</ele>
        <time>2014-01-19T09:39:06Z</time>
      </trkpt>
      <trkpt lat="41.658688165" lon="2.528777883">
        <ele>363.52</ele>
        <time>2014-01-19T09:39:14Z</time>
      </trkpt>
      <trkpt lat="41.658628905" lon="2.528954657">
        <ele>364.96</ele>
        <time>2014-01-19T09:39:25Z</time>
      </trkpt>
      <trkpt lat="41.658607867" lon="2.529079799">
        <ele>366.40</ele>
        <time>2014-01-19T09:39:33Z</time>
      </trkpt>
      <trkpt lat="41.658570232" lon="2.529196978">
        <ele>368.32</ele>
        <time>2014-01-19T09:39:41Z</time>
      </trkpt>
      <trkpt lat="41.658531927" lon="2.529306864">
        <ele>369.28</ele>
        <time>2014-01-19T09:39:49Z</time>
      </trkpt>
      <trkpt lat="41.658494711" lon="2.529444076">
        <ele>370.24</ele>
        <time>2014-01-19T09:39:57Z</time>
      </trkpt>
      <trkpt lat="41.658431847" lon="2.529551029">
        <ele>371.21</ele>
        <time>2014-01-19T09:40:05Z</time>
      </trkpt>
      <trkpt lat="41.658339059" lon="2.529627221">
        <ele>372.65</ele>
        <time>2014-01-19T09:40:13Z</time>
      </trkpt>
      <trkpt lat="41.658217019" lon="2.529692516">
        <ele>374.09</ele>
        <time>2014-01-19T09:40:23Z</time>
      </trkpt>
      <trkpt lat="41.658179887" lon="2.529702323">
        <ele>374.57</ele>
        <time>2014-01-19T09:40:27Z</time>
      </trkpt>
      <trkpt lat="41.658119369" lon="2.529613642">
        <ele>375.53</ele>
        <time>2014-01-19T09:40:36Z</time>
      </trkpt>
      <trkpt lat="41.658091122" lon="2.529549018">
        <ele>375.53</ele>
        <time>2014-01-19T09:40:41Z</time>
      </trkpt>
      <trkpt lat="41.658059690" lon="2.529478945">
        <ele>376.01</ele>
        <time>2014-01-19T09:40:46Z</time>
      </trkpt>
      <trkpt lat="41.658010237" lon="2.529363778">
        <ele>376.49</ele>
        <time>2014-01-19T09:40:54Z</time>
      </trkpt>
      <trkpt lat="41.657978637" lon="2.529274427">
        <ele>377.45</ele>
        <time>2014-01-19T09:41:00Z</time>
      </trkpt>
      <trkpt lat="41.657948630" lon="2.529178118">
        <ele>377.94</ele>
        <time>2014-01-19T09:41:07Z</time>
      </trkpt>
      <trkpt lat="41.657946954" lon="2.529128833">
        <ele>378.42</ele>
        <time>2014-01-19T09:41:11Z</time>
      </trkpt>
      <trkpt lat="41.657899261" lon="2.528985167">
        <ele>379.86</ele>
        <time>2014-01-19T09:41:20Z</time>
      </trkpt>
      <trkpt lat="41.657838743" lon="2.528857678">
        <ele>381.78</ele>
        <time>2014-01-19T09:41:29Z</time>
      </trkpt>
      <trkpt lat="41.657772526" lon="2.528737398">
        <ele>383.70</ele>
        <time>2014-01-19T09:41:38Z</time>
      </trkpt>
      <trkpt lat="41.657698514" lon="2.528587530">
        <ele>385.15</ele>
        <time>2014-01-19T09:41:48Z</time>
      </trkpt>
      <trkpt lat="41.657607654" lon="2.528534891">
        <ele>386.11</ele>
        <time>2014-01-19T09:41:55Z</time>
      </trkpt>
      <trkpt lat="41.657483602" lon="2.528552493">
        <ele>388.03</ele>
        <time>2014-01-19T09:42:05Z</time>
      </trkpt>
      <trkpt lat="41.657368435" lon="2.528583087">
        <ele>388.51</ele>
        <time>2014-01-19T09:42:13Z</time>
      </trkpt>
      <trkpt lat="41.657254860" lon="2.528615609">
        <ele>390.43</ele>
        <time>2014-01-19T09:42:22Z</time>
      </trkpt>
      <trkpt lat="41.657142459" lon="2.528647041">
        <ele>392.36</ele>
        <time>2014-01-19T09:42:31Z</time>
      </trkpt>
      <trkpt lat="41.657124102" lon="2.528627511">
        <ele>392.84</ele>
        <time>2014-01-19T09:42:33Z</time>
      </trkpt>
      <trkpt lat="41.657113038" lon="2.528581997">
        <ele>393.32</ele>
        <time>2014-01-19T09:42:36Z</time>
      </trkpt>
      <trkpt lat="41.657141118" lon="2.528506979">
        <ele>394.28</ele>
        <time>2014-01-19T09:42:41Z</time>
      </trkpt>
      <trkpt lat="41.657232480" lon="2.528402206">
        <ele>395.72</ele>
        <time>2014-01-19T09:42:50Z</time>
      </trkpt>
      <trkpt lat="41.657320323" lon="2.528293744">
        <ele>397.16</ele>
        <time>2014-01-19T09:43:00Z</time>
      </trkpt>
      <trkpt lat="41.657371536" lon="2.528221408">
        <ele>398.60</ele>
        <time>2014-01-19T09:43:06Z</time>
      </trkpt>
      <trkpt lat="41.657466000" lon="2.528121747">
        <ele>399.57</ele>
        <time>2014-01-19T09:43:16Z</time>
      </trkpt>
      <trkpt lat="41.657608744" lon="2.528068690">
        <ele>401.01</ele>
        <time>2014-01-19T09:43:27Z</time>
      </trkpt>
      <trkpt lat="41.657718128" lon="2.528067265">
        <ele>402.45</ele>
        <time>2014-01-19T09:43:36Z</time>
      </trkpt>
      <trkpt lat="41.657746291" lon="2.528049830">
        <ele>402.93</ele>
        <time>2014-01-19T09:43:43Z</time>
      </trkpt>
      <trkpt lat="41.657752996" lon="2.528042035">
        <ele>402.93</ele>
        <time>2014-01-19T09:43:55Z</time>
      </trkpt>
      <trkpt lat="41.657750230" lon="2.528056033">
        <ele>402.93</ele>
        <time>2014-01-19T09:44:10Z</time>
      </trkpt>
      <trkpt lat="41.657734556" lon="2.528049747">
        <ele>402.93</ele>
        <time>2014-01-19T09:44:27Z</time>
      </trkpt>
      <trkpt lat="41.657755176" lon="2.528047567">
        <ele>402.93</ele>
        <time>2014-01-19T09:44:39Z</time>
      </trkpt>
      <trkpt lat="41.657824913" lon="2.528009849">
        <ele>403.89</ele>
        <time>2014-01-19T09:44:49Z</time>
      </trkpt>
      <trkpt lat="41.657828015" lon="2.527989313">
        <ele>403.89</ele>
        <time>2014-01-19T09:44:58Z</time>
      </trkpt>
      <trkpt lat="41.657823991" lon="2.527983530">
        <ele>403.89</ele>
        <time>2014-01-19T09:44:59Z</time>
      </trkpt>
      <trkpt lat="41.657726929" lon="2.527927119">
        <ele>405.33</ele>
        <time>2014-01-19T09:45:08Z</time>
      </trkpt>
      <trkpt lat="41.657690048" lon="2.527924772">
        <ele>405.33</ele>
        <time>2014-01-19T09:45:11Z</time>
      </trkpt>
      <trkpt lat="41.657580832" lon="2.527930807">
        <ele>405.81</ele>
        <time>2014-01-19T09:45:19Z</time>
      </trkpt>
      <trkpt lat="41.657453176" lon="2.527928963">
        <ele>406.29</ele>
        <time>2014-01-19T09:45:27Z</time>
      </trkpt>
      <trkpt lat="41.657373632" lon="2.527951846">
        <ele>406.29</ele>
        <time>2014-01-19T09:45:32Z</time>
      </trkpt>
      <trkpt lat="41.657214711" lon="2.528037509">
        <ele>406.77</ele>
        <time>2014-01-19T09:45:43Z</time>
      </trkpt>
      <trkpt lat="41.657010444" lon="2.528122837">
        <ele>406.77</ele>
        <time>2014-01-19T09:45:54Z</time>
      </trkpt>
      <trkpt lat="41.656851188" lon="2.528256947">
        <ele>407.26</ele>
        <time>2014-01-19T09:46:03Z</time>
      </trkpt>
      <trkpt lat="41.656681873" lon="2.528381335">
        <ele>407.26</ele>
        <time>2014-01-19T09:46:11Z</time>
      </trkpt>
      <trkpt lat="41.656612639" lon="2.528544447">
        <ele>407.26</ele>
        <time>2014-01-19T09:46:18Z</time>
      </trkpt>
      <trkpt lat="41.656589169" lon="2.528802106">
        <ele>408.70</ele>
        <time>2014-01-19T09:46:27Z</time>
      </trkpt>
      <trkpt lat="41.656468721" lon="2.528941749">
        <ele>410.14</ele>
        <time>2014-01-19T09:46:36Z</time>
      </trkpt>
      <trkpt lat="41.656324553" lon="2.529037386">
        <ele>412.06</ele>
        <time>2014-01-19T09:46:45Z</time>
      </trkpt>
      <trkpt lat="41.656185329" lon="2.529158505">
        <ele>413.98</ele>
        <time>2014-01-19T09:46:55Z</time>
      </trkpt>
      <trkpt lat="41.656058930" lon="2.529263614">
        <ele>415.91</ele>
        <time>2014-01-19T09:47:04Z</time>
      </trkpt>
      <trkpt lat="41.655938314" lon="2.529372411">
        <ele>417.83</ele>
        <time>2014-01-19T09:47:13Z</time>
      </trkpt>
      <trkpt lat="41.655809652" lon="2.529505264">
        <ele>419.75</ele>
        <time>2014-01-19T09:47:22Z</time>
      </trkpt>
      <trkpt lat="41.655708315" lon="2.529651277">
        <ele>420.71</ele>
        <time>2014-01-19T09:47:30Z</time>
      </trkpt>
      <trkpt lat="41.655632794" lon="2.529787567">
        <ele>421.19</ele>
        <time>2014-01-19T09:47:37Z</time>
      </trkpt>
      <trkpt lat="41.655577809" lon="2.529911786">
        <ele>422.16</ele>
        <time>2014-01-19T09:47:43Z</time>
      </trkpt>
      <trkpt lat="41.655488709" lon="2.530075150">
        <ele>422.16</ele>
        <time>2014-01-19T09:47:53Z</time>
      </trkpt>
      <trkpt lat="41.655426599" lon="2.530210266">
        <ele>422.16</ele>
        <time>2014-01-19T09:48:01Z</time>
      </trkpt>
      <trkpt lat="41.655369938" lon="2.530325433">
        <ele>420.71</ele>
        <time>2014-01-19T09:48:05Z</time>
      </trkpt>
      <trkpt lat="41.655322161" lon="2.530591978">
        <ele>419.27</ele>
        <time>2014-01-19T09:48:11Z</time>
      </trkpt>
      <trkpt lat="41.655283855" lon="2.530978132">
        <ele>418.79</ele>
        <time>2014-01-19T09:48:19Z</time>
      </trkpt>
      <trkpt lat="41.655249490" lon="2.531062286">
        <ele>418.79</ele>
        <time>2014-01-19T09:48:22Z</time>
      </trkpt>
      <trkpt lat="41.655196767" lon="2.531099837">
        <ele>418.31</ele>
        <time>2014-01-19T09:48:29Z</time>
      </trkpt>
      <trkpt lat="41.655206490" lon="2.531108387">
        <ele>418.31</ele>
        <time>2014-01-19T09:48:38Z</time>
      </trkpt>
      <trkpt lat="41.655225434" lon="2.531122552">
        <ele>418.31</ele>
        <time>2014-01-19T09:48:46Z</time>
      </trkpt>
      <trkpt lat="41.655230882" lon="2.531203354">
        <ele>418.31</ele>
        <time>2014-01-19T09:48:55Z</time>
      </trkpt>
      <trkpt lat="41.655232810" lon="2.531224392">
        <ele>418.31</ele>
        <time>2014-01-19T09:49:01Z</time>
      </trkpt>
      <trkpt lat="41.655233648" lon="2.531262362">
        <ele>420.23</ele>
        <time>2014-01-19T09:49:09Z</time>
      </trkpt>
      <trkpt lat="41.655229708" lon="2.531311397">
        <ele>420.23</ele>
        <time>2014-01-19T09:49:16Z</time>
      </trkpt>
      <trkpt lat="41.655221243" lon="2.531322377">
        <ele>420.23</ele>
        <time>2014-01-19T09:49:22Z</time>
      </trkpt>
      <trkpt lat="41.655214453" lon="2.531324305">
        <ele>420.23</ele>
        <time>2014-01-19T09:49:42Z</time>
      </trkpt>
      <trkpt lat="41.655211436" lon="2.531337129">
        <ele>420.23</ele>
        <time>2014-01-19T09:49:58Z</time>
      </trkpt>
      <trkpt lat="41.655217387" lon="2.531329585">
        <ele>420.23</ele>
        <time>2014-01-19T09:50:17Z</time>
      </trkpt>
      <trkpt lat="41.655225266" lon="2.531322628">
        <ele>420.23</ele>
        <time>2014-01-19T09:50:33Z</time>
      </trkpt>
      <trkpt lat="41.655224176" lon="2.531325897">
        <ele>420.23</ele>
        <time>2014-01-19T09:50:49Z</time>
      </trkpt>
      <trkpt lat="41.655208754" lon="2.531324389">
        <ele>420.23</ele>
        <time>2014-01-19T09:51:08Z</time>
      </trkpt>
      <trkpt lat="41.655212609" lon="2.531323383">
        <ele>420.23</ele>
        <time>2014-01-19T09:51:25Z</time>
      </trkpt>
      <trkpt lat="41.655221410" lon="2.531324975">
        <ele>420.23</ele>
        <time>2014-01-19T09:51:41Z</time>
      </trkpt>
      <trkpt lat="41.655228116" lon="2.531320868">
        <ele>420.23</ele>
        <time>2014-01-19T09:52:04Z</time>
      </trkpt>
      <trkpt lat="41.655241946" lon="2.531332351">
        <ele>420.23</ele>
        <time>2014-01-19T09:52:22Z</time>
      </trkpt>
      <trkpt lat="41.655243455" lon="2.531346852">
        <ele>420.23</ele>
        <time>2014-01-19T09:52:43Z</time>
      </trkpt>
      <trkpt lat="41.655238928" lon="2.531353306">
        <ele>419.75</ele>
        <time>2014-01-19T09:53:05Z</time>
      </trkpt>
      <trkpt lat="41.655229122" lon="2.531351630">
        <ele>419.75</ele>
        <time>2014-01-19T09:53:23Z</time>
      </trkpt>
      <trkpt lat="41.655237839" lon="2.531363281">
        <ele>419.75</ele>
        <time>2014-01-19T09:53:44Z</time>
      </trkpt>
      <trkpt lat="41.655239012" lon="2.531350540">
        <ele>419.75</ele>
        <time>2014-01-19T09:54:06Z</time>
      </trkpt>
      <trkpt lat="41.655241024" lon="2.531348612">
        <ele>419.75</ele>
        <time>2014-01-19T09:54:22Z</time>
      </trkpt>
      <trkpt lat="41.655239599" lon="2.531354144">
        <ele>419.75</ele>
        <time>2014-01-19T09:54:45Z</time>
      </trkpt>
      <trkpt lat="41.655242700" lon="2.531356575">
        <ele>419.75</ele>
        <time>2014-01-19T09:55:05Z</time>
      </trkpt>
      <trkpt lat="41.655227529" lon="2.531341571">
        <ele>419.75</ele>
        <time>2014-01-19T09:55:26Z</time>
      </trkpt>
      <trkpt lat="41.655222835" lon="2.531338470">
        <ele>419.75</ele>
        <time>2014-01-19T09:55:42Z</time>
      </trkpt>
      <trkpt lat="41.655217303" lon="2.531344757">
        <ele>419.75</ele>
        <time>2014-01-19T09:55:57Z</time>
      </trkpt>
      <trkpt lat="41.655219650" lon="2.531341488">
        <ele>419.75</ele>
        <time>2014-01-19T09:56:16Z</time>
      </trkpt>
      <trkpt lat="41.655235408" lon="2.531345427">
        <ele>419.75</ele>
        <time>2014-01-19T09:56:38Z</time>
      </trkpt>
      <trkpt lat="41.655239934" lon="2.531326400">
        <ele>419.75</ele>
        <time>2014-01-19T09:56:59Z</time>
      </trkpt>
      <trkpt lat="41.655228451" lon="2.531315252">
        <ele>420.23</ele>
        <time>2014-01-19T09:57:28Z</time>
      </trkpt>
      <trkpt lat="41.655211939" lon="2.531306200">
        <ele>420.23</ele>
        <time>2014-01-19T09:57:51Z</time>
      </trkpt>
      <trkpt lat="41.655205988" lon="2.531321203">
        <ele>420.23</ele>
        <time>2014-01-19T09:58:18Z</time>
      </trkpt>
      <trkpt lat="41.655208502" lon="2.531322209">
        <ele>420.23</ele>
        <time>2014-01-19T09:58:42Z</time>
      </trkpt>
      <trkpt lat="41.655206239" lon="2.531319276">
        <ele>420.23</ele>
        <time>2014-01-19T09:59:08Z</time>
      </trkpt>
      <trkpt lat="41.655210765" lon="2.531319527">
        <ele>420.23</ele>
        <time>2014-01-19T09:59:37Z</time>
      </trkpt>
      <trkpt lat="41.655210933" lon="2.531312486">
        <ele>420.23</ele>
        <time>2014-01-19T10:00:06Z</time>
      </trkpt>
      <trkpt lat="41.655215543" lon="2.531321874">
        <ele>420.23</ele>
        <time>2014-01-19T10:00:30Z</time>
      </trkpt>
      <trkpt lat="41.655222416" lon="2.531314246">
        <ele>420.23</ele>
        <time>2014-01-19T10:00:57Z</time>
      </trkpt>
      <trkpt lat="41.655213280" lon="2.531313827">
        <ele>420.23</ele>
        <time>2014-01-19T10:01:24Z</time>
      </trkpt>
      <trkpt lat="41.655219734" lon="2.531294214">
        <ele>420.23</ele>
        <time>2014-01-19T10:01:46Z</time>
      </trkpt>
      <trkpt lat="41.655225601" lon="2.531294298">
        <ele>420.23</ele>
        <time>2014-01-19T10:02:06Z</time>
      </trkpt>
      <trkpt lat="41.655236246" lon="2.531279126">
        <ele>420.23</ele>
        <time>2014-01-19T10:02:14Z</time>
      </trkpt>
      <trkpt lat="41.655231469" lon="2.531286754">
        <ele>420.23</ele>
        <time>2014-01-19T10:02:25Z</time>
      </trkpt>
      <trkpt lat="41.655232726" lon="2.531281054">
        <ele>420.23</ele>
        <time>2014-01-19T10:02:26Z</time>
      </trkpt>
      <trkpt lat="41.655240521" lon="2.531158511">
        <ele>419.27</ele>
        <time>2014-01-19T10:02:33Z</time>
      </trkpt>
      <trkpt lat="41.655244963" lon="2.531147363">
        <ele>418.79</ele>
        <time>2014-01-19T10:02:39Z</time>
      </trkpt>
      <trkpt lat="41.655236330" lon="2.531141663">
        <ele>418.79</ele>
        <time>2014-01-19T10:02:52Z</time>
      </trkpt>
      <trkpt lat="41.655228786" lon="2.531146105">
        <ele>418.31</ele>
        <time>2014-01-19T10:03:04Z</time>
      </trkpt>
      <trkpt lat="41.655211855" lon="2.531153565">
        <ele>418.31</ele>
        <time>2014-01-19T10:03:15Z</time>
      </trkpt>
      <trkpt lat="41.655226858" lon="2.531141915">
        <ele>418.31</ele>
        <time>2014-01-19T10:03:25Z</time>
      </trkpt>
      <trkpt lat="41.655202467" lon="2.531118445">
        <ele>417.83</ele>
        <time>2014-01-19T10:03:31Z</time>
      </trkpt>
      <trkpt lat="41.655093586" lon="2.531209054">
        <ele>416.87</ele>
        <time>2014-01-19T10:03:38Z</time>
      </trkpt>
      <trkpt lat="41.654942880" lon="2.531271750">
        <ele>415.91</ele>
        <time>2014-01-19T10:03:43Z</time>
      </trkpt>
      <trkpt lat="41.654763423" lon="2.531282311">
        <ele>414.47</ele>
        <time>2014-01-19T10:03:49Z</time>
      </trkpt>
      <trkpt lat="41.654723441" lon="2.531301674">
        <ele>413.98</ele>
        <time>2014-01-19T10:03:50Z</time>
      </trkpt>
      <trkpt lat="41.654499477" lon="2.531442993">
        <ele>412.54</ele>
        <time>2014-01-19T10:03:56Z</time>
      </trkpt>
      <trkpt lat="41.654472990" lon="2.531468809">
        <ele>411.58</ele>
        <time>2014-01-19T10:03:57Z</time>
      </trkpt>
      <trkpt lat="41.654345166" lon="2.531576349">
        <ele>409.66</ele>
        <time>2014-01-19T10:04:01Z</time>
      </trkpt>
      <trkpt lat="41.654197980" lon="2.531647930">
        <ele>407.74</ele>
        <time>2014-01-19T10:04:04Z</time>
      </trkpt>
      <trkpt lat="41.653982733" lon="2.531792602">
        <ele>404.37</ele>
        <time>2014-01-19T10:04:09Z</time>
      </trkpt>
      <trkpt lat="41.653847281" lon="2.531852784">
        <ele>401.49</ele>
        <time>2014-01-19T10:04:13Z</time>
      </trkpt>
      <trkpt lat="41.653700933" lon="2.531837948">
        <ele>398.60</ele>
        <time>2014-01-19T10:04:16Z</time>
      </trkpt>
      <trkpt lat="41.653408488" lon="2.531831997">
        <ele>394.28</ele>
        <time>2014-01-19T10:04:22Z</time>
      </trkpt>
      <trkpt lat="41.653201707" lon="2.531848341">
        <ele>391.87</ele>
        <time>2014-01-19T10:04:27Z</time>
      </trkpt>
      <trkpt lat="41.653066926" lon="2.531903410">
        <ele>389.95</ele>
        <time>2014-01-19T10:04:33Z</time>
      </trkpt>
      <trkpt lat="41.652921584" lon="2.532004329">
        <ele>387.55</ele>
        <time>2014-01-19T10:04:39Z</time>
      </trkpt>
      <trkpt lat="41.652781690" lon="2.532133661">
        <ele>384.66</ele>
        <time>2014-01-19T10:04:46Z</time>
      </trkpt>
      <trkpt lat="41.652535597" lon="2.532291660">
        <ele>382.74</ele>
        <time>2014-01-19T10:04:53Z</time>
      </trkpt>
      <trkpt lat="41.652498633" lon="2.532316471">
        <ele>382.74</ele>
        <time>2014-01-19T10:04:54Z</time>
      </trkpt>
      <trkpt lat="41.652265784" lon="2.532439852">
        <ele>380.34</ele>
        <time>2014-01-19T10:05:00Z</time>
      </trkpt>
      <trkpt lat="41.652095882" lon="2.532493245">
        <ele>378.90</ele>
        <time>2014-01-19T10:05:04Z</time>
      </trkpt>
      <trkpt lat="41.651929083" lon="2.532456951">
        <ele>376.49</ele>
        <time>2014-01-19T10:05:09Z</time>
      </trkpt>
      <trkpt lat="41.651875857" lon="2.532494670">
        <ele>375.05</ele>
        <time>2014-01-19T10:05:11Z</time>
      </trkpt>
      <trkpt lat="41.651714590" lon="2.532651328">
        <ele>372.65</ele>
        <time>2014-01-19T10:05:18Z</time>
      </trkpt>
      <trkpt lat="41.651611576" lon="2.532793149">
        <ele>369.76</ele>
        <time>2014-01-19T10:05:23Z</time>
      </trkpt>
      <trkpt lat="41.651537396" lon="2.532863306">
        <ele>368.32</ele>
        <time>2014-01-19T10:05:27Z</time>
      </trkpt>
      <trkpt lat="41.651450895" lon="2.532869006">
        <ele>366.88</ele>
        <time>2014-01-19T10:05:32Z</time>
      </trkpt>
      <trkpt lat="41.651315108" lon="2.532857858">
        <ele>364.00</ele>
        <time>2014-01-19T10:05:36Z</time>
      </trkpt>
      <trkpt lat="41.651273534" lon="2.532697596">
        <ele>363.52</ele>
        <time>2014-01-19T10:05:41Z</time>
      </trkpt>
      <trkpt lat="41.651364142" lon="2.532511098">
        <ele>361.11</ele>
        <time>2014-01-19T10:05:46Z</time>
      </trkpt>
      <trkpt lat="41.651375039" lon="2.532394422">
        <ele>360.15</ele>
        <time>2014-01-19T10:05:48Z</time>
      </trkpt>
      <trkpt lat="41.651353916" lon="2.532123352">
        <ele>358.71</ele>
        <time>2014-01-19T10:05:53Z</time>
      </trkpt>
      <trkpt lat="41.651271690" lon="2.531782040">
        <ele>356.31</ele>
        <time>2014-01-19T10:05:59Z</time>
      </trkpt>
      <trkpt lat="41.651274624" lon="2.531607194">
        <ele>353.42</ele>
        <time>2014-01-19T10:06:04Z</time>
      </trkpt>
      <trkpt lat="41.651273618" lon="2.531582132">
        <ele>353.90</ele>
        <time>2014-01-19T10:06:13Z</time>
      </trkpt>
      <trkpt lat="41.651277306" lon="2.531420613">
        <ele>352.94</ele>
        <time>2014-01-19T10:06:21Z</time>
      </trkpt>
      <trkpt lat="41.651265152" lon="2.531143591">
        <ele>351.98</ele>
        <time>2014-01-19T10:06:28Z</time>
      </trkpt>
      <trkpt lat="41.651305217" lon="2.530988190">
        <ele>350.54</ele>
        <time>2014-01-19T10:06:33Z</time>
      </trkpt>
      <trkpt lat="41.651405800" lon="2.530907221">
        <ele>349.58</ele>
        <time>2014-01-19T10:06:37Z</time>
      </trkpt>
      <trkpt lat="41.651392054" lon="2.530804208">
        <ele>347.65</ele>
        <time>2014-01-19T10:06:41Z</time>
      </trkpt>
      <trkpt lat="41.651244449" lon="2.530854415">
        <ele>346.21</ele>
        <time>2014-01-19T10:06:46Z</time>
      </trkpt>
      <trkpt lat="41.651195666" lon="2.530883333">
        <ele>345.73</ele>
        <time>2014-01-19T10:06:48Z</time>
      </trkpt>
      <trkpt lat="41.651146045" lon="2.531136634">
        <ele>344.77</ele>
        <time>2014-01-19T10:06:55Z</time>
      </trkpt>
      <trkpt lat="41.651125761" lon="2.531300416">
        <ele>343.81</ele>
        <time>2014-01-19T10:06:58Z</time>
      </trkpt>
      <trkpt lat="41.651082343" lon="2.531502504">
        <ele>343.33</ele>
        <time>2014-01-19T10:07:02Z</time>
      </trkpt>
      <trkpt lat="41.651007325" lon="2.531718170">
        <ele>342.37</ele>
        <time>2014-01-19T10:07:06Z</time>
      </trkpt>
      <trkpt lat="41.650870281" lon="2.531875163">
        <ele>342.37</ele>
        <time>2014-01-19T10:07:12Z</time>
      </trkpt>
      <trkpt lat="41.650829544" lon="2.531889580">
        <ele>341.41</ele>
        <time>2014-01-19T10:07:13Z</time>
      </trkpt>
      <trkpt lat="41.650564341" lon="2.531893185">
        <ele>339.00</ele>
        <time>2014-01-19T10:07:18Z</time>
      </trkpt>
      <trkpt lat="41.650451688" lon="2.531907937">
        <ele>337.56</ele>
        <time>2014-01-19T10:07:20Z</time>
      </trkpt>
      <trkpt lat="41.650186652" lon="2.531942554">
        <ele>335.16</ele>
        <time>2014-01-19T10:07:25Z</time>
      </trkpt>
      <trkpt lat="41.650099732" lon="2.531943224">
        <ele>334.20</ele>
        <time>2014-01-19T10:07:27Z</time>
      </trkpt>
      <trkpt lat="41.649947349" lon="2.532012627">
        <ele>331.79</ele>
        <time>2014-01-19T10:07:32Z</time>
      </trkpt>
      <trkpt lat="41.649797900" lon="2.532099296">
        <ele>328.43</ele>
        <time>2014-01-19T10:07:37Z</time>
      </trkpt>
      <trkpt lat="41.649658257" lon="2.532176074">
        <ele>325.54</ele>
        <time>2014-01-19T10:07:41Z</time>
      </trkpt>
      <trkpt lat="41.649534624" lon="2.532246817">
        <ele>323.62</ele>
        <time>2014-01-19T10:07:44Z</time>
      </trkpt>
      <trkpt lat="41.649315773" lon="2.532365840">
        <ele>319.30</ele>
        <time>2014-01-19T10:07:49Z</time>
      </trkpt>
      <trkpt lat="41.649165485" lon="2.532404984">
        <ele>315.93</ele>
        <time>2014-01-19T10:07:53Z</time>
      </trkpt>
      <trkpt lat="41.649062472" lon="2.532421496">
        <ele>314.01</ele>
        <time>2014-01-19T10:07:56Z</time>
      </trkpt>
      <trkpt lat="41.648880165" lon="2.532497352">
        <ele>310.64</ele>
        <time>2014-01-19T10:08:01Z</time>
      </trkpt>
      <trkpt lat="41.648761394" lon="2.532429710">
        <ele>308.72</ele>
        <time>2014-01-19T10:08:05Z</time>
      </trkpt>
      <trkpt lat="41.648615716" lon="2.532309095">
        <ele>304.88</ele>
        <time>2014-01-19T10:08:09Z</time>
      </trkpt>
      <trkpt lat="41.648498789" lon="2.532186383">
        <ele>302.47</ele>
        <time>2014-01-19T10:08:13Z</time>
      </trkpt>
      <trkpt lat="41.648417233" lon="2.532201136">
        <ele>301.99</ele>
        <time>2014-01-19T10:08:15Z</time>
      </trkpt>
      <trkpt lat="41.648254289" lon="2.532359805">
        <ele>298.63</ele>
        <time>2014-01-19T10:08:19Z</time>
      </trkpt>
      <trkpt lat="41.648218163" lon="2.532434320">
        <ele>298.15</ele>
        <time>2014-01-19T10:08:21Z</time>
      </trkpt>
      <trkpt lat="41.648133841" lon="2.532419820">
        <ele>296.22</ele>
        <time>2014-01-19T10:08:25Z</time>
      </trkpt>
      <trkpt lat="41.648181282" lon="2.532243883">
        <ele>294.78</ele>
        <time>2014-01-19T10:08:28Z</time>
      </trkpt>
      <trkpt lat="41.648213385" lon="2.531830320">
        <ele>292.38</ele>
        <time>2014-01-19T10:08:35Z</time>
      </trkpt>
      <trkpt lat="41.648229478" lon="2.531707777">
        <ele>289.97</ele>
        <time>2014-01-19T10:08:38Z</time>
      </trkpt>
      <trkpt lat="41.648212295" lon="2.531630831">
        <ele>289.01</ele>
        <time>2014-01-19T10:08:40Z</time>
      </trkpt>
      <trkpt lat="41.648086315" lon="2.531648936">
        <ele>286.61</ele>
        <time>2014-01-19T10:08:44Z</time>
      </trkpt>
      <trkpt lat="41.648023032" lon="2.531789165">
        <ele>285.17</ele>
        <time>2014-01-19T10:08:47Z</time>
      </trkpt>
      <trkpt lat="41.647868553" lon="2.532125699">
        <ele>283.25</ele>
        <time>2014-01-19T10:08:53Z</time>
      </trkpt>
      <trkpt lat="41.647841899" lon="2.532216558">
        <ele>283.25</ele>
        <time>2014-01-19T10:08:55Z</time>
      </trkpt>
      <trkpt lat="41.647824297" lon="2.532354608">
        <ele>282.77</ele>
        <time>2014-01-19T10:08:58Z</time>
      </trkpt>
      <trkpt lat="41.647741232" lon="2.532575974">
        <ele>279.88</ele>
        <time>2014-01-19T10:09:02Z</time>
      </trkpt>
      <trkpt lat="41.647666885" lon="2.532816367">
        <ele>275.56</ele>
        <time>2014-01-19T10:09:06Z</time>
      </trkpt>
      <trkpt lat="41.647635620" lon="2.533030693">
        <ele>273.15</ele>
        <time>2014-01-19T10:09:10Z</time>
      </trkpt>
      <trkpt lat="41.647629166" lon="2.533249879">
        <ele>270.27</ele>
        <time>2014-01-19T10:09:15Z</time>
      </trkpt>
      <trkpt lat="41.647625646" lon="2.533402598">
        <ele>266.90</ele>
        <time>2014-01-19T10:09:19Z</time>
      </trkpt>
      <trkpt lat="41.647565128" lon="2.533470407">
        <ele>264.98</ele>
        <time>2014-01-19T10:09:24Z</time>
      </trkpt>
      <trkpt lat="41.647566637" lon="2.533590017">
        <ele>264.50</ele>
        <time>2014-01-19T10:09:31Z</time>
      </trkpt>
      <trkpt lat="41.647563033" lon="2.533607116">
        <ele>264.98</ele>
        <time>2014-01-19T10:09:32Z</time>
      </trkpt>
      <trkpt lat="41.647580300" lon="2.533824794">
        <ele>264.98</ele>
        <time>2014-01-19T10:09:42Z</time>
      </trkpt>
      <trkpt lat="41.647585580" lon="2.533968125">
        <ele>267.86</ele>
        <time>2014-01-19T10:09:50Z</time>
      </trkpt>
      <trkpt lat="41.647593962" lon="2.534108270">
        <ele>269.79</ele>
        <time>2014-01-19T10:09:58Z</time>
      </trkpt>
      <trkpt lat="41.647590777" lon="2.534228802">
        <ele>270.27</ele>
        <time>2014-01-19T10:10:04Z</time>
      </trkpt>
      <trkpt lat="41.647574349" lon="2.534360482">
        <ele>271.71</ele>
        <time>2014-01-19T10:10:11Z</time>
      </trkpt>
      <trkpt lat="41.647567978" lon="2.534514960">
        <ele>272.19</ele>
        <time>2014-01-19T10:10:19Z</time>
      </trkpt>
      <trkpt lat="41.647521626" lon="2.534664326">
        <ele>274.11</ele>
        <time>2014-01-19T10:10:27Z</time>
      </trkpt>
      <trkpt lat="41.647473766" lon="2.534785025">
        <ele>275.56</ele>
        <time>2014-01-19T10:10:35Z</time>
      </trkpt>
      <trkpt lat="41.647409057" lon="2.534915112">
        <ele>277.00</ele>
        <time>2014-01-19T10:10:44Z</time>
      </trkpt>
      <trkpt lat="41.647361783" lon="2.535051067">
        <ele>277.96</ele>
        <time>2014-01-19T10:10:51Z</time>
      </trkpt>
      <trkpt lat="41.647302523" lon="2.535228511">
        <ele>278.92</ele>
        <time>2014-01-19T10:11:01Z</time>
      </trkpt>
      <trkpt lat="41.647241922" lon="2.535390031">
        <ele>280.36</ele>
        <time>2014-01-19T10:11:10Z</time>
      </trkpt>
      <trkpt lat="41.647190374" lon="2.535570074">
        <ele>281.80</ele>
        <time>2014-01-19T10:11:20Z</time>
      </trkpt>
      <trkpt lat="41.647154415" lon="2.535681805">
        <ele>282.77</ele>
        <time>2014-01-19T10:11:27Z</time>
      </trkpt>
      <trkpt lat="41.647113931" lon="2.535799403">
        <ele>284.21</ele>
        <time>2014-01-19T10:11:34Z</time>
      </trkpt>
      <trkpt lat="41.647077302" lon="2.535892358">
        <ele>284.69</ele>
        <time>2014-01-19T10:11:40Z</time>
      </trkpt>
      <trkpt lat="41.647011420" lon="2.536037533">
        <ele>286.61</ele>
        <time>2014-01-19T10:11:49Z</time>
      </trkpt>
      <trkpt lat="41.646906981" lon="2.536182959">
        <ele>287.09</ele>
        <time>2014-01-19T10:11:58Z</time>
      </trkpt>
      <trkpt lat="41.646796592" lon="2.536320925">
        <ele>289.01</ele>
        <time>2014-01-19T10:12:08Z</time>
      </trkpt>
      <trkpt lat="41.646704139" lon="2.536441457">
        <ele>289.97</ele>
        <time>2014-01-19T10:12:16Z</time>
      </trkpt>
      <trkpt lat="41.646647394" lon="2.536514295">
        <ele>290.94</ele>
        <time>2014-01-19T10:12:22Z</time>
      </trkpt>
      <trkpt lat="41.646568185" lon="2.536655614">
        <ele>293.34</ele>
        <time>2014-01-19T10:12:32Z</time>
      </trkpt>
      <trkpt lat="41.646526108" lon="2.536772123">
        <ele>294.78</ele>
        <time>2014-01-19T10:12:39Z</time>
      </trkpt>
      <trkpt lat="41.646501213" lon="2.536855858">
        <ele>295.26</ele>
        <time>2014-01-19T10:12:44Z</time>
      </trkpt>
      <trkpt lat="41.646435918" lon="2.536983431">
        <ele>296.70</ele>
        <time>2014-01-19T10:12:53Z</time>
      </trkpt>
      <trkpt lat="41.646379508" lon="2.537111087">
        <ele>298.15</ele>
        <time>2014-01-19T10:13:01Z</time>
      </trkpt>
      <trkpt lat="41.646346064" lon="2.537157187">
        <ele>298.63</ele>
        <time>2014-01-19T10:13:05Z</time>
      </trkpt>
      <trkpt lat="41.646274399" lon="2.537255842">
        <ele>299.11</ele>
        <time>2014-01-19T10:13:13Z</time>
      </trkpt>
      <trkpt lat="41.646233160" lon="2.537286939">
        <ele>299.59</ele>
        <time>2014-01-19T10:13:18Z</time>
      </trkpt>
      <trkpt lat="41.646100894" lon="2.537395485">
        <ele>301.51</ele>
        <time>2014-01-19T10:13:28Z</time>
      </trkpt>
      <trkpt lat="41.646018835" lon="2.537546611">
        <ele>302.47</ele>
        <time>2014-01-19T10:13:37Z</time>
      </trkpt>
      <trkpt lat="41.645952953" lon="2.537682984">
        <ele>303.91</ele>
        <time>2014-01-19T10:13:45Z</time>
      </trkpt>
      <trkpt lat="41.645885060" lon="2.537774934">
        <ele>306.32</ele>
        <time>2014-01-19T10:13:52Z</time>
      </trkpt>
      <trkpt lat="41.645816496" lon="2.537886748">
        <ele>309.20</ele>
        <time>2014-01-19T10:14:01Z</time>
      </trkpt>
      <trkpt lat="41.645766707" lon="2.537952798">
        <ele>310.16</ele>
        <time>2014-01-19T10:14:07Z</time>
      </trkpt>
      <trkpt lat="41.645704011" lon="2.538062349">
        <ele>312.09</ele>
        <time>2014-01-19T10:14:16Z</time>
      </trkpt>
      <trkpt lat="41.645677775" lon="2.538125800">
        <ele>313.05</ele>
        <time>2014-01-19T10:14:21Z</time>
      </trkpt>
      <trkpt lat="41.645638380" lon="2.538270556">
        <ele>314.97</ele>
        <time>2014-01-19T10:14:31Z</time>
      </trkpt>
      <trkpt lat="41.645611810" lon="2.538360410">
        <ele>316.41</ele>
        <time>2014-01-19T10:14:38Z</time>
      </trkpt>
      <trkpt lat="41.645598650" lon="2.538502567">
        <ele>319.30</ele>
        <time>2014-01-19T10:14:46Z</time>
      </trkpt>
      <trkpt lat="41.645595884" lon="2.538612118">
        <ele>320.74</ele>
        <time>2014-01-19T10:14:53Z</time>
      </trkpt>
      <trkpt lat="41.645627568" lon="2.538715886">
        <ele>322.18</ele>
        <time>2014-01-19T10:15:01Z</time>
      </trkpt>
      <trkpt lat="41.645678446" lon="2.538823929">
        <ele>324.58</ele>
        <time>2014-01-19T10:15:11Z</time>
      </trkpt>
      <trkpt lat="41.645704514" lon="2.538922751">
        <ele>326.99</ele>
        <time>2014-01-19T10:15:19Z</time>
      </trkpt>
      <trkpt lat="41.645715578" lon="2.538996261">
        <ele>328.43</ele>
        <time>2014-01-19T10:15:25Z</time>
      </trkpt>
      <trkpt lat="41.645680206" lon="2.539145878">
        <ele>330.35</ele>
        <time>2014-01-19T10:15:35Z</time>
      </trkpt>
      <trkpt lat="41.645664867" lon="2.539250232">
        <ele>333.23</ele>
        <time>2014-01-19T10:15:44Z</time>
      </trkpt>
      <trkpt lat="41.645682134" lon="2.539384091">
        <ele>335.64</ele>
        <time>2014-01-19T10:15:54Z</time>
      </trkpt>
      <trkpt lat="41.645678027" lon="2.539463803">
        <ele>337.56</ele>
        <time>2014-01-19T10:16:00Z</time>
      </trkpt>
      <trkpt lat="41.645673249" lon="2.539605290">
        <ele>338.52</ele>
        <time>2014-01-19T10:16:08Z</time>
      </trkpt>
      <trkpt lat="41.645646427" lon="2.539716099">
        <ele>339.48</ele>
        <time>2014-01-19T10:16:16Z</time>
      </trkpt>
      <trkpt lat="41.645612061" lon="2.539823974">
        <ele>340.92</ele>
        <time>2014-01-19T10:16:25Z</time>
      </trkpt>
      <trkpt lat="41.645597896" lon="2.539873427">
        <ele>341.89</ele>
        <time>2014-01-19T10:16:28Z</time>
      </trkpt>
      <trkpt lat="41.645568224" lon="2.540030923">
        <ele>344.29</ele>
        <time>2014-01-19T10:16:38Z</time>
      </trkpt>
      <trkpt lat="41.645514412" lon="2.540150030">
        <ele>346.69</ele>
        <time>2014-01-19T10:16:48Z</time>
      </trkpt>
      <trkpt lat="41.645486081" lon="2.540174672">
        <ele>346.21</ele>
        <time>2014-01-19T10:16:55Z</time>
      </trkpt>
      <trkpt lat="41.645489685" lon="2.540180121">
        <ele>346.21</ele>
        <time>2014-01-19T10:17:08Z</time>
      </trkpt>
      <trkpt lat="41.645519274" lon="2.540179366">
        <ele>346.21</ele>
        <time>2014-01-19T10:17:18Z</time>
      </trkpt>
      <trkpt lat="41.645509215" lon="2.540192442">
        <ele>346.21</ele>
        <time>2014-01-19T10:17:26Z</time>
      </trkpt>
      <trkpt lat="41.645518938" lon="2.540193280">
        <ele>346.21</ele>
        <time>2014-01-19T10:17:40Z</time>
      </trkpt>
      <trkpt lat="41.645522291" lon="2.540207027">
        <ele>346.21</ele>
        <time>2014-01-19T10:17:59Z</time>
      </trkpt>
      <trkpt lat="41.645509634" lon="2.540198477">
        <ele>346.21</ele>
        <time>2014-01-19T10:18:15Z</time>
      </trkpt>
      <trkpt lat="41.645503180" lon="2.540197639">
        <ele>346.21</ele>
        <time>2014-01-19T10:18:20Z</time>
      </trkpt>
      <trkpt lat="41.645456325" lon="2.540192358">
        <ele>347.17</ele>
        <time>2014-01-19T10:18:24Z</time>
      </trkpt>
      <trkpt lat="41.645402430" lon="2.540191939">
        <ele>347.65</ele>
        <time>2014-01-19T10:18:28Z</time>
      </trkpt>
      <trkpt lat="41.645283574" lon="2.540163692">
        <ele>348.62</ele>
        <time>2014-01-19T10:18:37Z</time>
      </trkpt>
      <trkpt lat="41.645150554" lon="2.540110802">
        <ele>349.58</ele>
        <time>2014-01-19T10:18:46Z</time>
      </trkpt>
      <trkpt lat="41.645106465" lon="2.540069899">
        <ele>350.06</ele>
        <time>2014-01-19T10:18:50Z</time>
      </trkpt>
      <trkpt lat="41.644983502" lon="2.540001921">
        <ele>351.02</ele>
        <time>2014-01-19T10:18:59Z</time>
      </trkpt>
      <trkpt lat="41.644968080" lon="2.539995719">
        <ele>351.02</ele>
        <time>2014-01-19T10:19:00Z</time>
      </trkpt>
      <trkpt lat="41.644833550" lon="2.539940566">
        <ele>352.46</ele>
        <time>2014-01-19T10:19:10Z</time>
      </trkpt>
      <trkpt lat="41.644699775" lon="2.539890861">
        <ele>353.90</ele>
        <time>2014-01-19T10:19:20Z</time>
      </trkpt>
      <trkpt lat="41.644651411" lon="2.539906200">
        <ele>354.86</ele>
        <time>2014-01-19T10:19:24Z</time>
      </trkpt>
      <trkpt lat="41.644576645" lon="2.540030085">
        <ele>356.31</ele>
        <time>2014-01-19T10:19:34Z</time>
      </trkpt>
      <trkpt lat="41.644552337" lon="2.540166961">
        <ele>357.75</ele>
        <time>2014-01-19T10:19:43Z</time>
      </trkpt>
      <trkpt lat="41.644529035" lon="2.540292690">
        <ele>359.19</ele>
        <time>2014-01-19T10:19:52Z</time>
      </trkpt>
      <trkpt lat="41.644528784" lon="2.540318087">
        <ele>359.67</ele>
        <time>2014-01-19T10:19:54Z</time>
      </trkpt>
      <trkpt lat="41.644493077" lon="2.540361924">
        <ele>360.15</ele>
        <time>2014-01-19T10:19:58Z</time>
      </trkpt>
      <trkpt lat="41.644408671" lon="2.540461669">
        <ele>361.11</ele>
        <time>2014-01-19T10:20:06Z</time>
      </trkpt>
      <trkpt lat="41.644314040" lon="2.540479103">
        <ele>363.04</ele>
        <time>2014-01-19T10:20:14Z</time>
      </trkpt>
      <trkpt lat="41.644294845" lon="2.540461082">
        <ele>363.52</ele>
        <time>2014-01-19T10:20:16Z</time>
      </trkpt>
      <trkpt lat="41.644274896" lon="2.540369216">
        <ele>364.48</ele>
        <time>2014-01-19T10:20:22Z</time>
      </trkpt>
      <trkpt lat="41.644239105" lon="2.540191604">
        <ele>365.92</ele>
        <time>2014-01-19T10:20:32Z</time>
      </trkpt>
      <trkpt lat="41.644155538" lon="2.540040394">
        <ele>367.84</ele>
        <time>2014-01-19T10:20:42Z</time>
      </trkpt>
      <trkpt lat="41.644099463" lon="2.539962610">
        <ele>368.80</ele>
        <time>2014-01-19T10:20:48Z</time>
      </trkpt>
      <trkpt lat="41.644027127" lon="2.539867308">
        <ele>370.24</ele>
        <time>2014-01-19T10:20:55Z</time>
      </trkpt>
      <trkpt lat="41.644006508" lon="2.539847275">
        <ele>371.21</ele>
        <time>2014-01-19T10:20:57Z</time>
      </trkpt>
      <trkpt lat="41.643931909" lon="2.539758511">
        <ele>372.17</ele>
        <time>2014-01-19T10:21:04Z</time>
      </trkpt>
      <trkpt lat="41.643881953" lon="2.539699419">
        <ele>372.65</ele>
        <time>2014-01-19T10:21:08Z</time>
      </trkpt>
      <trkpt lat="41.643729402" lon="2.539605960">
        <ele>374.09</ele>
        <time>2014-01-19T10:21:19Z</time>
      </trkpt>
      <trkpt lat="41.643575510" lon="2.539539240">
        <ele>376.01</ele>
        <time>2014-01-19T10:21:30Z</time>
      </trkpt>
      <trkpt lat="41.643428156" lon="2.539482160">
        <ele>378.42</ele>
        <time>2014-01-19T10:21:40Z</time>
      </trkpt>
      <trkpt lat="41.643387839" lon="2.539440166">
        <ele>378.90</ele>
        <time>2014-01-19T10:21:44Z</time>
      </trkpt>
      <trkpt lat="41.643328998" lon="2.539296249">
        <ele>379.86</ele>
        <time>2014-01-19T10:21:52Z</time>
      </trkpt>
      <trkpt lat="41.643238139" lon="2.539169431">
        <ele>381.78</ele>
        <time>2014-01-19T10:22:02Z</time>
      </trkpt>
      <trkpt lat="41.643134203" lon="2.539079744">
        <ele>383.70</ele>
        <time>2014-01-19T10:22:11Z</time>
      </trkpt>
      <trkpt lat="41.643037643" lon="2.539024256">
        <ele>384.18</ele>
        <time>2014-01-19T10:22:19Z</time>
      </trkpt>
      <trkpt lat="41.642923901" lon="2.538991483">
        <ele>385.63</ele>
        <time>2014-01-19T10:22:27Z</time>
      </trkpt>
      <trkpt lat="41.642801190" lon="2.538897019">
        <ele>386.59</ele>
        <time>2014-01-19T10:22:36Z</time>
      </trkpt>
      <trkpt lat="41.642711420" lon="2.538832814">
        <ele>387.07</ele>
        <time>2014-01-19T10:22:43Z</time>
      </trkpt>
      <trkpt lat="41.642608993" lon="2.538727285">
        <ele>387.07</ele>
        <time>2014-01-19T10:22:52Z</time>
      </trkpt>
      <trkpt lat="41.642525928" lon="2.538639778">
        <ele>387.55</ele>
        <time>2014-01-19T10:23:02Z</time>
      </trkpt>
      <trkpt lat="41.642424004" lon="2.538551182">
        <ele>387.55</ele>
        <time>2014-01-19T10:23:10Z</time>
      </trkpt>
      <trkpt lat="41.642404223" lon="2.538549002">
        <ele>387.55</ele>
        <time>2014-01-19T10:23:11Z</time>
      </trkpt>
      <trkpt lat="41.642223844" lon="2.538561994">
        <ele>386.59</ele>
        <time>2014-01-19T10:23:18Z</time>
      </trkpt>
      <trkpt lat="41.642015303" lon="2.538502818">
        <ele>385.63</ele>
        <time>2014-01-19T10:23:25Z</time>
      </trkpt>
      <trkpt lat="41.641831404" lon="2.538385639">
        <ele>385.63</ele>
        <time>2014-01-19T10:23:32Z</time>
      </trkpt>
      <trkpt lat="41.641708274" lon="2.538209451">
        <ele>385.63</ele>
        <time>2014-01-19T10:23:39Z</time>
      </trkpt>
      <trkpt lat="41.641635686" lon="2.538040472">
        <ele>387.07</ele>
        <time>2014-01-19T10:23:45Z</time>
      </trkpt>
      <trkpt lat="41.641589418" lon="2.537706118">
        <ele>387.07</ele>
        <time>2014-01-19T10:23:53Z</time>
      </trkpt>
      <trkpt lat="41.641573912" lon="2.537537893">
        <ele>385.63</ele>
        <time>2014-01-19T10:23:56Z</time>
      </trkpt>
      <trkpt lat="41.641565865" lon="2.537424067">
        <ele>385.63</ele>
        <time>2014-01-19T10:23:58Z</time>
      </trkpt>
      <trkpt lat="41.641596291" lon="2.537210580">
        <ele>385.15</ele>
        <time>2014-01-19T10:24:02Z</time>
      </trkpt>
      <trkpt lat="41.641614229" lon="2.536994243">
        <ele>385.63</ele>
        <time>2014-01-19T10:24:08Z</time>
      </trkpt>
      <trkpt lat="41.641516915" lon="2.536810093">
        <ele>384.66</ele>
        <time>2014-01-19T10:24:14Z</time>
      </trkpt>
      <trkpt lat="41.641389426" lon="2.536578836">
        <ele>383.22</ele>
        <time>2014-01-19T10:24:20Z</time>
      </trkpt>
      <trkpt lat="41.641318934" lon="2.536260994">
        <ele>381.30</ele>
        <time>2014-01-19T10:24:26Z</time>
      </trkpt>
      <trkpt lat="41.641237965" lon="2.535973914">
        <ele>379.38</ele>
        <time>2014-01-19T10:24:31Z</time>
      </trkpt>
      <trkpt lat="41.641191110" lon="2.535851790">
        <ele>378.90</ele>
        <time>2014-01-19T10:24:33Z</time>
      </trkpt>
      <trkpt lat="41.641070075" lon="2.535560016">
        <ele>377.45</ele>
        <time>2014-01-19T10:24:38Z</time>
      </trkpt>
      <trkpt lat="41.640903359" lon="2.535362454">
        <ele>376.97</ele>
        <time>2014-01-19T10:24:43Z</time>
      </trkpt>
      <trkpt lat="41.640768578" lon="2.535239659">
        <ele>376.97</ele>
        <time>2014-01-19T10:24:49Z</time>
      </trkpt>
      <trkpt lat="41.640517624" lon="2.535233289">
        <ele>375.53</ele>
        <time>2014-01-19T10:24:56Z</time>
      </trkpt>
      <trkpt lat="41.640252086" lon="2.535278216">
        <ele>375.53</ele>
        <time>2014-01-19T10:25:03Z</time>
      </trkpt>
      <trkpt lat="41.640081598" lon="2.535192050">
        <ele>375.05</ele>
        <time>2014-01-19T10:25:09Z</time>
      </trkpt>
      <trkpt lat="41.639837768" lon="2.535068082">
        <ele>372.65</ele>
        <time>2014-01-19T10:25:16Z</time>
      </trkpt>
      <trkpt lat="41.639621096" lon="2.535013348">
        <ele>370.24</ele>
        <time>2014-01-19T10:25:22Z</time>
      </trkpt>
      <trkpt lat="41.639369890" lon="2.534983844">
        <ele>368.32</ele>
        <time>2014-01-19T10:25:29Z</time>
      </trkpt>
      <trkpt lat="41.639173754" lon="2.534965236">
        <ele>366.40</ele>
        <time>2014-01-19T10:25:35Z</time>
      </trkpt>
      <trkpt lat="41.638971498" lon="2.534905641">
        <ele>365.92</ele>
        <time>2014-01-19T10:25:41Z</time>
      </trkpt>
      <trkpt lat="41.638642173" lon="2.534712941">
        <ele>365.92</ele>
        <time>2014-01-19T10:25:51Z</time>
      </trkpt>
      <trkpt lat="41.638388705" lon="2.534610765">
        <ele>365.92</ele>
        <time>2014-01-19T10:26:00Z</time>
      </trkpt>
      <trkpt lat="41.638186114" lon="2.534684023">
        <ele>365.92</ele>
        <time>2014-01-19T10:26:07Z</time>
      </trkpt>
      <trkpt lat="41.637990145" lon="2.534868928">
        <ele>367.36</ele>
        <time>2014-01-19T10:26:16Z</time>
      </trkpt>
      <trkpt lat="41.637969693" lon="2.534887536">
        <ele>367.36</ele>
        <time>2014-01-19T10:26:17Z</time>
      </trkpt>
      <trkpt lat="41.637867266" lon="2.534950568">
        <ele>368.32</ele>
        <time>2014-01-19T10:26:22Z</time>
      </trkpt>
      <trkpt lat="41.637805576" lon="2.534914944">
        <ele>368.80</ele>
        <time>2014-01-19T10:26:26Z</time>
      </trkpt>
      <trkpt lat="41.637625449" lon="2.534671115">
        <ele>370.24</ele>
        <time>2014-01-19T10:26:37Z</time>
      </trkpt>
      <trkpt lat="41.637458900" lon="2.534585033">
        <ele>370.73</ele>
        <time>2014-01-19T10:26:45Z</time>
      </trkpt>
      <trkpt lat="41.637259327" lon="2.534495765">
        <ele>371.69</ele>
        <time>2014-01-19T10:26:54Z</time>
      </trkpt>
      <trkpt lat="41.637103005" lon="2.534381688">
        <ele>372.17</ele>
        <time>2014-01-19T10:27:01Z</time>
      </trkpt>
      <trkpt lat="41.636902593" lon="2.534270041">
        <ele>373.61</ele>
        <time>2014-01-19T10:27:10Z</time>
      </trkpt>
      <trkpt lat="41.636704864" lon="2.534188066">
        <ele>374.57</ele>
        <time>2014-01-19T10:27:19Z</time>
      </trkpt>
      <trkpt lat="41.636596738" lon="2.534115981">
        <ele>375.53</ele>
        <time>2014-01-19T10:27:24Z</time>
      </trkpt>
      <trkpt lat="41.636577124" lon="2.534021936">
        <ele>375.05</ele>
        <time>2014-01-19T10:27:27Z</time>
      </trkpt>
      <trkpt lat="41.636655914" lon="2.533811970">
        <ele>375.05</ele>
        <time>2014-01-19T10:27:35Z</time>
      </trkpt>
      <trkpt lat="41.636709390" lon="2.533588089">
        <ele>375.05</ele>
        <time>2014-01-19T10:27:42Z</time>
      </trkpt>
      <trkpt lat="41.636704780" lon="2.533256250">
        <ele>375.05</ele>
        <time>2014-01-19T10:27:52Z</time>
      </trkpt>
      <trkpt lat="41.636610652" lon="2.533092048">
        <ele>375.05</ele>
        <time>2014-01-19T10:27:58Z</time>
      </trkpt>
      <trkpt lat="41.636498250" lon="2.532976210">
        <ele>375.05</ele>
        <time>2014-01-19T10:28:05Z</time>
      </trkpt>
      <trkpt lat="41.636423651" lon="2.532800526">
        <ele>375.05</ele>
        <time>2014-01-19T10:28:12Z</time>
      </trkpt>
      <trkpt lat="41.636491545" lon="2.532591900">
        <ele>376.01</ele>
        <time>2014-01-19T10:28:19Z</time>
      </trkpt>
      <trkpt lat="41.636542171" lon="2.532306245">
        <ele>376.01</ele>
        <time>2014-01-19T10:28:28Z</time>
      </trkpt>
      <trkpt lat="41.636452234" lon="2.532061242">
        <ele>376.01</ele>
        <time>2014-01-19T10:28:35Z</time>
      </trkpt>
      <trkpt lat="41.636368498" lon="2.531799726">
        <ele>376.01</ele>
        <time>2014-01-19T10:28:43Z</time>
      </trkpt>
      <trkpt lat="41.636328433" lon="2.531546258">
        <ele>376.01</ele>
        <time>2014-01-19T10:28:50Z</time>
      </trkpt>
      <trkpt lat="41.636330696" lon="2.531232858">
        <ele>376.01</ele>
        <time>2014-01-19T10:28:59Z</time>
      </trkpt>
      <trkpt lat="41.636312591" lon="2.531020880">
        <ele>376.01</ele>
        <time>2014-01-19T10:29:06Z</time>
      </trkpt>
      <trkpt lat="41.636198346" lon="2.530881824">
        <ele>376.49</ele>
        <time>2014-01-19T10:29:13Z</time>
      </trkpt>
      <trkpt lat="41.636024505" lon="2.530918956">
        <ele>376.49</ele>
        <time>2014-01-19T10:29:19Z</time>
      </trkpt>
      <trkpt lat="41.635827027" lon="2.530955920">
        <ele>374.09</ele>
        <time>2014-01-19T10:29:24Z</time>
      </trkpt>
      <trkpt lat="41.635710100" lon="2.531125905">
        <ele>373.13</ele>
        <time>2014-01-19T10:29:28Z</time>
      </trkpt>
      <trkpt lat="41.635623515" lon="2.531536870">
        <ele>369.28</ele>
        <time>2014-01-19T10:29:35Z</time>
      </trkpt>
      <trkpt lat="41.635576744" lon="2.531860076">
        <ele>367.84</ele>
        <time>2014-01-19T10:29:39Z</time>
      </trkpt>
      <trkpt lat="41.635503654" lon="2.532155370">
        <ele>367.36</ele>
        <time>2014-01-19T10:29:44Z</time>
      </trkpt>
      <trkpt lat="41.635390917" lon="2.532164758">
        <ele>367.36</ele>
        <time>2014-01-19T10:29:48Z</time>
      </trkpt>
      <trkpt lat="41.635342134" lon="2.532124860">
        <ele>367.36</ele>
        <time>2014-01-19T10:29:50Z</time>
      </trkpt>
      <trkpt lat="41.635137113" lon="2.531894107">
        <ele>366.40</ele>
        <time>2014-01-19T10:29:58Z</time>
      </trkpt>
      <trkpt lat="41.635060251" lon="2.531822190">
        <ele>365.44</ele>
        <time>2014-01-19T10:30:00Z</time>
      </trkpt>
      <trkpt lat="41.634884566" lon="2.531816658">
        <ele>363.04</ele>
        <time>2014-01-19T10:30:04Z</time>
      </trkpt>
      <trkpt lat="41.634850620" lon="2.531859322">
        <ele>362.55</ele>
        <time>2014-01-19T10:30:05Z</time>
      </trkpt>
      <trkpt lat="41.634790857" lon="2.531957641">
        <ele>361.59</ele>
        <time>2014-01-19T10:30:07Z</time>
      </trkpt>
      <trkpt lat="41.634697566" lon="2.532136679">
        <ele>360.15</ele>
        <time>2014-01-19T10:30:10Z</time>
      </trkpt>
      <trkpt lat="41.634669403" lon="2.532203650">
        <ele>360.15</ele>
        <time>2014-01-19T10:30:11Z</time>
      </trkpt>
      <trkpt lat="41.634629002" lon="2.532539010">
        <ele>359.67</ele>
        <time>2014-01-19T10:30:17Z</time>
      </trkpt>
      <trkpt lat="41.634649957" lon="2.532704720">
        <ele>361.11</ele>
        <time>2014-01-19T10:30:22Z</time>
      </trkpt>
      <trkpt lat="41.634658087" lon="2.532918040">
        <ele>362.55</ele>
        <time>2014-01-19T10:30:29Z</time>
      </trkpt>
      <trkpt lat="41.634714581" lon="2.533135299">
        <ele>364.96</ele>
        <time>2014-01-19T10:30:37Z</time>
      </trkpt>
      <trkpt lat="41.634700332" lon="2.533316851">
        <ele>365.92</ele>
        <time>2014-01-19T10:30:43Z</time>
      </trkpt>
      <trkpt lat="41.634654483" lon="2.533429001">
        <ele>366.40</ele>
        <time>2014-01-19T10:30:47Z</time>
      </trkpt>
      <trkpt lat="41.634549039" lon="2.533443669">
        <ele>367.36</ele>
        <time>2014-01-19T10:30:52Z</time>
      </trkpt>
      <trkpt lat="41.634468489" lon="2.533423720">
        <ele>368.32</ele>
        <time>2014-01-19T10:30:56Z</time>
      </trkpt>
      <trkpt lat="41.634318620" lon="2.533495469">
        <ele>370.24</ele>
        <time>2014-01-19T10:31:05Z</time>
      </trkpt>
      <trkpt lat="41.634175792" lon="2.533544084">
        <ele>370.73</ele>
        <time>2014-01-19T10:31:13Z</time>
      </trkpt>
      <trkpt lat="41.634065403" lon="2.533583647">
        <ele>372.17</ele>
        <time>2014-01-19T10:31:18Z</time>
      </trkpt>
      <trkpt lat="41.634013770" lon="2.533611056">
        <ele>372.17</ele>
        <time>2014-01-19T10:31:22Z</time>
      </trkpt>
      <trkpt lat="41.633915031" lon="2.533572750">
        <ele>370.73</ele>
        <time>2014-01-19T10:31:26Z</time>
      </trkpt>
      <trkpt lat="41.633873876" lon="2.533547437">
        <ele>370.24</ele>
        <time>2014-01-19T10:31:27Z</time>
      </trkpt>
      <trkpt lat="41.633715877" lon="2.533372590">
        <ele>369.76</ele>
        <time>2014-01-19T10:31:32Z</time>
      </trkpt>
      <trkpt lat="41.633616720" lon="2.533218363">
        <ele>372.17</ele>
        <time>2014-01-19T10:31:40Z</time>
      </trkpt>
      <trkpt lat="41.633590903" lon="2.533130437">
        <ele>373.61</ele>
        <time>2014-01-19T10:31:47Z</time>
      </trkpt>
      <trkpt lat="41.633609679" lon="2.533008229">
        <ele>373.61</ele>
        <time>2014-01-19T10:31:54Z</time>
      </trkpt>
      <trkpt lat="41.633636752" lon="2.532968331">
        <ele>372.17</ele>
        <time>2014-01-19T10:31:58Z</time>
      </trkpt>
      <trkpt lat="41.633639686" lon="2.532881076">
        <ele>371.69</ele>
        <time>2014-01-19T10:32:02Z</time>
      </trkpt>
      <trkpt lat="41.633671202" lon="2.532815697">
        <ele>370.73</ele>
        <time>2014-01-19T10:32:06Z</time>
      </trkpt>
      <trkpt lat="41.633619066" lon="2.532568598">
        <ele>367.36</ele>
        <time>2014-01-19T10:32:13Z</time>
      </trkpt>
      <trkpt lat="41.633599956" lon="2.532507410">
        <ele>366.88</ele>
        <time>2014-01-19T10:32:14Z</time>
      </trkpt>
      <trkpt lat="41.633505659" lon="2.532255283">
        <ele>365.92</ele>
        <time>2014-01-19T10:32:18Z</time>
      </trkpt>
      <trkpt lat="41.633418236" lon="2.532055626">
        <ele>365.44</ele>
        <time>2014-01-19T10:32:23Z</time>
      </trkpt>
      <trkpt lat="41.633381859" lon="2.531982536">
        <ele>366.88</ele>
        <time>2014-01-19T10:32:26Z</time>
      </trkpt>
      <trkpt lat="41.633294519" lon="2.531850437">
        <ele>368.80</ele>
        <time>2014-01-19T10:32:33Z</time>
      </trkpt>
      <trkpt lat="41.633210113" lon="2.531783885">
        <ele>370.24</ele>
        <time>2014-01-19T10:32:40Z</time>
      </trkpt>
      <trkpt lat="41.633114895" lon="2.531729570">
        <ele>370.24</ele>
        <time>2014-01-19T10:32:46Z</time>
      </trkpt>
      <trkpt lat="41.633087821" lon="2.531755386">
        <ele>369.76</ele>
        <time>2014-01-19T10:32:53Z</time>
      </trkpt>
      <trkpt lat="41.633082457" lon="2.531751698">
        <ele>369.76</ele>
        <time>2014-01-19T10:33:03Z</time>
      </trkpt>
      <trkpt lat="41.633059910" lon="2.531726217">
        <ele>370.24</ele>
        <time>2014-01-19T10:33:19Z</time>
      </trkpt>
      <trkpt lat="41.633056306" lon="2.531745076">
        <ele>370.24</ele>
        <time>2014-01-19T10:33:32Z</time>
      </trkpt>
      <trkpt lat="41.633051779" lon="2.531746250">
        <ele>370.24</ele>
        <time>2014-01-19T10:33:36Z</time>
      </trkpt>
      <trkpt lat="41.632975923" lon="2.531585317">
        <ele>370.24</ele>
        <time>2014-01-19T10:33:42Z</time>
      </trkpt>
      <trkpt lat="41.632777691" lon="2.531288598">
        <ele>368.80</ele>
        <time>2014-01-19T10:33:50Z</time>
      </trkpt>
      <trkpt lat="41.632625643" lon="2.531109896">
        <ele>370.24</ele>
        <time>2014-01-19T10:33:57Z</time>
      </trkpt>
      <trkpt lat="41.632604521" lon="2.531084079">
        <ele>370.24</ele>
        <time>2014-01-19T10:33:58Z</time>
      </trkpt>
      <trkpt lat="41.632466974" lon="2.530911077">
        <ele>370.73</ele>
        <time>2014-01-19T10:34:04Z</time>
      </trkpt>
      <trkpt lat="41.632259438" lon="2.530713767">
        <ele>371.21</ele>
        <time>2014-01-19T10:34:12Z</time>
      </trkpt>
      <trkpt lat="41.632132536" lon="2.530628942">
        <ele>372.17</ele>
        <time>2014-01-19T10:34:18Z</time>
      </trkpt>
      <trkpt lat="41.632102193" lon="2.530607652">
        <ele>372.65</ele>
        <time>2014-01-19T10:34:21Z</time>
      </trkpt>
      <trkpt lat="41.632085094" lon="2.530582423">
        <ele>373.13</ele>
        <time>2014-01-19T10:34:23Z</time>
      </trkpt>
      <trkpt lat="41.631987697" lon="2.530539423">
        <ele>373.61</ele>
        <time>2014-01-19T10:34:31Z</time>
      </trkpt>
      <trkpt lat="41.631925168" lon="2.530623159">
        <ele>374.09</ele>
        <time>2014-01-19T10:34:38Z</time>
      </trkpt>
      <trkpt lat="41.631839002" lon="2.530761963">
        <ele>374.57</ele>
        <time>2014-01-19T10:34:46Z</time>
      </trkpt>
      <trkpt lat="41.631733809" lon="2.530934379">
        <ele>375.53</ele>
        <time>2014-01-19T10:34:54Z</time>
      </trkpt>
      <trkpt lat="41.631621743" lon="2.531113081">
        <ele>376.01</ele>
        <time>2014-01-19T10:35:02Z</time>
      </trkpt>
      <trkpt lat="41.631519819" lon="2.531269906">
        <ele>376.49</ele>
        <time>2014-01-19T10:35:09Z</time>
      </trkpt>
      <trkpt lat="41.631387049" lon="2.531432515">
        <ele>377.45</ele>
        <time>2014-01-19T10:35:17Z</time>
      </trkpt>
      <trkpt lat="41.631216142" lon="2.531484399">
        <ele>378.42</ele>
        <time>2014-01-19T10:35:25Z</time>
      </trkpt>
      <trkpt lat="41.631039368" lon="2.531420194">
        <ele>378.42</ele>
        <time>2014-01-19T10:35:32Z</time>
      </trkpt>
      <trkpt lat="41.630867371" lon="2.531449195">
        <ele>378.42</ele>
        <time>2014-01-19T10:35:39Z</time>
      </trkpt>
      <trkpt lat="41.630750360" lon="2.531494876">
        <ele>378.42</ele>
        <time>2014-01-19T10:35:44Z</time>
      </trkpt>
      <trkpt lat="41.630510722" lon="2.531604763">
        <ele>378.42</ele>
        <time>2014-01-19T10:35:54Z</time>
      </trkpt>
      <trkpt lat="41.630319949" lon="2.531645164">
        <ele>379.38</ele>
        <time>2014-01-19T10:36:02Z</time>
      </trkpt>
      <trkpt lat="41.630141499" lon="2.531587832">
        <ele>379.86</ele>
        <time>2014-01-19T10:36:10Z</time>
      </trkpt>
      <trkpt lat="41.629975453" lon="2.531516167">
        <ele>380.82</ele>
        <time>2014-01-19T10:36:17Z</time>
      </trkpt>
      <trkpt lat="41.629793231" lon="2.531444334">
        <ele>382.26</ele>
        <time>2014-01-19T10:36:25Z</time>
      </trkpt>
      <trkpt lat="41.629654175" lon="2.531331178">
        <ele>383.70</ele>
        <time>2014-01-19T10:36:32Z</time>
      </trkpt>
      <trkpt lat="41.629509755" lon="2.531230595">
        <ele>384.66</ele>
        <time>2014-01-19T10:36:39Z</time>
      </trkpt>
      <trkpt lat="41.629418308" lon="2.531011827">
        <ele>385.15</ele>
        <time>2014-01-19T10:36:46Z</time>
      </trkpt>
      <trkpt lat="41.629401377" lon="2.530654255">
        <ele>383.70</ele>
        <time>2014-01-19T10:36:54Z</time>
      </trkpt>
      <trkpt lat="41.629371369" lon="2.530296600">
        <ele>381.30</ele>
        <time>2014-01-19T10:37:01Z</time>
      </trkpt>
      <trkpt lat="41.629268188" lon="2.529872391">
        <ele>378.90</ele>
        <time>2014-01-19T10:37:08Z</time>
      </trkpt>
      <trkpt lat="41.629037770" lon="2.529402502">
        <ele>376.97</ele>
        <time>2014-01-19T10:37:15Z</time>
      </trkpt>
      <trkpt lat="41.628921429" lon="2.529192787">
        <ele>376.97</ele>
        <time>2014-01-19T10:37:19Z</time>
      </trkpt>
      <trkpt lat="41.628746331" lon="2.528847285">
        <ele>376.97</ele>
        <time>2014-01-19T10:37:27Z</time>
      </trkpt>
      <trkpt lat="41.628555894" lon="2.528461633">
        <ele>376.97</ele>
        <time>2014-01-19T10:37:37Z</time>
      </trkpt>
      <trkpt lat="41.628403008" lon="2.528280249">
        <ele>376.49</ele>
        <time>2014-01-19T10:37:43Z</time>
      </trkpt>
      <trkpt lat="41.628268730" lon="2.528123172">
        <ele>375.53</ele>
        <time>2014-01-19T10:37:47Z</time>
      </trkpt>
      <trkpt lat="41.628101092" lon="2.527977662">
        <ele>373.13</ele>
        <time>2014-01-19T10:37:51Z</time>
      </trkpt>
      <trkpt lat="41.627860280" lon="2.527808180">
        <ele>371.21</ele>
        <time>2014-01-19T10:37:56Z</time>
      </trkpt>
      <trkpt lat="41.627541097" lon="2.527621767">
        <ele>368.32</ele>
        <time>2014-01-19T10:38:02Z</time>
      </trkpt>
      <trkpt lat="41.627188051" lon="2.527422194">
        <ele>364.96</ele>
        <time>2014-01-19T10:38:08Z</time>
      </trkpt>
      <trkpt lat="41.626929218" lon="2.527346505">
        <ele>361.59</ele>
        <time>2014-01-19T10:38:12Z</time>
      </trkpt>
      <trkpt lat="41.626747163" lon="2.527313145">
        <ele>358.71</ele>
        <time>2014-01-19T10:38:15Z</time>
      </trkpt>
      <trkpt lat="41.626615567" lon="2.527296214">
        <ele>355.34</ele>
        <time>2014-01-19T10:38:18Z</time>
      </trkpt>
      <trkpt lat="41.626531162" lon="2.527275594">
        <ele>354.38</ele>
        <time>2014-01-19T10:38:23Z</time>
      </trkpt>
      <trkpt lat="41.626492940" lon="2.527280456">
        <ele>353.90</ele>
        <time>2014-01-19T10:38:31Z</time>
      </trkpt>
      <trkpt lat="41.626454802" lon="2.527272828">
        <ele>353.90</ele>
        <time>2014-01-19T10:38:33Z</time>
      </trkpt>
      <trkpt lat="41.626431082" lon="2.527128324">
        <ele>353.42</ele>
        <time>2014-01-19T10:38:39Z</time>
      </trkpt>
      <trkpt lat="41.626433261" lon="2.527092198">
        <ele>353.42</ele>
        <time>2014-01-19T10:38:41Z</time>
      </trkpt>
      <trkpt lat="41.626379198" lon="2.527006619">
        <ele>352.46</ele>
        <time>2014-01-19T10:38:47Z</time>
      </trkpt>
      <trkpt lat="41.626338629" lon="2.526873011">
        <ele>351.98</ele>
        <time>2014-01-19T10:38:52Z</time>
      </trkpt>
      <trkpt lat="41.626256570" lon="2.526698584">
        <ele>351.98</ele>
        <time>2014-01-19T10:38:56Z</time>
      </trkpt>
      <trkpt lat="41.626071079" lon="2.526432794">
        <ele>351.02</ele>
        <time>2014-01-19T10:39:03Z</time>
      </trkpt>
      <trkpt lat="41.625841163" lon="2.526256355">
        <ele>350.54</ele>
        <time>2014-01-19T10:39:12Z</time>
      </trkpt>
      <trkpt lat="41.625608146" lon="2.526061643">
        <ele>350.54</ele>
        <time>2014-01-19T10:39:21Z</time>
      </trkpt>
      <trkpt lat="41.625456266" lon="2.525818652">
        <ele>351.02</ele>
        <time>2014-01-19T10:39:29Z</time>
      </trkpt>
      <trkpt lat="41.625272870" lon="2.525528554">
        <ele>351.02</ele>
        <time>2014-01-19T10:39:37Z</time>
      </trkpt>
      <trkpt lat="41.625246467" lon="2.525489327">
        <ele>351.02</ele>
        <time>2014-01-19T10:39:38Z</time>
      </trkpt>
      <trkpt lat="41.625019485" lon="2.525249018">
        <ele>350.06</ele>
        <time>2014-01-19T10:39:46Z</time>
      </trkpt>
      <trkpt lat="41.624861906" lon="2.524982808">
        <ele>350.06</ele>
        <time>2014-01-19T10:39:53Z</time>
      </trkpt>
      <trkpt lat="41.624728214" lon="2.524585422">
        <ele>348.13</ele>
        <time>2014-01-19T10:40:01Z</time>
      </trkpt>
      <trkpt lat="41.624588404" lon="2.524206393">
        <ele>346.21</ele>
        <time>2014-01-19T10:40:08Z</time>
      </trkpt>
      <trkpt lat="41.624565941" lon="2.524144702">
        <ele>346.21</ele>
        <time>2014-01-19T10:40:09Z</time>
      </trkpt>
      <trkpt lat="41.624483546" lon="2.523962731">
        <ele>344.77</ele>
        <time>2014-01-19T10:40:12Z</time>
      </trkpt>
      <trkpt lat="41.624293864" lon="2.523554197">
        <ele>341.89</ele>
        <time>2014-01-19T10:40:18Z</time>
      </trkpt>
      <trkpt lat="41.624231419" lon="2.523338279">
        <ele>340.92</ele>
        <time>2014-01-19T10:40:21Z</time>
      </trkpt>
      <trkpt lat="41.624169979" lon="2.523084559">
        <ele>340.44</ele>
        <time>2014-01-19T10:40:25Z</time>
      </trkpt>
      <trkpt lat="41.624033438" lon="2.522741739">
        <ele>339.96</ele>
        <time>2014-01-19T10:40:31Z</time>
      </trkpt>
      <trkpt lat="41.623835625" lon="2.522489695">
        <ele>339.00</ele>
        <time>2014-01-19T10:40:37Z</time>
      </trkpt>
      <trkpt lat="41.623583833" lon="2.522283165">
        <ele>337.56</ele>
        <time>2014-01-19T10:40:44Z</time>
      </trkpt>
      <trkpt lat="41.623440502" lon="2.522130866">
        <ele>336.60</ele>
        <time>2014-01-19T10:40:48Z</time>
      </trkpt>
      <trkpt lat="41.623307146" lon="2.521953086">
        <ele>335.16</ele>
        <time>2014-01-19T10:40:52Z</time>
      </trkpt>
      <trkpt lat="41.623239421" lon="2.521870021">
        <ele>334.68</ele>
        <time>2014-01-19T10:40:54Z</time>
      </trkpt>
      <trkpt lat="41.623069436" lon="2.521829704">
        <ele>333.23</ele>
        <time>2014-01-19T10:40:58Z</time>
      </trkpt>
      <trkpt lat="41.622693423" lon="2.521869937">
        <ele>330.35</ele>
        <time>2014-01-19T10:41:04Z</time>
      </trkpt>
      <trkpt lat="41.622431657" lon="2.521721494">
        <ele>327.47</ele>
        <time>2014-01-19T10:41:08Z</time>
      </trkpt>
      <trkpt lat="41.622240801" lon="2.521559723">
        <ele>325.06</ele>
        <time>2014-01-19T10:41:11Z</time>
      </trkpt>
      <trkpt lat="41.622011136" lon="2.521610936">
        <ele>322.18</ele>
        <time>2014-01-19T10:41:15Z</time>
      </trkpt>
      <trkpt lat="41.621949529" lon="2.521891562">
        <ele>321.22</ele>
        <time>2014-01-19T10:41:18Z</time>
      </trkpt>
      <trkpt lat="41.621951960" lon="2.522159029">
        <ele>317.85</ele>
        <time>2014-01-19T10:41:21Z</time>
      </trkpt>
      <trkpt lat="41.621935783" lon="2.522262965">
        <ele>316.41</ele>
        <time>2014-01-19T10:41:23Z</time>
      </trkpt>
      <trkpt lat="41.621849952" lon="2.522208650">
        <ele>314.49</ele>
        <time>2014-01-19T10:41:26Z</time>
      </trkpt>
      <trkpt lat="41.621804690" lon="2.522082502">
        <ele>314.01</ele>
        <time>2014-01-19T10:41:28Z</time>
      </trkpt>
      <trkpt lat="41.621742413" lon="2.521924000">
        <ele>312.57</ele>
        <time>2014-01-19T10:41:30Z</time>
      </trkpt>
      <trkpt lat="41.621528590" lon="2.521496775">
        <ele>307.76</ele>
        <time>2014-01-19T10:41:35Z</time>
      </trkpt>
      <trkpt lat="41.621388529" lon="2.521279851">
        <ele>304.39</ele>
        <time>2014-01-19T10:41:38Z</time>
      </trkpt>
      <trkpt lat="41.621342177" lon="2.521215562">
        <ele>302.95</ele>
        <time>2014-01-19T10:41:39Z</time>
      </trkpt>
      <trkpt lat="41.621141346" lon="2.521142807">
        <ele>298.63</ele>
        <time>2014-01-19T10:41:43Z</time>
      </trkpt>
      <trkpt lat="41.621087451" lon="2.521139119">
        <ele>298.15</ele>
        <time>2014-01-19T10:41:45Z</time>
      </trkpt>
      <trkpt lat="41.621076135" lon="2.521065442">
        <ele>297.67</ele>
        <time>2014-01-19T10:41:50Z</time>
      </trkpt>
      <trkpt lat="41.621204462" lon="2.521018922">
        <ele>296.70</ele>
        <time>2014-01-19T10:41:58Z</time>
      </trkpt>
      <trkpt lat="41.621326000" lon="2.520982377">
        <ele>296.70</ele>
        <time>2014-01-19T10:42:01Z</time>
      </trkpt>
      <trkpt lat="41.621544348" lon="2.521030489">
        <ele>293.82</ele>
        <time>2014-01-19T10:42:06Z</time>
      </trkpt>
      <trkpt lat="41.621784406" lon="2.520974582">
        <ele>293.34</ele>
        <time>2014-01-19T10:42:11Z</time>
      </trkpt>
      <trkpt lat="41.621888509" lon="2.520885734">
        <ele>292.86</ele>
        <time>2014-01-19T10:42:13Z</time>
      </trkpt>
      <trkpt lat="41.622189839" lon="2.520653974">
        <ele>289.01</ele>
        <time>2014-01-19T10:42:18Z</time>
      </trkpt>
      <trkpt lat="41.622300480" lon="2.520564372">
        <ele>286.61</ele>
        <time>2014-01-19T10:42:20Z</time>
      </trkpt>
      <trkpt lat="41.622458898" lon="2.520388520">
        <ele>281.80</ele>
        <time>2014-01-19T10:42:25Z</time>
      </trkpt>
      <trkpt lat="41.622354627" lon="2.520361278">
        <ele>280.36</ele>
        <time>2014-01-19T10:42:28Z</time>
      </trkpt>
      <trkpt lat="41.622303330" lon="2.520379132">
        <ele>279.88</ele>
        <time>2014-01-19T10:42:29Z</time>
      </trkpt>
      <trkpt lat="41.622064026" lon="2.520473261">
        <ele>277.00</ele>
        <time>2014-01-19T10:42:33Z</time>
      </trkpt>
      <trkpt lat="41.621803014" lon="2.520443672">
        <ele>272.19</ele>
        <time>2014-01-19T10:42:37Z</time>
      </trkpt>
      <trkpt lat="41.621652978" lon="2.520410396">
        <ele>269.79</ele>
        <time>2014-01-19T10:42:39Z</time>
      </trkpt>
      <trkpt lat="41.621491961" lon="2.520357004">
        <ele>267.38</ele>
        <time>2014-01-19T10:42:41Z</time>
      </trkpt>
      <trkpt lat="41.621132629" lon="2.520299755">
        <ele>262.58</ele>
        <time>2014-01-19T10:42:45Z</time>
      </trkpt>
      <trkpt lat="41.620927021" lon="2.520252984">
        <ele>258.73</ele>
        <time>2014-01-19T10:42:49Z</time>
      </trkpt>
      <trkpt lat="41.620876227" lon="2.520243429">
        <ele>257.29</ele>
        <time>2014-01-19T10:42:52Z</time>
      </trkpt>
      <trkpt lat="41.620887794" lon="2.520195736">
        <ele>257.29</ele>
        <time>2014-01-19T10:42:56Z</time>
      </trkpt>
      <trkpt lat="41.621057192" lon="2.520140080">
        <ele>253.93</ele>
        <time>2014-01-19T10:43:02Z</time>
      </trkpt>
      <trkpt lat="41.621292137" lon="2.520032875">
        <ele>248.64</ele>
        <time>2014-01-19T10:43:07Z</time>
      </trkpt>
      <trkpt lat="41.621341590" lon="2.520003790">
        <ele>248.64</ele>
        <time>2014-01-19T10:43:08Z</time>
      </trkpt>
      <trkpt lat="41.621503864" lon="2.519920893">
        <ele>243.83</ele>
        <time>2014-01-19T10:43:12Z</time>
      </trkpt>
      <trkpt lat="41.621585587" lon="2.519905135">
        <ele>242.39</ele>
        <time>2014-01-19T10:43:18Z</time>
      </trkpt>
      <trkpt lat="41.621604949" lon="2.519883594">
        <ele>242.39</ele>
        <time>2014-01-19T10:43:25Z</time>
      </trkpt>
      <trkpt lat="41.621603524" lon="2.519852581">
        <ele>241.91</ele>
        <time>2014-01-19T10:43:36Z</time>
      </trkpt>
      <trkpt lat="41.621591622" lon="2.519830788">
        <ele>241.43</ele>
        <time>2014-01-19T10:43:43Z</time>
      </trkpt>
      <trkpt lat="41.621586677" lon="2.519809162">
        <ele>239.99</ele>
        <time>2014-01-19T10:43:51Z</time>
      </trkpt>
      <trkpt lat="41.621577121" lon="2.519796422">
        <ele>239.51</ele>
        <time>2014-01-19T10:43:54Z</time>
      </trkpt>
      <trkpt lat="41.621532949" lon="2.519729115">
        <ele>236.62</ele>
        <time>2014-01-19T10:44:03Z</time>
      </trkpt>
      <trkpt lat="41.621521633" lon="2.519718889">
        <ele>236.62</ele>
        <time>2014-01-19T10:44:10Z</time>
      </trkpt>
      <trkpt lat="41.621523645" lon="2.519718889">
        <ele>236.14</ele>
        <time>2014-01-19T10:44:14Z</time>
      </trkpt>
      <trkpt lat="41.621436976" lon="2.519731127">
        <ele>234.22</ele>
        <time>2014-01-19T10:44:19Z</time>
      </trkpt>
      <trkpt lat="41.621241426" lon="2.519677064">
        <ele>230.85</ele>
        <time>2014-01-19T10:44:28Z</time>
      </trkpt>
      <trkpt lat="41.621118296" lon="2.519591736">
        <ele>227.97</ele>
        <time>2014-01-19T10:44:33Z</time>
      </trkpt>
      <trkpt lat="41.620991897" lon="2.519528872">
        <ele>226.05</ele>
        <time>2014-01-19T10:44:37Z</time>
      </trkpt>
      <trkpt lat="41.620835575" lon="2.519526608">
        <ele>223.64</ele>
        <time>2014-01-19T10:44:42Z</time>
      </trkpt>
      <trkpt lat="41.620637175" lon="2.519564830">
        <ele>220.76</ele>
        <time>2014-01-19T10:44:48Z</time>
      </trkpt>
      <trkpt lat="41.620465430" lon="2.519514036">
        <ele>217.40</ele>
        <time>2014-01-19T10:44:53Z</time>
      </trkpt>
      <trkpt lat="41.620423185" lon="2.519507330">
        <ele>216.91</ele>
        <time>2014-01-19T10:44:55Z</time>
      </trkpt>
      <trkpt lat="41.620338192" lon="2.519485453">
        <ele>215.95</ele>
        <time>2014-01-19T10:45:01Z</time>
      </trkpt>
      <trkpt lat="41.620190755" lon="2.519363832">
        <ele>214.03</ele>
        <time>2014-01-19T10:45:09Z</time>
      </trkpt>
      <trkpt lat="41.620161669" lon="2.519358719">
        <ele>213.55</ele>
        <time>2014-01-19T10:45:10Z</time>
      </trkpt>
      <trkpt lat="41.620025212" lon="2.519395935">
        <ele>212.11</ele>
        <time>2014-01-19T10:45:14Z</time>
      </trkpt>
      <trkpt lat="41.619868722" lon="2.519424014">
        <ele>210.67</ele>
        <time>2014-01-19T10:45:18Z</time>
      </trkpt>
      <trkpt lat="41.619618522" lon="2.519392246">
        <ele>209.70</ele>
        <time>2014-01-19T10:45:26Z</time>
      </trkpt>
      <trkpt lat="41.619532189" lon="2.519423762">
        <ele>209.70</ele>
        <time>2014-01-19T10:45:28Z</time>
      </trkpt>
      <trkpt lat="41.619094318" lon="2.519486711">
        <ele>206.82</ele>
        <time>2014-01-19T10:45:37Z</time>
      </trkpt>
      <trkpt lat="41.618867504" lon="2.519532057">
        <ele>205.86</ele>
        <time>2014-01-19T10:45:42Z</time>
      </trkpt>
      <trkpt lat="41.618689472" lon="2.519631298">
        <ele>203.46</ele>
        <time>2014-01-19T10:45:47Z</time>
      </trkpt>
      <trkpt lat="41.618477745" lon="2.519721236">
        <ele>201.05</ele>
        <time>2014-01-19T10:45:54Z</time>
      </trkpt>
      <trkpt lat="41.618416390" lon="2.519729618">
        <ele>200.57</ele>
        <time>2014-01-19T10:46:00Z</time>
      </trkpt>
      <trkpt lat="41.618368110" lon="2.519771109">
        <ele>200.09</ele>
        <time>2014-01-19T10:46:10Z</time>
      </trkpt>
      <trkpt lat="41.618356962" lon="2.519778149">
        <ele>200.09</ele>
        <time>2014-01-19T10:46:18Z</time>
      </trkpt>
      <trkpt lat="41.618317483" lon="2.519778233">
        <ele>200.09</ele>
        <time>2014-01-19T10:46:25Z</time>
      </trkpt>
      <trkpt lat="41.618160993" lon="2.519841014">
        <ele>199.61</ele>
        <time>2014-01-19T10:46:31Z</time>
      </trkpt>
      <trkpt lat="41.618006598" lon="2.519886527">
        <ele>199.13</ele>
        <time>2014-01-19T10:46:37Z</time>
      </trkpt>
      <trkpt lat="41.617876679" lon="2.519790052">
        <ele>198.65</ele>
        <time>2014-01-19T10:46:44Z</time>
      </trkpt>
      <trkpt lat="41.617836865" lon="2.519728361">
        <ele>197.69</ele>
        <time>2014-01-19T10:46:46Z</time>
      </trkpt>
      <trkpt lat="41.617831920" lon="2.519662731">
        <ele>197.21</ele>
        <time>2014-01-19T10:46:49Z</time>
      </trkpt>
      <trkpt lat="41.617743323" lon="2.519625096">
        <ele>196.25</ele>
        <time>2014-01-19T10:46:55Z</time>
      </trkpt>
      <trkpt lat="41.617512988" lon="2.519651163">
        <ele>195.28</ele>
        <time>2014-01-19T10:47:03Z</time>
      </trkpt>
      <trkpt lat="41.617220376" lon="2.519687709">
        <ele>194.80</ele>
        <time>2014-01-19T10:47:10Z</time>
      </trkpt>
      <trkpt lat="41.616939498" lon="2.519722661">
        <ele>193.36</ele>
        <time>2014-01-19T10:47:16Z</time>
      </trkpt>
      <trkpt lat="41.616840257" lon="2.519741688">
        <ele>192.40</ele>
        <time>2014-01-19T10:47:18Z</time>
      </trkpt>
      <trkpt lat="41.616581842" lon="2.519844115">
        <ele>190.48</ele>
        <time>2014-01-19T10:47:23Z</time>
      </trkpt>
      <trkpt lat="41.616383946" lon="2.520010412">
        <ele>189.52</ele>
        <time>2014-01-19T10:47:29Z</time>
      </trkpt>
      <trkpt lat="41.616290152" lon="2.520131279">
        <ele>190.96</ele>
        <time>2014-01-19T10:47:36Z</time>
      </trkpt>
      <trkpt lat="41.616192671" lon="2.520378461">
        <ele>190.96</ele>
        <time>2014-01-19T10:47:42Z</time>
      </trkpt>
      <trkpt lat="41.616110863" lon="2.520577783">
        <ele>189.52</ele>
        <time>2014-01-19T10:47:46Z</time>
      </trkpt>
      <trkpt lat="41.616028804" lon="2.520844998">
        <ele>189.52</ele>
        <time>2014-01-19T10:47:51Z</time>
      </trkpt>
      <trkpt lat="41.615950769" lon="2.521340452">
        <ele>189.04</ele>
        <time>2014-01-19T10:47:59Z</time>
      </trkpt>
      <trkpt lat="41.615884217" lon="2.521850743">
        <ele>187.59</ele>
        <time>2014-01-19T10:48:07Z</time>
      </trkpt>
      <trkpt lat="41.615843397" lon="2.522173865">
        <ele>186.63</ele>
        <time>2014-01-19T10:48:12Z</time>
      </trkpt>
      <trkpt lat="41.615809282" lon="2.522396237">
        <ele>186.15</ele>
        <time>2014-01-19T10:48:15Z</time>
      </trkpt>
      <trkpt lat="41.615714567" lon="2.523068046">
        <ele>183.75</ele>
        <time>2014-01-19T10:48:23Z</time>
      </trkpt>
      <trkpt lat="41.615654050" lon="2.523705239">
        <ele>181.83</ele>
        <time>2014-01-19T10:48:30Z</time>
      </trkpt>
      <trkpt lat="41.615613481" lon="2.524184097">
        <ele>178.94</ele>
        <time>2014-01-19T10:48:35Z</time>
      </trkpt>
      <trkpt lat="41.615530836" lon="2.525072076">
        <ele>176.06</ele>
        <time>2014-01-19T10:48:43Z</time>
      </trkpt>
      <trkpt lat="41.615524884" lon="2.525965167">
        <ele>173.66</ele>
        <time>2014-01-19T10:48:51Z</time>
      </trkpt>
      <trkpt lat="41.615582720" lon="2.526815595">
        <ele>170.29</ele>
        <time>2014-01-19T10:48:59Z</time>
      </trkpt>
      <trkpt lat="41.615564950" lon="2.527138801">
        <ele>169.33</ele>
        <time>2014-01-19T10:49:02Z</time>
      </trkpt>
      <trkpt lat="41.615439221" lon="2.527870709">
        <ele>166.45</ele>
        <time>2014-01-19T10:49:09Z</time>
      </trkpt>
      <trkpt lat="41.615293628" lon="2.528465992">
        <ele>164.52</ele>
        <time>2014-01-19T10:49:15Z</time>
      </trkpt>
      <trkpt lat="41.615190866" lon="2.529122882">
        <ele>163.08</ele>
        <time>2014-01-19T10:49:22Z</time>
      </trkpt>
      <trkpt lat="41.615164295" lon="2.529818663">
        <ele>160.68</ele>
        <time>2014-01-19T10:49:29Z</time>
      </trkpt>
      <trkpt lat="41.615162367" lon="2.530030223">
        <ele>160.68</ele>
        <time>2014-01-19T10:49:31Z</time>
      </trkpt>
      <trkpt lat="41.615115931" lon="2.530977965">
        <ele>157.31</ele>
        <time>2014-01-19T10:49:40Z</time>
      </trkpt>
      <trkpt lat="41.615107885" lon="2.531183154">
        <ele>156.83</ele>
        <time>2014-01-19T10:49:42Z</time>
      </trkpt>
      <trkpt lat="41.615195476" lon="2.531602584">
        <ele>154.91</ele>
        <time>2014-01-19T10:49:47Z</time>
      </trkpt>
      <trkpt lat="41.615212072" lon="2.531698724">
        <ele>154.43</ele>
        <time>2014-01-19T10:49:48Z</time>
      </trkpt>
      <trkpt lat="41.615172677" lon="2.532290738">
        <ele>152.51</ele>
        <time>2014-01-19T10:49:54Z</time>
      </trkpt>
      <trkpt lat="41.614977714" lon="2.532948047">
        <ele>151.06</ele>
        <time>2014-01-19T10:50:02Z</time>
      </trkpt>
      <trkpt lat="41.614705889" lon="2.533808282">
        <ele>147.70</ele>
        <time>2014-01-19T10:50:12Z</time>
      </trkpt>
      <trkpt lat="41.614475135" lon="2.534530383">
        <ele>145.78</ele>
        <time>2014-01-19T10:50:20Z</time>
      </trkpt>
      <trkpt lat="41.614211608" lon="2.535289448">
        <ele>142.89</ele>
        <time>2014-01-19T10:50:29Z</time>
      </trkpt>
      <trkpt lat="41.614181265" lon="2.535399921">
        <ele>141.93</ele>
        <time>2014-01-19T10:50:31Z</time>
      </trkpt>
      <trkpt lat="41.614178667" lon="2.535469240">
        <ele>141.45</ele>
        <time>2014-01-19T10:50:35Z</time>
      </trkpt>
      <trkpt lat="41.614197359" lon="2.535499163">
        <ele>140.97</ele>
        <time>2014-01-19T10:50:51Z</time>
      </trkpt>
      <trkpt lat="41.614186127" lon="2.535497906">
        <ele>140.97</ele>
        <time>2014-01-19T10:51:09Z</time>
      </trkpt>
      <trkpt lat="41.614176152" lon="2.535501678">
        <ele>140.97</ele>
        <time>2014-01-19T10:51:29Z</time>
      </trkpt>
      <trkpt lat="41.614177913" lon="2.535505114">
        <ele>140.97</ele>
        <time>2014-01-19T10:51:48Z</time>
      </trkpt>
      <trkpt lat="41.614164669" lon="2.535531685">
        <ele>140.97</ele>
        <time>2014-01-19T10:52:09Z</time>
      </trkpt>
      <trkpt lat="41.614160227" lon="2.535533277">
        <ele>141.45</ele>
        <time>2014-01-19T10:52:25Z</time>
      </trkpt>
      <trkpt lat="41.614156706" lon="2.535505198">
        <ele>141.45</ele>
        <time>2014-01-19T10:52:39Z</time>
      </trkpt>
      <trkpt lat="41.614159724" lon="2.535488853">
        <ele>141.45</ele>
        <time>2014-01-19T10:52:53Z</time>
      </trkpt>
      <trkpt lat="41.614163244" lon="2.535471419">
        <ele>141.45</ele>
        <time>2014-01-19T10:53:08Z</time>
      </trkpt>
      <trkpt lat="41.614170788" lon="2.535491871">
        <ele>141.45</ele>
        <time>2014-01-19T10:53:23Z</time>
      </trkpt>
      <trkpt lat="41.614175063" lon="2.535501510">
        <ele>141.45</ele>
        <time>2014-01-19T10:53:36Z</time>
      </trkpt>
      <trkpt lat="41.614185792" lon="2.535509892">
        <ele>141.45</ele>
        <time>2014-01-19T10:53:52Z</time>
      </trkpt>
      <trkpt lat="41.614184283" lon="2.535508635">
        <ele>141.45</ele>
        <time>2014-01-19T10:54:05Z</time>
      </trkpt>
      <trkpt lat="41.614190234" lon="2.535511904">
        <ele>141.45</ele>
        <time>2014-01-19T10:54:18Z</time>
      </trkpt>
      <trkpt lat="41.614196185" lon="2.535509724">
        <ele>141.45</ele>
        <time>2014-01-19T10:54:33Z</time>
      </trkpt>
      <trkpt lat="41.614195431" lon="2.535502516">
        <ele>141.45</ele>
        <time>2014-01-19T10:54:46Z</time>
      </trkpt>
      <trkpt lat="41.614199706" lon="2.535497990">
        <ele>141.45</ele>
        <time>2014-01-19T10:54:58Z</time>
      </trkpt>
      <trkpt lat="41.614199622" lon="2.535506204">
        <ele>141.93</ele>
        <time>2014-01-19T10:55:09Z</time>
      </trkpt>
      <trkpt lat="41.614195431" lon="2.535500756">
        <ele>141.93</ele>
        <time>2014-01-19T10:55:24Z</time>
      </trkpt>
      <trkpt lat="41.614184534" lon="2.535489272">
        <ele>141.93</ele>
        <time>2014-01-19T10:55:38Z</time>
      </trkpt>
      <trkpt lat="41.614177829" lon="2.535480807">
        <ele>141.93</ele>
        <time>2014-01-19T10:55:52Z</time>
      </trkpt>
      <trkpt lat="41.614179086" lon="2.535490362">
        <ele>141.45</ele>
        <time>2014-01-19T10:56:15Z</time>
      </trkpt>
      <trkpt lat="41.614183948" lon="2.535496732">
        <ele>141.45</ele>
        <time>2014-01-19T10:56:31Z</time>
      </trkpt>
      <trkpt lat="41.614181768" lon="2.535495475">
        <ele>141.45</ele>
        <time>2014-01-19T10:56:48Z</time>
      </trkpt>
      <trkpt lat="41.614192330" lon="2.535500588">
        <ele>141.45</ele>
        <time>2014-01-19T10:57:01Z</time>
      </trkpt>
      <trkpt lat="41.614194593" lon="2.535501342">
        <ele>141.45</ele>
        <time>2014-01-19T10:57:17Z</time>
      </trkpt>
      <trkpt lat="41.614188139" lon="2.535497403">
        <ele>141.45</ele>
        <time>2014-01-19T10:57:34Z</time>
      </trkpt>
      <trkpt lat="41.614197862" lon="2.535497319">
        <ele>141.45</ele>
        <time>2014-01-19T10:57:49Z</time>
      </trkpt>
      <trkpt lat="41.614175147" lon="2.535560854">
        <ele>140.97</ele>
        <time>2014-01-19T10:57:58Z</time>
      </trkpt>
      <trkpt lat="41.614076659" lon="2.535810383">
        <ele>140.49</ele>
        <time>2014-01-19T10:58:05Z</time>
      </trkpt>
      <trkpt lat="41.613961911" lon="2.536133338">
        <ele>140.01</ele>
        <time>2014-01-19T10:58:12Z</time>
      </trkpt>
      <trkpt lat="41.613797123" lon="2.536494682">
        <ele>138.57</ele>
        <time>2014-01-19T10:58:20Z</time>
      </trkpt>
      <trkpt lat="41.613666365" lon="2.536728788">
        <ele>137.61</ele>
        <time>2014-01-19T10:58:27Z</time>
      </trkpt>
      <trkpt lat="41.613474000" lon="2.537053922">
        <ele>136.64</ele>
        <time>2014-01-19T10:58:35Z</time>
      </trkpt>
      <trkpt lat="41.613407951" lon="2.537125671">
        <ele>136.64</ele>
        <time>2014-01-19T10:58:37Z</time>
      </trkpt>
      <trkpt lat="41.613148615" lon="2.537406800">
        <ele>135.68</ele>
        <time>2014-01-19T10:58:45Z</time>
      </trkpt>
      <trkpt lat="41.613118440" lon="2.537450722">
        <ele>135.68</ele>
        <time>2014-01-19T10:58:46Z</time>
      </trkpt>
      <trkpt lat="41.612757515" lon="2.537862525">
        <ele>134.24</ele>
        <time>2014-01-19T10:58:56Z</time>
      </trkpt>
      <trkpt lat="41.612425508" lon="2.538239878">
        <ele>132.80</ele>
        <time>2014-01-19T10:59:05Z</time>
      </trkpt>
      <trkpt lat="41.612196095" lon="2.538648663">
        <ele>131.36</ele>
        <time>2014-01-19T10:59:13Z</time>
      </trkpt>
      <trkpt lat="41.612112863" lon="2.538852679">
        <ele>129.92</ele>
        <time>2014-01-19T10:59:18Z</time>
      </trkpt>
      <trkpt lat="41.611973891" lon="2.539036326">
        <ele>128.95</ele>
        <time>2014-01-19T10:59:24Z</time>
      </trkpt>
      <trkpt lat="41.611894012" lon="2.539055688">
        <ele>128.47</ele>
        <time>2014-01-19T10:59:28Z</time>
      </trkpt>
      <trkpt lat="41.611865010" lon="2.538941024">
        <ele>128.47</ele>
        <time>2014-01-19T10:59:34Z</time>
      </trkpt>
      <trkpt lat="41.611853611" lon="2.538891906">
        <ele>128.95</ele>
        <time>2014-01-19T10:59:41Z</time>
      </trkpt>
      <trkpt lat="41.611889234" lon="2.538877070">
        <ele>128.95</ele>
        <time>2014-01-19T10:59:52Z</time>
      </trkpt>
      <trkpt lat="41.611909099" lon="2.538882267">
        <ele>128.95</ele>
        <time>2014-01-19T11:00:03Z</time>
      </trkpt>
      <trkpt lat="41.611913625" lon="2.538875980">
        <ele>128.95</ele>
        <time>2014-01-19T11:00:10Z</time>
      </trkpt>
      <trkpt lat="41.611908009" lon="2.538856451">
        <ele>129.43</ele>
        <time>2014-01-19T11:00:12Z</time>
      </trkpt>
      <trkpt lat="41.611889485" lon="2.538818313">
        <ele>130.40</ele>
        <time>2014-01-19T11:00:14Z</time>
      </trkpt>
      <trkpt lat="41.611871381" lon="2.538773805">
        <ele>130.88</ele>
        <time>2014-01-19T11:00:16Z</time>
      </trkpt>
      <trkpt lat="41.611818072" lon="2.538738266">
        <ele>131.84</ele>
        <time>2014-01-19T11:00:19Z</time>
      </trkpt>
      <trkpt lat="41.611620175" lon="2.538759388">
        <ele>131.84</ele>
        <time>2014-01-19T11:00:25Z</time>
      </trkpt>
      <trkpt lat="41.611268889" lon="2.538799621">
        <ele>130.40</ele>
        <time>2014-01-19T11:00:32Z</time>
      </trkpt>
      <trkpt lat="41.611082224" lon="2.538830467">
        <ele>129.43</ele>
        <time>2014-01-19T11:00:35Z</time>
      </trkpt>
      <trkpt lat="41.610595152" lon="2.539071279">
        <ele>127.51</ele>
        <time>2014-01-19T11:00:43Z</time>
      </trkpt>
      <trkpt lat="41.610183265" lon="2.539313097">
        <ele>125.59</ele>
        <time>2014-01-19T11:00:50Z</time>
      </trkpt>
      <trkpt lat="41.609717567" lon="2.539618030">
        <ele>123.67</ele>
        <time>2014-01-19T11:00:58Z</time>
      </trkpt>
      <trkpt lat="41.609426798" lon="2.539776616">
        <ele>122.22</ele>
        <time>2014-01-19T11:01:04Z</time>
      </trkpt>
      <trkpt lat="41.609283049" lon="2.539873511">
        <ele>121.26</ele>
        <time>2014-01-19T11:01:07Z</time>
      </trkpt>
      <trkpt lat="41.609169306" lon="2.540045256">
        <ele>119.82</ele>
        <time>2014-01-19T11:01:11Z</time>
      </trkpt>
      <trkpt lat="41.609111807" lon="2.540233262">
        <ele>119.34</ele>
        <time>2014-01-19T11:01:15Z</time>
      </trkpt>
      <trkpt lat="41.608948108" lon="2.540378017">
        <ele>118.86</ele>
        <time>2014-01-19T11:01:20Z</time>
      </trkpt>
      <trkpt lat="41.608879460" lon="2.540457394">
        <ele>118.86</ele>
        <time>2014-01-19T11:01:26Z</time>
      </trkpt>
      <trkpt lat="41.608883400" lon="2.540464938">
        <ele>118.86</ele>
        <time>2014-01-19T11:01:42Z</time>
      </trkpt>
      <trkpt lat="41.608892368" lon="2.540463010">
        <ele>118.86</ele>
        <time>2014-01-19T11:01:56Z</time>
      </trkpt>
      <trkpt lat="41.608888764" lon="2.540459992">
        <ele>118.86</ele>
        <time>2014-01-19T11:02:06Z</time>
      </trkpt>
      <trkpt lat="41.608883483" lon="2.540475918">
        <ele>118.86</ele>
        <time>2014-01-19T11:02:23Z</time>
      </trkpt>
      <trkpt lat="41.608876024" lon="2.540483881">
        <ele>118.86</ele>
        <time>2014-01-19T11:02:37Z</time>
      </trkpt>
      <trkpt lat="41.608872503" lon="2.540486312">
        <ele>118.86</ele>
        <time>2014-01-19T11:02:38Z</time>
      </trkpt>
      <trkpt lat="41.608844340" lon="2.540438954">
        <ele>118.38</ele>
        <time>2014-01-19T11:02:42Z</time>
      </trkpt>
      <trkpt lat="41.608845849" lon="2.540403498">
        <ele>118.38</ele>
        <time>2014-01-19T11:02:44Z</time>
      </trkpt>
      <trkpt lat="41.608744931" lon="2.540321859">
        <ele>117.42</ele>
        <time>2014-01-19T11:02:50Z</time>
      </trkpt>
      <trkpt lat="41.608689610" lon="2.540325547">
        <ele>117.42</ele>
        <time>2014-01-19T11:02:52Z</time>
      </trkpt>
      <trkpt lat="41.608395154" lon="2.540366199">
        <ele>116.46</ele>
        <time>2014-01-19T11:03:03Z</time>
      </trkpt>
      <trkpt lat="41.608102877" lon="2.540401654">
        <ele>115.98</ele>
        <time>2014-01-19T11:03:12Z</time>
      </trkpt>
      <trkpt lat="41.607777575" lon="2.540421436">
        <ele>115.50</ele>
        <time>2014-01-19T11:03:22Z</time>
      </trkpt>
      <trkpt lat="41.607699959" lon="2.540461920">
        <ele>115.01</ele>
        <time>2014-01-19T11:03:25Z</time>
      </trkpt>
      <trkpt lat="41.607515976" lon="2.540420346">
        <ele>114.05</ele>
        <time>2014-01-19T11:03:31Z</time>
      </trkpt>
      <trkpt lat="41.607464595" lon="2.540406348">
        <ele>113.57</ele>
        <time>2014-01-19T11:03:32Z</time>
      </trkpt>
      <trkpt lat="41.606958496" lon="2.540264946">
        <ele>112.13</ele>
        <time>2014-01-19T11:03:42Z</time>
      </trkpt>
      <trkpt lat="41.606464047" lon="2.540167632">
        <ele>111.17</ele>
        <time>2014-01-19T11:03:52Z</time>
      </trkpt>
      <trkpt lat="41.606188283" lon="2.540132092">
        <ele>110.21</ele>
        <time>2014-01-19T11:03:59Z</time>
      </trkpt>
      <trkpt lat="41.606143104" lon="2.540157322">
        <ele>110.21</ele>
        <time>2014-01-19T11:04:05Z</time>
      </trkpt>
      <trkpt lat="41.606112342" lon="2.540182887">
        <ele>110.21</ele>
        <time>2014-01-19T11:04:16Z</time>
      </trkpt>
      <trkpt lat="41.606080827" lon="2.540199818">
        <ele>110.21</ele>
        <time>2014-01-19T11:04:34Z</time>
      </trkpt>
      <trkpt lat="41.606067415" lon="2.540200405">
        <ele>110.21</ele>
        <time>2014-01-19T11:04:42Z</time>
      </trkpt>
      <trkpt lat="41.606073031" lon="2.540206775">
        <ele>110.21</ele>
        <time>2014-01-19T11:04:50Z</time>
      </trkpt>
      <trkpt lat="41.606079653" lon="2.540208284">
        <ele>110.21</ele>
        <time>2014-01-19T11:05:00Z</time>
      </trkpt>
      <trkpt lat="41.606071523" lon="2.540212978">
        <ele>110.21</ele>
        <time>2014-01-19T11:05:03Z</time>
      </trkpt>
      <trkpt lat="41.605985105" lon="2.540352955">
        <ele>110.21</ele>
        <time>2014-01-19T11:05:09Z</time>
      </trkpt>
      <trkpt lat="41.605914865" lon="2.540395871">
        <ele>110.21</ele>
        <time>2014-01-19T11:05:13Z</time>
      </trkpt>
      <trkpt lat="41.605917044" lon="2.540412132">
        <ele>110.21</ele>
        <time>2014-01-19T11:05:14Z</time>
      </trkpt>
      <trkpt lat="41.605965408" lon="2.540484803">
        <ele>111.65</ele>
        <time>2014-01-19T11:05:19Z</time>
      </trkpt>
      <trkpt lat="41.605977897" lon="2.540507266">
        <ele>111.65</ele>
        <time>2014-01-19T11:05:20Z</time>
      </trkpt>
      <trkpt lat="41.606187528" lon="2.540621763">
        <ele>112.61</ele>
        <time>2014-01-19T11:05:27Z</time>
      </trkpt>
      <trkpt lat="41.606496066" lon="2.540746318">
        <ele>113.57</ele>
        <time>2014-01-19T11:05:36Z</time>
      </trkpt>
      <trkpt lat="41.606548118" lon="2.540788395">
        <ele>113.57</ele>
        <time>2014-01-19T11:05:38Z</time>
      </trkpt>
      <trkpt lat="41.606618442" lon="2.541090144">
        <ele>115.01</ele>
        <time>2014-01-19T11:05:46Z</time>
      </trkpt>
      <trkpt lat="41.606715253" lon="2.541466743">
        <ele>116.94</ele>
        <time>2014-01-19T11:05:57Z</time>
      </trkpt>
      <trkpt lat="41.606825810" lon="2.541803863">
        <ele>119.34</ele>
        <time>2014-01-19T11:06:08Z</time>
      </trkpt>
      <trkpt lat="41.606932679" lon="2.542066049">
        <ele>120.78</ele>
        <time>2014-01-19T11:06:17Z</time>
      </trkpt>
      <trkpt lat="41.607012978" lon="2.542257073">
        <ele>122.71</ele>
        <time>2014-01-19T11:06:24Z</time>
      </trkpt>
      <trkpt lat="41.607068634" lon="2.542331504">
        <ele>123.19</ele>
        <time>2014-01-19T11:06:30Z</time>
      </trkpt>
      <trkpt lat="41.607099563" lon="2.542335276">
        <ele>123.67</ele>
        <time>2014-01-19T11:06:37Z</time>
      </trkpt>
    </trkseg>
  </trk>
</gpx>
